<?xml version="1.0" encoding="UTF-8" standalone="no" ?>
<gpx xmlns="http://www.topografix.com/GPX/1/1" xmlns:xsi="http://www.w3.org/2001/XMLSchema-instance" xsi:schemaLocation="http://www.topografix.com/GPX/1/1 http://www.topografix.com/GPX/1/1/gpx.xsd" version="1.1" creator="VisuGPX - https://www.visugpx.com">
  <metadata>
    <name>Vercors: rocher de la Truite par le Pas de l\'Aubasse</name>
    <desc><![CDATA[d\'après \"Les 100 Pas du Vercors\" de Bernard Jalliffier-Ardent
Rude grimpée dans l\'éboulis de l\'Aubasse ... redescente tranquille par le Saut de la Truite ...]]></desc>
  </metadata>
  <trk>
    <name><![CDATA[ROCHER DE LA TRUITE]]></name>
    <trkseg>
      <trkpt lat="44.9182" lon="5.26344">
        <ele>444.27</ele>
        <time>2015-11-08T09:24:13Z</time>
      </trkpt>
      <trkpt lat="44.91821" lon="5.2634">
        <ele>461.09</ele>
        <time>2015-11-08T09:24:25Z</time>
      </trkpt>
      <trkpt lat="44.91829" lon="5.26336">
        <ele>623.07</ele>
        <time>2015-11-08T09:32:05Z</time>
      </trkpt>
      <trkpt lat="44.9183" lon="5.26341">
        <ele>620.67</ele>
        <time>2015-11-08T09:33:46Z</time>
      </trkpt>
      <trkpt lat="44.91825" lon="5.26342">
        <ele>621.15</ele>
        <time>2015-11-08T09:34:10Z</time>
      </trkpt>
      <trkpt lat="44.91819" lon="5.26344">
        <ele>620.67</ele>
        <time>2015-11-08T09:35:00Z</time>
      </trkpt>
      <trkpt lat="44.91795" lon="5.26344">
        <ele>620.67</ele>
        <time>2015-11-08T09:35:18Z</time>
      </trkpt>
      <trkpt lat="44.91783" lon="5.2634">
        <ele>620.67</ele>
        <time>2015-11-08T09:35:34Z</time>
      </trkpt>
      <trkpt lat="44.91771" lon="5.26339">
        <ele>620.67</ele>
        <time>2015-11-08T09:35:46Z</time>
      </trkpt>
      <trkpt lat="44.91756" lon="5.26341">
        <ele>622.11</ele>
        <time>2015-11-08T09:36:01Z</time>
      </trkpt>
      <trkpt lat="44.91743" lon="5.26348">
        <ele>624.99</ele>
        <time>2015-11-08T09:36:19Z</time>
      </trkpt>
      <trkpt lat="44.91737" lon="5.26348">
        <ele>626.92</ele>
        <time>2015-11-08T09:36:31Z</time>
      </trkpt>
      <trkpt lat="44.91723" lon="5.26342">
        <ele>628.36</ele>
        <time>2015-11-08T09:36:46Z</time>
      </trkpt>
      <trkpt lat="44.91713" lon="5.26332">
        <ele>630.76</ele>
        <time>2015-11-08T09:37:02Z</time>
      </trkpt>
      <trkpt lat="44.91706" lon="5.26326">
        <ele>632.2</ele>
        <time>2015-11-08T09:37:13Z</time>
      </trkpt>
      <trkpt lat="44.91701" lon="5.26319">
        <ele>631.72</ele>
        <time>2015-11-08T09:38:34Z</time>
      </trkpt>
      <trkpt lat="44.91698" lon="5.26315">
        <ele>632.2</ele>
        <time>2015-11-08T09:38:37Z</time>
      </trkpt>
      <trkpt lat="44.9169" lon="5.26305">
        <ele>632.68</ele>
        <time>2015-11-08T09:38:52Z</time>
      </trkpt>
      <trkpt lat="44.91692" lon="5.26298">
        <ele>632.68</ele>
        <time>2015-11-08T09:39:13Z</time>
      </trkpt>
      <trkpt lat="44.91686" lon="5.26284">
        <ele>634.61</ele>
        <time>2015-11-08T09:39:26Z</time>
      </trkpt>
      <trkpt lat="44.91683" lon="5.2628">
        <ele>637.97</ele>
        <time>2015-11-08T09:39:30Z</time>
      </trkpt>
      <trkpt lat="44.91677" lon="5.26272">
        <ele>636.53</ele>
        <time>2015-11-08T09:39:43Z</time>
      </trkpt>
      <trkpt lat="44.91672" lon="5.26267">
        <ele>638.45</ele>
        <time>2015-11-08T09:39:51Z</time>
      </trkpt>
      <trkpt lat="44.91653" lon="5.26252">
        <ele>640.38</ele>
        <time>2015-11-08T09:40:06Z</time>
      </trkpt>
      <trkpt lat="44.91633" lon="5.26239">
        <ele>642.3</ele>
        <time>2015-11-08T09:40:22Z</time>
      </trkpt>
      <trkpt lat="44.91631" lon="5.2624">
        <ele>643.26</ele>
        <time>2015-11-08T09:40:24Z</time>
      </trkpt>
      <trkpt lat="44.91635" lon="5.26248">
        <ele>644.7</ele>
        <time>2015-11-08T09:40:40Z</time>
      </trkpt>
      <trkpt lat="44.91648" lon="5.26263">
        <ele>646.62</ele>
        <time>2015-11-08T09:40:54Z</time>
      </trkpt>
      <trkpt lat="44.91653" lon="5.26279">
        <ele>648.07</ele>
        <time>2015-11-08T09:41:06Z</time>
      </trkpt>
      <trkpt lat="44.91654" lon="5.26291">
        <ele>649.03</ele>
        <time>2015-11-08T09:41:19Z</time>
      </trkpt>
      <trkpt lat="44.91655" lon="5.26292">
        <ele>648.55</ele>
        <time>2015-11-08T09:41:20Z</time>
      </trkpt>
      <trkpt lat="44.91656" lon="5.26304">
        <ele>649.03</ele>
        <time>2015-11-08T09:41:34Z</time>
      </trkpt>
      <trkpt lat="44.91659" lon="5.26316">
        <ele>649.99</ele>
        <time>2015-11-08T09:41:45Z</time>
      </trkpt>
      <trkpt lat="44.91665" lon="5.26333">
        <ele>650.95</ele>
        <time>2015-11-08T09:41:59Z</time>
      </trkpt>
      <trkpt lat="44.91671" lon="5.26349">
        <ele>653.35</ele>
        <time>2015-11-08T09:42:14Z</time>
      </trkpt>
      <trkpt lat="44.91674" lon="5.26367">
        <ele>654.8</ele>
        <time>2015-11-08T09:42:27Z</time>
      </trkpt>
      <trkpt lat="44.9167" lon="5.26374">
        <ele>654.8</ele>
        <time>2015-11-08T09:42:32Z</time>
      </trkpt>
      <trkpt lat="44.91669" lon="5.26365">
        <ele>657.2</ele>
        <time>2015-11-08T09:42:44Z</time>
      </trkpt>
      <trkpt lat="44.91663" lon="5.26349">
        <ele>657.2</ele>
        <time>2015-11-08T09:42:59Z</time>
      </trkpt>
      <trkpt lat="44.91652" lon="5.26336">
        <ele>658.64</ele>
        <time>2015-11-08T09:43:13Z</time>
      </trkpt>
      <trkpt lat="44.91644" lon="5.26326">
        <ele>659.6</ele>
        <time>2015-11-08T09:43:27Z</time>
      </trkpt>
      <trkpt lat="44.9163" lon="5.26315">
        <ele>661.04</ele>
        <time>2015-11-08T09:43:44Z</time>
      </trkpt>
      <trkpt lat="44.91615" lon="5.26312">
        <ele>662.97</ele>
        <time>2015-11-08T09:43:59Z</time>
      </trkpt>
      <trkpt lat="44.91606" lon="5.26302">
        <ele>665.37</ele>
        <time>2015-11-08T09:44:15Z</time>
      </trkpt>
      <trkpt lat="44.91603" lon="5.26283">
        <ele>665.85</ele>
        <time>2015-11-08T09:44:30Z</time>
      </trkpt>
      <trkpt lat="44.9159" lon="5.26267">
        <ele>667.77</ele>
        <time>2015-11-08T09:44:44Z</time>
      </trkpt>
      <trkpt lat="44.9157" lon="5.26262">
        <ele>668.73</ele>
        <time>2015-11-08T09:45:03Z</time>
      </trkpt>
      <trkpt lat="44.91553" lon="5.26258">
        <ele>669.22</ele>
        <time>2015-11-08T09:45:20Z</time>
      </trkpt>
      <trkpt lat="44.91536" lon="5.26255">
        <ele>669.7</ele>
        <time>2015-11-08T09:45:35Z</time>
      </trkpt>
      <trkpt lat="44.91532" lon="5.26254">
        <ele>669.7</ele>
        <time>2015-11-08T09:45:39Z</time>
      </trkpt>
      <trkpt lat="44.91519" lon="5.26256">
        <ele>668.73</ele>
        <time>2015-11-08T09:45:52Z</time>
      </trkpt>
      <trkpt lat="44.91502" lon="5.26263">
        <ele>670.66</ele>
        <time>2015-11-08T09:46:08Z</time>
      </trkpt>
      <trkpt lat="44.9149" lon="5.26269">
        <ele>672.1</ele>
        <time>2015-11-08T09:46:20Z</time>
      </trkpt>
      <trkpt lat="44.91476" lon="5.26278">
        <ele>674.5</ele>
        <time>2015-11-08T09:46:35Z</time>
      </trkpt>
      <trkpt lat="44.91462" lon="5.26272">
        <ele>675.46</ele>
        <time>2015-11-08T09:46:48Z</time>
      </trkpt>
      <trkpt lat="44.91452" lon="5.26255">
        <ele>676.42</ele>
        <time>2015-11-08T09:47:03Z</time>
      </trkpt>
      <trkpt lat="44.91445" lon="5.26244">
        <ele>677.87</ele>
        <time>2015-11-08T09:47:14Z</time>
      </trkpt>
      <trkpt lat="44.9143" lon="5.26237">
        <ele>680.27</ele>
        <time>2015-11-08T09:47:32Z</time>
      </trkpt>
      <trkpt lat="44.91419" lon="5.2624">
        <ele>681.71</ele>
        <time>2015-11-08T09:47:47Z</time>
      </trkpt>
      <trkpt lat="44.91404" lon="5.26245">
        <ele>683.63</ele>
        <time>2015-11-08T09:48:02Z</time>
      </trkpt>
      <trkpt lat="44.91397" lon="5.26249">
        <ele>685.08</ele>
        <time>2015-11-08T09:48:10Z</time>
      </trkpt>
      <trkpt lat="44.9139" lon="5.26252">
        <ele>686.04</ele>
        <time>2015-11-08T09:48:22Z</time>
      </trkpt>
      <trkpt lat="44.91388" lon="5.26262">
        <ele>687.48</ele>
        <time>2015-11-08T09:48:34Z</time>
      </trkpt>
      <trkpt lat="44.91397" lon="5.26265">
        <ele>689.88</ele>
        <time>2015-11-08T09:48:45Z</time>
      </trkpt>
      <trkpt lat="44.91405" lon="5.26267">
        <ele>689.88</ele>
        <time>2015-11-08T09:48:51Z</time>
      </trkpt>
      <trkpt lat="44.91415" lon="5.26281">
        <ele>691.33</ele>
        <time>2015-11-08T09:49:06Z</time>
      </trkpt>
      <trkpt lat="44.91415" lon="5.26285">
        <ele>690.84</ele>
        <time>2015-11-08T09:49:18Z</time>
      </trkpt>
      <trkpt lat="44.91423" lon="5.26303">
        <ele>692.77</ele>
        <time>2015-11-08T09:49:33Z</time>
      </trkpt>
      <trkpt lat="44.91427" lon="5.26319">
        <ele>694.21</ele>
        <time>2015-11-08T09:49:45Z</time>
      </trkpt>
      <trkpt lat="44.9143" lon="5.26334">
        <ele>695.65</ele>
        <time>2015-11-08T09:49:57Z</time>
      </trkpt>
      <trkpt lat="44.91433" lon="5.2634">
        <ele>696.13</ele>
        <time>2015-11-08T09:50:03Z</time>
      </trkpt>
      <trkpt lat="44.91428" lon="5.26346">
        <ele>698.53</ele>
        <time>2015-11-08T09:50:17Z</time>
      </trkpt>
      <trkpt lat="44.91417" lon="5.26336">
        <ele>699.5</ele>
        <time>2015-11-08T09:50:31Z</time>
      </trkpt>
      <trkpt lat="44.91407" lon="5.2633">
        <ele>701.42</ele>
        <time>2015-11-08T09:50:44Z</time>
      </trkpt>
      <trkpt lat="44.91398" lon="5.26324">
        <ele>702.38</ele>
        <time>2015-11-08T09:50:57Z</time>
      </trkpt>
      <trkpt lat="44.91392" lon="5.26323">
        <ele>702.86</ele>
        <time>2015-11-08T09:51:10Z</time>
      </trkpt>
      <trkpt lat="44.9138" lon="5.26322">
        <ele>704.3</ele>
        <time>2015-11-08T09:51:24Z</time>
      </trkpt>
      <trkpt lat="44.91369" lon="5.26319">
        <ele>705.75</ele>
        <time>2015-11-08T09:51:35Z</time>
      </trkpt>
      <trkpt lat="44.91355" lon="5.26318">
        <ele>707.19</ele>
        <time>2015-11-08T09:51:50Z</time>
      </trkpt>
      <trkpt lat="44.91342" lon="5.26316">
        <ele>708.15</ele>
        <time>2015-11-08T09:52:05Z</time>
      </trkpt>
      <trkpt lat="44.91326" lon="5.26316">
        <ele>711.51</ele>
        <time>2015-11-08T09:52:21Z</time>
      </trkpt>
      <trkpt lat="44.91317" lon="5.26315">
        <ele>711.99</ele>
        <time>2015-11-08T09:52:32Z</time>
      </trkpt>
      <trkpt lat="44.91305" lon="5.26316">
        <ele>713.44</ele>
        <time>2015-11-08T09:52:44Z</time>
      </trkpt>
      <trkpt lat="44.91289" lon="5.26317">
        <ele>715.84</ele>
        <time>2015-11-08T09:52:57Z</time>
      </trkpt>
      <trkpt lat="44.91277" lon="5.26321">
        <ele>717.28</ele>
        <time>2015-11-08T09:53:10Z</time>
      </trkpt>
      <trkpt lat="44.91261" lon="5.2632">
        <ele>718.72</ele>
        <time>2015-11-08T09:53:24Z</time>
      </trkpt>
      <trkpt lat="44.91254" lon="5.2631">
        <ele>720.16</ele>
        <time>2015-11-08T09:53:35Z</time>
      </trkpt>
      <trkpt lat="44.91245" lon="5.26293">
        <ele>719.68</ele>
        <time>2015-11-08T09:53:48Z</time>
      </trkpt>
      <trkpt lat="44.9124" lon="5.26281">
        <ele>720.65</ele>
        <time>2015-11-08T09:54:02Z</time>
      </trkpt>
      <trkpt lat="44.91229" lon="5.26276">
        <ele>722.09</ele>
        <time>2015-11-08T09:54:15Z</time>
      </trkpt>
      <trkpt lat="44.91224" lon="5.26277">
        <ele>723.05</ele>
        <time>2015-11-08T09:54:27Z</time>
      </trkpt>
      <trkpt lat="44.91224" lon="5.26278">
        <ele>722.57</ele>
        <time>2015-11-08T09:54:29Z</time>
      </trkpt>
      <trkpt lat="44.91216" lon="5.26281">
        <ele>723.05</ele>
        <time>2015-11-08T09:54:35Z</time>
      </trkpt>
      <trkpt lat="44.91197" lon="5.26272">
        <ele>721.61</ele>
        <time>2015-11-08T09:54:50Z</time>
      </trkpt>
      <trkpt lat="44.91181" lon="5.26259">
        <ele>721.61</ele>
        <time>2015-11-08T09:55:04Z</time>
      </trkpt>
      <trkpt lat="44.91171" lon="5.2625">
        <ele>722.09</ele>
        <time>2015-11-08T09:55:13Z</time>
      </trkpt>
      <trkpt lat="44.91166" lon="5.26248">
        <ele>722.09</ele>
        <time>2015-11-08T09:55:17Z</time>
      </trkpt>
      <trkpt lat="44.91161" lon="5.26244">
        <ele>722.09</ele>
        <time>2015-11-08T09:55:21Z</time>
      </trkpt>
      <trkpt lat="44.91152" lon="5.2623">
        <ele>722.57</ele>
        <time>2015-11-08T09:55:34Z</time>
      </trkpt>
      <trkpt lat="44.91145" lon="5.2621">
        <ele>724.49</ele>
        <time>2015-11-08T09:55:50Z</time>
      </trkpt>
      <trkpt lat="44.91137" lon="5.26189">
        <ele>726.41</ele>
        <time>2015-11-08T09:56:05Z</time>
      </trkpt>
      <trkpt lat="44.91131" lon="5.26174">
        <ele>727.37</ele>
        <time>2015-11-08T09:56:18Z</time>
      </trkpt>
      <trkpt lat="44.91121" lon="5.26163">
        <ele>728.34</ele>
        <time>2015-11-08T09:56:32Z</time>
      </trkpt>
      <trkpt lat="44.91113" lon="5.26146">
        <ele>729.3</ele>
        <time>2015-11-08T09:56:45Z</time>
      </trkpt>
      <trkpt lat="44.91112" lon="5.26135">
        <ele>728.82</ele>
        <time>2015-11-08T09:57:01Z</time>
      </trkpt>
      <trkpt lat="44.91108" lon="5.26133">
        <ele>729.3</ele>
        <time>2015-11-08T09:57:04Z</time>
      </trkpt>
      <trkpt lat="44.91102" lon="5.26129">
        <ele>729.3</ele>
        <time>2015-11-08T09:57:11Z</time>
      </trkpt>
      <trkpt lat="44.91093" lon="5.26116">
        <ele>729.78</ele>
        <time>2015-11-08T09:57:26Z</time>
      </trkpt>
      <trkpt lat="44.91084" lon="5.26102">
        <ele>729.78</ele>
        <time>2015-11-08T09:57:41Z</time>
      </trkpt>
      <trkpt lat="44.9107" lon="5.26094">
        <ele>729.78</ele>
        <time>2015-11-08T09:57:55Z</time>
      </trkpt>
      <trkpt lat="44.91059" lon="5.26095">
        <ele>729.78</ele>
        <time>2015-11-08T09:58:08Z</time>
      </trkpt>
      <trkpt lat="44.9105" lon="5.261">
        <ele>729.3</ele>
        <time>2015-11-08T09:58:21Z</time>
      </trkpt>
      <trkpt lat="44.91038" lon="5.26104">
        <ele>729.78</ele>
        <time>2015-11-08T09:58:34Z</time>
      </trkpt>
      <trkpt lat="44.91024" lon="5.2611">
        <ele>730.26</ele>
        <time>2015-11-08T09:58:46Z</time>
      </trkpt>
      <trkpt lat="44.91011" lon="5.26115">
        <ele>730.74</ele>
        <time>2015-11-08T09:58:59Z</time>
      </trkpt>
      <trkpt lat="44.90992" lon="5.26119">
        <ele>731.7</ele>
        <time>2015-11-08T09:59:16Z</time>
      </trkpt>
      <trkpt lat="44.90976" lon="5.26123">
        <ele>733.14</ele>
        <time>2015-11-08T09:59:31Z</time>
      </trkpt>
      <trkpt lat="44.90961" lon="5.26123">
        <ele>733.62</ele>
        <time>2015-11-08T09:59:44Z</time>
      </trkpt>
      <trkpt lat="44.90945" lon="5.26128">
        <ele>734.58</ele>
        <time>2015-11-08T09:59:58Z</time>
      </trkpt>
      <trkpt lat="44.90934" lon="5.2614">
        <ele>734.58</ele>
        <time>2015-11-08T10:00:12Z</time>
      </trkpt>
      <trkpt lat="44.90934" lon="5.26141">
        <ele>735.55</ele>
        <time>2015-11-08T10:00:13Z</time>
      </trkpt>
      <trkpt lat="44.90922" lon="5.26152">
        <ele>735.55</ele>
        <time>2015-11-08T10:00:23Z</time>
      </trkpt>
      <trkpt lat="44.90918" lon="5.26156">
        <ele>736.51</ele>
        <time>2015-11-08T10:00:28Z</time>
      </trkpt>
      <trkpt lat="44.90907" lon="5.26167">
        <ele>736.99</ele>
        <time>2015-11-08T10:00:41Z</time>
      </trkpt>
      <trkpt lat="44.90894" lon="5.26175">
        <ele>737.47</ele>
        <time>2015-11-08T10:00:55Z</time>
      </trkpt>
      <trkpt lat="44.90891" lon="5.26176">
        <ele>737.47</ele>
        <time>2015-11-08T10:00:57Z</time>
      </trkpt>
      <trkpt lat="44.9088" lon="5.26185">
        <ele>738.43</ele>
        <time>2015-11-08T10:01:10Z</time>
      </trkpt>
      <trkpt lat="44.90869" lon="5.26203">
        <ele>738.91</ele>
        <time>2015-11-08T10:01:24Z</time>
      </trkpt>
      <trkpt lat="44.90864" lon="5.26217">
        <ele>741.31</ele>
        <time>2015-11-08T10:01:35Z</time>
      </trkpt>
      <trkpt lat="44.90858" lon="5.26226">
        <ele>743.72</ele>
        <time>2015-11-08T10:01:48Z</time>
      </trkpt>
      <trkpt lat="44.90851" lon="5.26234">
        <ele>746.6</ele>
        <time>2015-11-08T10:02:02Z</time>
      </trkpt>
      <trkpt lat="44.9085" lon="5.26235">
        <ele>747.08</ele>
        <time>2015-11-08T10:02:04Z</time>
      </trkpt>
      <trkpt lat="44.90845" lon="5.26241">
        <ele>749</ele>
        <time>2015-11-08T10:02:17Z</time>
      </trkpt>
      <trkpt lat="44.90841" lon="5.26248">
        <ele>749.97</ele>
        <time>2015-11-08T10:02:31Z</time>
      </trkpt>
      <trkpt lat="44.90834" lon="5.26257">
        <ele>751.89</ele>
        <time>2015-11-08T10:02:45Z</time>
      </trkpt>
      <trkpt lat="44.90832" lon="5.26261">
        <ele>750.93</ele>
        <time>2015-11-08T10:02:54Z</time>
      </trkpt>
      <trkpt lat="44.90832" lon="5.26261">
        <ele>755.25</ele>
        <time>2015-11-08T10:02:55Z</time>
      </trkpt>
      <trkpt lat="44.90832" lon="5.26262">
        <ele>752.85</ele>
        <time>2015-11-08T10:02:56Z</time>
      </trkpt>
      <trkpt lat="44.90826" lon="5.26271">
        <ele>753.33</ele>
        <time>2015-11-08T10:03:17Z</time>
      </trkpt>
      <trkpt lat="44.90819" lon="5.2628">
        <ele>756.69</ele>
        <time>2015-11-08T10:03:33Z</time>
      </trkpt>
      <trkpt lat="44.90817" lon="5.26282">
        <ele>757.18</ele>
        <time>2015-11-08T10:03:34Z</time>
      </trkpt>
      <trkpt lat="44.90816" lon="5.2629">
        <ele>758.62</ele>
        <time>2015-11-08T10:03:46Z</time>
      </trkpt>
      <trkpt lat="44.90808" lon="5.26295">
        <ele>761.02</ele>
        <time>2015-11-08T10:04:01Z</time>
      </trkpt>
      <trkpt lat="44.90798" lon="5.26301">
        <ele>761.98</ele>
        <time>2015-11-08T10:04:17Z</time>
      </trkpt>
      <trkpt lat="44.9079" lon="5.26306">
        <ele>764.87</ele>
        <time>2015-11-08T10:04:36Z</time>
      </trkpt>
      <trkpt lat="44.90781" lon="5.2631">
        <ele>767.75</ele>
        <time>2015-11-08T10:04:55Z</time>
      </trkpt>
      <trkpt lat="44.90763" lon="5.26314">
        <ele>771.11</ele>
        <time>2015-11-08T10:05:13Z</time>
      </trkpt>
      <trkpt lat="44.9075" lon="5.26313">
        <ele>773.52</ele>
        <time>2015-11-08T10:05:31Z</time>
      </trkpt>
      <trkpt lat="44.90743" lon="5.26313">
        <ele>774.48</ele>
        <time>2015-11-08T10:05:45Z</time>
      </trkpt>
      <trkpt lat="44.90732" lon="5.26308">
        <ele>776.88</ele>
        <time>2015-11-08T10:06:01Z</time>
      </trkpt>
      <trkpt lat="44.90721" lon="5.26302">
        <ele>778.32</ele>
        <time>2015-11-08T10:06:14Z</time>
      </trkpt>
      <trkpt lat="44.90712" lon="5.26301">
        <ele>781.21</ele>
        <time>2015-11-08T10:06:25Z</time>
      </trkpt>
      <trkpt lat="44.90709" lon="5.26302">
        <ele>780.73</ele>
        <time>2015-11-08T10:06:42Z</time>
      </trkpt>
      <trkpt lat="44.90707" lon="5.26306">
        <ele>781.21</ele>
        <time>2015-11-08T10:07:16Z</time>
      </trkpt>
      <trkpt lat="44.90705" lon="5.2631">
        <ele>780.73</ele>
        <time>2015-11-08T10:07:45Z</time>
      </trkpt>
      <trkpt lat="44.90705" lon="5.26317">
        <ele>781.69</ele>
        <time>2015-11-08T10:08:00Z</time>
      </trkpt>
      <trkpt lat="44.90707" lon="5.26306">
        <ele>780.73</ele>
        <time>2015-11-08T10:09:06Z</time>
      </trkpt>
      <trkpt lat="44.90705" lon="5.26312">
        <ele>781.21</ele>
        <time>2015-11-08T10:12:10Z</time>
      </trkpt>
      <trkpt lat="44.90707" lon="5.2633">
        <ele>781.21</ele>
        <time>2015-11-08T10:12:30Z</time>
      </trkpt>
      <trkpt lat="44.9071" lon="5.26333">
        <ele>782.17</ele>
        <time>2015-11-08T10:12:46Z</time>
      </trkpt>
      <trkpt lat="44.90713" lon="5.26337">
        <ele>782.65</ele>
        <time>2015-11-08T10:12:55Z</time>
      </trkpt>
      <trkpt lat="44.90717" lon="5.2634">
        <ele>785.05</ele>
        <time>2015-11-08T10:13:10Z</time>
      </trkpt>
      <trkpt lat="44.90722" lon="5.26346">
        <ele>786.98</ele>
        <time>2015-11-08T10:13:29Z</time>
      </trkpt>
      <trkpt lat="44.90729" lon="5.26354">
        <ele>789.86</ele>
        <time>2015-11-08T10:13:45Z</time>
      </trkpt>
      <trkpt lat="44.90746" lon="5.26365">
        <ele>791.78</ele>
        <time>2015-11-08T10:14:01Z</time>
      </trkpt>
      <trkpt lat="44.90753" lon="5.26363">
        <ele>793.71</ele>
        <time>2015-11-08T10:14:17Z</time>
      </trkpt>
      <trkpt lat="44.90756" lon="5.26361">
        <ele>793.71</ele>
        <time>2015-11-08T10:14:40Z</time>
      </trkpt>
      <trkpt lat="44.90765" lon="5.26362">
        <ele>795.63</ele>
        <time>2015-11-08T10:14:54Z</time>
      </trkpt>
      <trkpt lat="44.90776" lon="5.2636">
        <ele>798.03</ele>
        <time>2015-11-08T10:15:10Z</time>
      </trkpt>
      <trkpt lat="44.90788" lon="5.26364">
        <ele>799.95</ele>
        <time>2015-11-08T10:15:24Z</time>
      </trkpt>
      <trkpt lat="44.90796" lon="5.26361">
        <ele>800.44</ele>
        <time>2015-11-08T10:15:39Z</time>
      </trkpt>
      <trkpt lat="44.90806" lon="5.26365">
        <ele>801.88</ele>
        <time>2015-11-08T10:15:54Z</time>
      </trkpt>
      <trkpt lat="44.90815" lon="5.2637">
        <ele>803.8</ele>
        <time>2015-11-08T10:16:06Z</time>
      </trkpt>
      <trkpt lat="44.90826" lon="5.26372">
        <ele>805.24</ele>
        <time>2015-11-08T10:16:20Z</time>
      </trkpt>
      <trkpt lat="44.90833" lon="5.26371">
        <ele>806.68</ele>
        <time>2015-11-08T10:16:34Z</time>
      </trkpt>
      <trkpt lat="44.90838" lon="5.26369">
        <ele>810.53</ele>
        <time>2015-11-08T10:16:41Z</time>
      </trkpt>
      <trkpt lat="44.90852" lon="5.26369">
        <ele>810.53</ele>
        <time>2015-11-08T10:16:57Z</time>
      </trkpt>
      <trkpt lat="44.9086" lon="5.2637">
        <ele>812.93</ele>
        <time>2015-11-08T10:17:10Z</time>
      </trkpt>
      <trkpt lat="44.9087" lon="5.26371">
        <ele>813.41</ele>
        <time>2015-11-08T10:17:29Z</time>
      </trkpt>
      <trkpt lat="44.9088" lon="5.26384">
        <ele>815.82</ele>
        <time>2015-11-08T10:17:43Z</time>
      </trkpt>
      <trkpt lat="44.90884" lon="5.26388">
        <ele>817.26</ele>
        <time>2015-11-08T10:17:58Z</time>
      </trkpt>
      <trkpt lat="44.90891" lon="5.26396">
        <ele>817.74</ele>
        <time>2015-11-08T10:18:33Z</time>
      </trkpt>
      <trkpt lat="44.909" lon="5.2641">
        <ele>820.14</ele>
        <time>2015-11-08T10:18:49Z</time>
      </trkpt>
      <trkpt lat="44.90909" lon="5.26422">
        <ele>822.55</ele>
        <time>2015-11-08T10:19:04Z</time>
      </trkpt>
      <trkpt lat="44.90918" lon="5.26432">
        <ele>824.95</ele>
        <time>2015-11-08T10:19:18Z</time>
      </trkpt>
      <trkpt lat="44.90929" lon="5.26439">
        <ele>826.39</ele>
        <time>2015-11-08T10:19:33Z</time>
      </trkpt>
      <trkpt lat="44.90939" lon="5.26439">
        <ele>828.31</ele>
        <time>2015-11-08T10:19:47Z</time>
      </trkpt>
      <trkpt lat="44.90949" lon="5.2644">
        <ele>830.72</ele>
        <time>2015-11-08T10:20:01Z</time>
      </trkpt>
      <trkpt lat="44.90962" lon="5.26445">
        <ele>832.64</ele>
        <time>2015-11-08T10:20:18Z</time>
      </trkpt>
      <trkpt lat="44.9097" lon="5.26451">
        <ele>835.04</ele>
        <time>2015-11-08T10:20:31Z</time>
      </trkpt>
      <trkpt lat="44.90982" lon="5.26459">
        <ele>836.96</ele>
        <time>2015-11-08T10:20:47Z</time>
      </trkpt>
      <trkpt lat="44.90991" lon="5.26477">
        <ele>837.93</ele>
        <time>2015-11-08T10:21:02Z</time>
      </trkpt>
      <trkpt lat="44.90985" lon="5.26489">
        <ele>840.33</ele>
        <time>2015-11-08T10:21:17Z</time>
      </trkpt>
      <trkpt lat="44.90974" lon="5.26495">
        <ele>840.81</ele>
        <time>2015-11-08T10:21:30Z</time>
      </trkpt>
      <trkpt lat="44.9097" lon="5.26496">
        <ele>841.77</ele>
        <time>2015-11-08T10:21:52Z</time>
      </trkpt>
      <trkpt lat="44.90965" lon="5.2651">
        <ele>843.69</ele>
        <time>2015-11-08T10:22:17Z</time>
      </trkpt>
      <trkpt lat="44.90957" lon="5.26518">
        <ele>846.58</ele>
        <time>2015-11-08T10:22:32Z</time>
      </trkpt>
      <trkpt lat="44.9095" lon="5.26521">
        <ele>848.02</ele>
        <time>2015-11-08T10:22:46Z</time>
      </trkpt>
      <trkpt lat="44.9094" lon="5.26527">
        <ele>851.38</ele>
        <time>2015-11-08T10:23:02Z</time>
      </trkpt>
      <trkpt lat="44.90932" lon="5.26526">
        <ele>853.79</ele>
        <time>2015-11-08T10:23:16Z</time>
      </trkpt>
      <trkpt lat="44.90923" lon="5.26529">
        <ele>855.71</ele>
        <time>2015-11-08T10:23:30Z</time>
      </trkpt>
      <trkpt lat="44.90916" lon="5.26524">
        <ele>857.63</ele>
        <time>2015-11-08T10:23:44Z</time>
      </trkpt>
      <trkpt lat="44.90908" lon="5.26522">
        <ele>860.04</ele>
        <time>2015-11-08T10:24:00Z</time>
      </trkpt>
      <trkpt lat="44.90899" lon="5.26521">
        <ele>862.44</ele>
        <time>2015-11-08T10:24:16Z</time>
      </trkpt>
      <trkpt lat="44.90893" lon="5.26519">
        <ele>863.4</ele>
        <time>2015-11-08T10:24:32Z</time>
      </trkpt>
      <trkpt lat="44.90885" lon="5.26517">
        <ele>866.29</ele>
        <time>2015-11-08T10:26:17Z</time>
      </trkpt>
      <trkpt lat="44.90876" lon="5.26525">
        <ele>868.21</ele>
        <time>2015-11-08T10:26:34Z</time>
      </trkpt>
      <trkpt lat="44.90864" lon="5.26527">
        <ele>870.61</ele>
        <time>2015-11-08T10:26:51Z</time>
      </trkpt>
      <trkpt lat="44.90856" lon="5.26522">
        <ele>873.01</ele>
        <time>2015-11-08T10:27:05Z</time>
      </trkpt>
      <trkpt lat="44.90847" lon="5.26523">
        <ele>874.94</ele>
        <time>2015-11-08T10:27:19Z</time>
      </trkpt>
      <trkpt lat="44.90841" lon="5.26531">
        <ele>876.86</ele>
        <time>2015-11-08T10:27:36Z</time>
      </trkpt>
      <trkpt lat="44.9083" lon="5.26535">
        <ele>879.74</ele>
        <time>2015-11-08T10:27:53Z</time>
      </trkpt>
      <trkpt lat="44.90819" lon="5.26538">
        <ele>881.67</ele>
        <time>2015-11-08T10:28:10Z</time>
      </trkpt>
      <trkpt lat="44.9081" lon="5.26545">
        <ele>884.55</ele>
        <time>2015-11-08T10:28:28Z</time>
      </trkpt>
      <trkpt lat="44.90804" lon="5.26553">
        <ele>887.91</ele>
        <time>2015-11-08T10:28:44Z</time>
      </trkpt>
      <trkpt lat="44.90791" lon="5.26555">
        <ele>889.36</ele>
        <time>2015-11-08T10:29:02Z</time>
      </trkpt>
      <trkpt lat="44.90784" lon="5.26562">
        <ele>891.28</ele>
        <time>2015-11-08T10:29:18Z</time>
      </trkpt>
      <trkpt lat="44.90776" lon="5.2657">
        <ele>893.68</ele>
        <time>2015-11-08T10:29:35Z</time>
      </trkpt>
      <trkpt lat="44.90765" lon="5.26578">
        <ele>896.09</ele>
        <time>2015-11-08T10:29:50Z</time>
      </trkpt>
      <trkpt lat="44.90758" lon="5.26587">
        <ele>898.49</ele>
        <time>2015-11-08T10:30:07Z</time>
      </trkpt>
      <trkpt lat="44.9075" lon="5.266">
        <ele>899.93</ele>
        <time>2015-11-08T10:30:22Z</time>
      </trkpt>
      <trkpt lat="44.90742" lon="5.26615">
        <ele>900.41</ele>
        <time>2015-11-08T10:30:36Z</time>
      </trkpt>
      <trkpt lat="44.90739" lon="5.26616">
        <ele>901.37</ele>
        <time>2015-11-08T10:30:49Z</time>
      </trkpt>
      <trkpt lat="44.90739" lon="5.26615">
        <ele>901.37</ele>
        <time>2015-11-08T10:30:52Z</time>
      </trkpt>
      <trkpt lat="44.90737" lon="5.26613">
        <ele>899.93</ele>
        <time>2015-11-08T10:31:10Z</time>
      </trkpt>
      <trkpt lat="44.90732" lon="5.26612">
        <ele>900.89</ele>
        <time>2015-11-08T10:31:47Z</time>
      </trkpt>
      <trkpt lat="44.90731" lon="5.26613">
        <ele>901.37</ele>
        <time>2015-11-08T10:32:13Z</time>
      </trkpt>
      <trkpt lat="44.90735" lon="5.26612">
        <ele>901.85</ele>
        <time>2015-11-08T10:32:42Z</time>
      </trkpt>
      <trkpt lat="44.90733" lon="5.26612">
        <ele>902.33</ele>
        <time>2015-11-08T10:32:52Z</time>
      </trkpt>
      <trkpt lat="44.90729" lon="5.26616">
        <ele>903.3</ele>
        <time>2015-11-08T10:33:02Z</time>
      </trkpt>
      <trkpt lat="44.90723" lon="5.26631">
        <ele>905.22</ele>
        <time>2015-11-08T10:33:16Z</time>
      </trkpt>
      <trkpt lat="44.90713" lon="5.26646">
        <ele>906.66</ele>
        <time>2015-11-08T10:33:30Z</time>
      </trkpt>
      <trkpt lat="44.90695" lon="5.26652">
        <ele>908.58</ele>
        <time>2015-11-08T10:33:46Z</time>
      </trkpt>
      <trkpt lat="44.90686" lon="5.26656">
        <ele>910.03</ele>
        <time>2015-11-08T10:34:00Z</time>
      </trkpt>
      <trkpt lat="44.90675" lon="5.26666">
        <ele>913.39</ele>
        <time>2015-11-08T10:34:15Z</time>
      </trkpt>
      <trkpt lat="44.90663" lon="5.26675">
        <ele>915.31</ele>
        <time>2015-11-08T10:34:32Z</time>
      </trkpt>
      <trkpt lat="44.90649" lon="5.26675">
        <ele>916.27</ele>
        <time>2015-11-08T10:34:47Z</time>
      </trkpt>
      <trkpt lat="44.90639" lon="5.26677">
        <ele>919.64</ele>
        <time>2015-11-08T10:35:02Z</time>
      </trkpt>
      <trkpt lat="44.90629" lon="5.2667">
        <ele>921.08</ele>
        <time>2015-11-08T10:35:17Z</time>
      </trkpt>
      <trkpt lat="44.90621" lon="5.26669">
        <ele>922.04</ele>
        <time>2015-11-08T10:35:33Z</time>
      </trkpt>
      <trkpt lat="44.90617" lon="5.26667">
        <ele>922.04</ele>
        <time>2015-11-08T10:35:37Z</time>
      </trkpt>
      <trkpt lat="44.90605" lon="5.26663">
        <ele>922.52</ele>
        <time>2015-11-08T10:35:50Z</time>
      </trkpt>
      <trkpt lat="44.90594" lon="5.26662">
        <ele>923.96</ele>
        <time>2015-11-08T10:36:05Z</time>
      </trkpt>
      <trkpt lat="44.90578" lon="5.26659">
        <ele>925.41</ele>
        <time>2015-11-08T10:36:19Z</time>
      </trkpt>
      <trkpt lat="44.90566" lon="5.26657">
        <ele>926.85</ele>
        <time>2015-11-08T10:36:32Z</time>
      </trkpt>
      <trkpt lat="44.9056" lon="5.26662">
        <ele>927.33</ele>
        <time>2015-11-08T10:36:44Z</time>
      </trkpt>
      <trkpt lat="44.90547" lon="5.26662">
        <ele>929.25</ele>
        <time>2015-11-08T10:36:56Z</time>
      </trkpt>
      <trkpt lat="44.90537" lon="5.26655">
        <ele>930.69</ele>
        <time>2015-11-08T10:37:11Z</time>
      </trkpt>
      <trkpt lat="44.90522" lon="5.26643">
        <ele>932.62</ele>
        <time>2015-11-08T10:37:25Z</time>
      </trkpt>
      <trkpt lat="44.90511" lon="5.26637">
        <ele>932.62</ele>
        <time>2015-11-08T10:37:40Z</time>
      </trkpt>
      <trkpt lat="44.90501" lon="5.26635">
        <ele>933.58</ele>
        <time>2015-11-08T10:37:52Z</time>
      </trkpt>
      <trkpt lat="44.9049" lon="5.26629">
        <ele>935.5</ele>
        <time>2015-11-08T10:38:05Z</time>
      </trkpt>
      <trkpt lat="44.90486" lon="5.26625">
        <ele>936.46</ele>
        <time>2015-11-08T10:38:18Z</time>
      </trkpt>
      <trkpt lat="44.90483" lon="5.26621">
        <ele>935.98</ele>
        <time>2015-11-08T10:38:27Z</time>
      </trkpt>
      <trkpt lat="44.90477" lon="5.26616">
        <ele>935.02</ele>
        <time>2015-11-08T10:38:37Z</time>
      </trkpt>
      <trkpt lat="44.90473" lon="5.26614">
        <ele>934.54</ele>
        <time>2015-11-08T10:38:41Z</time>
      </trkpt>
      <trkpt lat="44.90467" lon="5.26597">
        <ele>933.58</ele>
        <time>2015-11-08T10:38:55Z</time>
      </trkpt>
      <trkpt lat="44.90462" lon="5.26587">
        <ele>933.58</ele>
        <time>2015-11-08T10:39:09Z</time>
      </trkpt>
      <trkpt lat="44.9046" lon="5.26582">
        <ele>935.02</ele>
        <time>2015-11-08T10:39:19Z</time>
      </trkpt>
      <trkpt lat="44.90452" lon="5.26583">
        <ele>937.42</ele>
        <time>2015-11-08T10:39:34Z</time>
      </trkpt>
      <trkpt lat="44.90446" lon="5.26584">
        <ele>939.35</ele>
        <time>2015-11-08T10:39:49Z</time>
      </trkpt>
      <trkpt lat="44.90445" lon="5.26583">
        <ele>939.35</ele>
        <time>2015-11-08T10:40:01Z</time>
      </trkpt>
      <trkpt lat="44.90442" lon="5.26588">
        <ele>941.27</ele>
        <time>2015-11-08T10:40:23Z</time>
      </trkpt>
      <trkpt lat="44.90437" lon="5.26595">
        <ele>944.15</ele>
        <time>2015-11-08T10:40:38Z</time>
      </trkpt>
      <trkpt lat="44.90434" lon="5.266">
        <ele>946.56</ele>
        <time>2015-11-08T10:40:51Z</time>
      </trkpt>
      <trkpt lat="44.9043" lon="5.26596">
        <ele>948.48</ele>
        <time>2015-11-08T10:41:05Z</time>
      </trkpt>
      <trkpt lat="44.90425" lon="5.26598">
        <ele>950.4</ele>
        <time>2015-11-08T10:41:19Z</time>
      </trkpt>
      <trkpt lat="44.9042" lon="5.26608">
        <ele>952.8</ele>
        <time>2015-11-08T10:41:32Z</time>
      </trkpt>
      <trkpt lat="44.90418" lon="5.26615">
        <ele>954.25</ele>
        <time>2015-11-08T10:41:48Z</time>
      </trkpt>
      <trkpt lat="44.90418" lon="5.26614">
        <ele>954.25</ele>
        <time>2015-11-08T10:42:05Z</time>
      </trkpt>
      <trkpt lat="44.90414" lon="5.26614">
        <ele>956.65</ele>
        <time>2015-11-08T10:42:17Z</time>
      </trkpt>
      <trkpt lat="44.90412" lon="5.26616">
        <ele>958.09</ele>
        <time>2015-11-08T10:42:29Z</time>
      </trkpt>
      <trkpt lat="44.90409" lon="5.26622">
        <ele>960.49</ele>
        <time>2015-11-08T10:42:43Z</time>
      </trkpt>
      <trkpt lat="44.90409" lon="5.26623">
        <ele>960.49</ele>
        <time>2015-11-08T10:42:59Z</time>
      </trkpt>
      <trkpt lat="44.90403" lon="5.26625">
        <ele>962.42</ele>
        <time>2015-11-08T10:43:14Z</time>
      </trkpt>
      <trkpt lat="44.90401" lon="5.26635">
        <ele>963.86</ele>
        <time>2015-11-08T10:43:28Z</time>
      </trkpt>
      <trkpt lat="44.904" lon="5.2664">
        <ele>963.38</ele>
        <time>2015-11-08T10:43:48Z</time>
      </trkpt>
      <trkpt lat="44.904" lon="5.26637">
        <ele>965.78</ele>
        <time>2015-11-08T10:44:18Z</time>
      </trkpt>
      <trkpt lat="44.90395" lon="5.26638">
        <ele>967.22</ele>
        <time>2015-11-08T10:44:33Z</time>
      </trkpt>
      <trkpt lat="44.90389" lon="5.26634">
        <ele>970.11</ele>
        <time>2015-11-08T10:44:49Z</time>
      </trkpt>
      <trkpt lat="44.90388" lon="5.26645">
        <ele>971.55</ele>
        <time>2015-11-08T10:45:04Z</time>
      </trkpt>
      <trkpt lat="44.90383" lon="5.26651">
        <ele>973.47</ele>
        <time>2015-11-08T10:45:19Z</time>
      </trkpt>
      <trkpt lat="44.9038" lon="5.26659">
        <ele>975.39</ele>
        <time>2015-11-08T10:45:34Z</time>
      </trkpt>
      <trkpt lat="44.90377" lon="5.26658">
        <ele>978.28</ele>
        <time>2015-11-08T10:45:49Z</time>
      </trkpt>
      <trkpt lat="44.9037" lon="5.26663">
        <ele>978.76</ele>
        <time>2015-11-08T10:46:05Z</time>
      </trkpt>
      <trkpt lat="44.90369" lon="5.26664">
        <ele>982.12</ele>
        <time>2015-11-08T10:46:06Z</time>
      </trkpt>
      <trkpt lat="44.90365" lon="5.26662">
        <ele>982.12</ele>
        <time>2015-11-08T10:46:21Z</time>
      </trkpt>
      <trkpt lat="44.90366" lon="5.26661">
        <ele>982.6</ele>
        <time>2015-11-08T10:46:37Z</time>
      </trkpt>
      <trkpt lat="44.90363" lon="5.26662">
        <ele>983.09</ele>
        <time>2015-11-08T10:46:52Z</time>
      </trkpt>
      <trkpt lat="44.90361" lon="5.26666">
        <ele>985.01</ele>
        <time>2015-11-08T10:46:59Z</time>
      </trkpt>
      <trkpt lat="44.90358" lon="5.2667">
        <ele>986.93</ele>
        <time>2015-11-08T10:47:11Z</time>
      </trkpt>
      <trkpt lat="44.90354" lon="5.26677">
        <ele>988.85</ele>
        <time>2015-11-08T10:47:23Z</time>
      </trkpt>
      <trkpt lat="44.9035" lon="5.2668">
        <ele>991.26</ele>
        <time>2015-11-08T10:47:37Z</time>
      </trkpt>
      <trkpt lat="44.90347" lon="5.26687">
        <ele>991.74</ele>
        <time>2015-11-08T10:47:52Z</time>
      </trkpt>
      <trkpt lat="44.90341" lon="5.26687">
        <ele>993.66</ele>
        <time>2015-11-08T10:48:09Z</time>
      </trkpt>
      <trkpt lat="44.90343" lon="5.26684">
        <ele>995.58</ele>
        <time>2015-11-08T10:48:22Z</time>
      </trkpt>
      <trkpt lat="44.90347" lon="5.26684">
        <ele>995.58</ele>
        <time>2015-11-08T10:48:42Z</time>
      </trkpt>
      <trkpt lat="44.90347" lon="5.26682">
        <ele>995.1</ele>
        <time>2015-11-08T10:49:06Z</time>
      </trkpt>
      <trkpt lat="44.90351" lon="5.2668">
        <ele>994.62</ele>
        <time>2015-11-08T10:49:31Z</time>
      </trkpt>
      <trkpt lat="44.90354" lon="5.26682">
        <ele>995.1</ele>
        <time>2015-11-08T10:50:13Z</time>
      </trkpt>
      <trkpt lat="44.90344" lon="5.26685">
        <ele>994.62</ele>
        <time>2015-11-08T10:50:35Z</time>
      </trkpt>
      <trkpt lat="44.90339" lon="5.2669">
        <ele>997.99</ele>
        <time>2015-11-08T10:50:45Z</time>
      </trkpt>
      <trkpt lat="44.90335" lon="5.26691">
        <ele>998.95</ele>
        <time>2015-11-08T10:50:50Z</time>
      </trkpt>
      <trkpt lat="44.90329" lon="5.26693">
        <ele>1000.39</ele>
        <time>2015-11-08T10:51:03Z</time>
      </trkpt>
      <trkpt lat="44.90323" lon="5.26694">
        <ele>1003.27</ele>
        <time>2015-11-08T10:51:16Z</time>
      </trkpt>
      <trkpt lat="44.90324" lon="5.26697">
        <ele>1004.72</ele>
        <time>2015-11-08T10:51:30Z</time>
      </trkpt>
      <trkpt lat="44.90322" lon="5.26697">
        <ele>1004.72</ele>
        <time>2015-11-08T10:51:48Z</time>
      </trkpt>
      <trkpt lat="44.90317" lon="5.26692">
        <ele>1007.6</ele>
        <time>2015-11-08T10:52:03Z</time>
      </trkpt>
      <trkpt lat="44.90313" lon="5.26686">
        <ele>1010</ele>
        <time>2015-11-08T10:52:17Z</time>
      </trkpt>
      <trkpt lat="44.90311" lon="5.26687">
        <ele>1011.44</ele>
        <time>2015-11-08T10:52:20Z</time>
      </trkpt>
      <trkpt lat="44.90307" lon="5.2669">
        <ele>1012.89</ele>
        <time>2015-11-08T10:52:36Z</time>
      </trkpt>
      <trkpt lat="44.90302" lon="5.26692">
        <ele>1015.77</ele>
        <time>2015-11-08T10:52:49Z</time>
      </trkpt>
      <trkpt lat="44.90299" lon="5.26698">
        <ele>1017.69</ele>
        <time>2015-11-08T10:53:00Z</time>
      </trkpt>
      <trkpt lat="44.90293" lon="5.26701">
        <ele>1019.13</ele>
        <time>2015-11-08T10:53:14Z</time>
      </trkpt>
      <trkpt lat="44.90289" lon="5.26706">
        <ele>1021.06</ele>
        <time>2015-11-08T10:53:28Z</time>
      </trkpt>
      <trkpt lat="44.90293" lon="5.26701">
        <ele>1021.54</ele>
        <time>2015-11-08T10:53:44Z</time>
      </trkpt>
      <trkpt lat="44.90297" lon="5.26701">
        <ele>1021.54</ele>
        <time>2015-11-08T10:54:12Z</time>
      </trkpt>
      <trkpt lat="44.90298" lon="5.26703">
        <ele>1021.54</ele>
        <time>2015-11-08T10:54:33Z</time>
      </trkpt>
      <trkpt lat="44.90291" lon="5.26701">
        <ele>1022.02</ele>
        <time>2015-11-08T10:54:58Z</time>
      </trkpt>
      <trkpt lat="44.90285" lon="5.26702">
        <ele>1022.98</ele>
        <time>2015-11-08T10:55:19Z</time>
      </trkpt>
      <trkpt lat="44.90279" lon="5.26698">
        <ele>1024.9</ele>
        <time>2015-11-08T10:55:31Z</time>
      </trkpt>
      <trkpt lat="44.90276" lon="5.267">
        <ele>1025.86</ele>
        <time>2015-11-08T10:55:48Z</time>
      </trkpt>
      <trkpt lat="44.90271" lon="5.26702">
        <ele>1027.79</ele>
        <time>2015-11-08T10:56:01Z</time>
      </trkpt>
      <trkpt lat="44.90274" lon="5.26706">
        <ele>1027.79</ele>
        <time>2015-11-08T10:56:18Z</time>
      </trkpt>
      <trkpt lat="44.90268" lon="5.26712">
        <ele>1031.15</ele>
        <time>2015-11-08T10:56:32Z</time>
      </trkpt>
      <trkpt lat="44.90264" lon="5.26713">
        <ele>1033.07</ele>
        <time>2015-11-08T10:56:45Z</time>
      </trkpt>
      <trkpt lat="44.90259" lon="5.26714">
        <ele>1035.96</ele>
        <time>2015-11-08T10:56:57Z</time>
      </trkpt>
      <trkpt lat="44.90252" lon="5.26718">
        <ele>1038.36</ele>
        <time>2015-11-08T10:57:13Z</time>
      </trkpt>
      <trkpt lat="44.90241" lon="5.2672">
        <ele>1041.25</ele>
        <time>2015-11-08T10:57:29Z</time>
      </trkpt>
      <trkpt lat="44.90236" lon="5.26726">
        <ele>1043.65</ele>
        <time>2015-11-08T10:57:44Z</time>
      </trkpt>
      <trkpt lat="44.90233" lon="5.26721">
        <ele>1044.13</ele>
        <time>2015-11-08T10:57:57Z</time>
      </trkpt>
      <trkpt lat="44.90231" lon="5.26725">
        <ele>1045.57</ele>
        <time>2015-11-08T10:58:12Z</time>
      </trkpt>
      <trkpt lat="44.90228" lon="5.26724">
        <ele>1048.94</ele>
        <time>2015-11-08T10:58:19Z</time>
      </trkpt>
      <trkpt lat="44.90224" lon="5.26729">
        <ele>1049.9</ele>
        <time>2015-11-08T10:58:34Z</time>
      </trkpt>
      <trkpt lat="44.90224" lon="5.26737">
        <ele>1050.86</ele>
        <time>2015-11-08T10:58:50Z</time>
      </trkpt>
      <trkpt lat="44.90223" lon="5.2674">
        <ele>1053.26</ele>
        <time>2015-11-08T10:59:05Z</time>
      </trkpt>
      <trkpt lat="44.90223" lon="5.2674">
        <ele>1054.22</ele>
        <time>2015-11-08T10:59:19Z</time>
      </trkpt>
      <trkpt lat="44.90219" lon="5.26735">
        <ele>1053.74</ele>
        <time>2015-11-08T11:00:02Z</time>
      </trkpt>
      <trkpt lat="44.9022" lon="5.26742">
        <ele>1053.26</ele>
        <time>2015-11-08T11:00:27Z</time>
      </trkpt>
      <trkpt lat="44.90224" lon="5.26749">
        <ele>1053.26</ele>
        <time>2015-11-08T11:00:50Z</time>
      </trkpt>
      <trkpt lat="44.90223" lon="5.26752">
        <ele>1056.63</ele>
        <time>2015-11-08T11:01:01Z</time>
      </trkpt>
      <trkpt lat="44.90219" lon="5.26751">
        <ele>1058.07</ele>
        <time>2015-11-08T11:01:16Z</time>
      </trkpt>
      <trkpt lat="44.90214" lon="5.26757">
        <ele>1061.43</ele>
        <time>2015-11-08T11:01:31Z</time>
      </trkpt>
      <trkpt lat="44.90212" lon="5.26763">
        <ele>1063.84</ele>
        <time>2015-11-08T11:01:45Z</time>
      </trkpt>
      <trkpt lat="44.90209" lon="5.26769">
        <ele>1066.72</ele>
        <time>2015-11-08T11:01:58Z</time>
      </trkpt>
      <trkpt lat="44.90208" lon="5.26776">
        <ele>1067.68</ele>
        <time>2015-11-08T11:02:19Z</time>
      </trkpt>
      <trkpt lat="44.90203" lon="5.26781">
        <ele>1070.57</ele>
        <time>2015-11-08T11:02:34Z</time>
      </trkpt>
      <trkpt lat="44.90201" lon="5.26785">
        <ele>1072.01</ele>
        <time>2015-11-08T11:02:46Z</time>
      </trkpt>
      <trkpt lat="44.90196" lon="5.26789">
        <ele>1073.93</ele>
        <time>2015-11-08T11:02:59Z</time>
      </trkpt>
      <trkpt lat="44.90194" lon="5.2679">
        <ele>1075.85</ele>
        <time>2015-11-08T11:03:10Z</time>
      </trkpt>
      <trkpt lat="44.90191" lon="5.26793">
        <ele>1077.29</ele>
        <time>2015-11-08T11:03:29Z</time>
      </trkpt>
      <trkpt lat="44.90186" lon="5.26792">
        <ele>1079.22</ele>
        <time>2015-11-08T11:03:43Z</time>
      </trkpt>
      <trkpt lat="44.90185" lon="5.26787">
        <ele>1079.7</ele>
        <time>2015-11-08T11:04:00Z</time>
      </trkpt>
      <trkpt lat="44.90184" lon="5.26794">
        <ele>1079.7</ele>
        <time>2015-11-08T11:04:20Z</time>
      </trkpt>
      <trkpt lat="44.90185" lon="5.26793">
        <ele>1080.18</ele>
        <time>2015-11-08T11:04:23Z</time>
      </trkpt>
      <trkpt lat="44.90185" lon="5.26794">
        <ele>1081.14</ele>
        <time>2015-11-08T11:04:36Z</time>
      </trkpt>
      <trkpt lat="44.90179" lon="5.26794">
        <ele>1083.06</ele>
        <time>2015-11-08T11:04:47Z</time>
      </trkpt>
      <trkpt lat="44.90178" lon="5.26793">
        <ele>1083.54</ele>
        <time>2015-11-08T11:04:59Z</time>
      </trkpt>
      <trkpt lat="44.90174" lon="5.26794">
        <ele>1084.5</ele>
        <time>2015-11-08T11:05:15Z</time>
      </trkpt>
      <trkpt lat="44.90169" lon="5.26797">
        <ele>1087.39</ele>
        <time>2015-11-08T11:05:27Z</time>
      </trkpt>
      <trkpt lat="44.90167" lon="5.26798">
        <ele>1089.79</ele>
        <time>2015-11-08T11:05:40Z</time>
      </trkpt>
      <trkpt lat="44.90169" lon="5.26798">
        <ele>1090.75</ele>
        <time>2015-11-08T11:05:54Z</time>
      </trkpt>
      <trkpt lat="44.90168" lon="5.26802">
        <ele>1091.71</ele>
        <time>2015-11-08T11:06:11Z</time>
      </trkpt>
      <trkpt lat="44.90176" lon="5.26808">
        <ele>1091.23</ele>
        <time>2015-11-08T11:06:27Z</time>
      </trkpt>
      <trkpt lat="44.90178" lon="5.26814">
        <ele>1092.68</ele>
        <time>2015-11-08T11:06:40Z</time>
      </trkpt>
      <trkpt lat="44.90175" lon="5.26816">
        <ele>1094.12</ele>
        <time>2015-11-08T11:06:54Z</time>
      </trkpt>
      <trkpt lat="44.90175" lon="5.2682">
        <ele>1094.6</ele>
        <time>2015-11-08T11:07:12Z</time>
      </trkpt>
      <trkpt lat="44.9017" lon="5.26824">
        <ele>1095.56</ele>
        <time>2015-11-08T11:07:28Z</time>
      </trkpt>
      <trkpt lat="44.90167" lon="5.26827">
        <ele>1097.48</ele>
        <time>2015-11-08T11:07:38Z</time>
      </trkpt>
      <trkpt lat="44.90165" lon="5.26831">
        <ele>1099.4</ele>
        <time>2015-11-08T11:07:50Z</time>
      </trkpt>
      <trkpt lat="44.90162" lon="5.26837">
        <ele>1101.33</ele>
        <time>2015-11-08T11:08:05Z</time>
      </trkpt>
      <trkpt lat="44.90163" lon="5.26837">
        <ele>1101.33</ele>
        <time>2015-11-08T11:08:24Z</time>
      </trkpt>
      <trkpt lat="44.90164" lon="5.26835">
        <ele>1101.81</ele>
        <time>2015-11-08T11:08:46Z</time>
      </trkpt>
      <trkpt lat="44.90164" lon="5.26836">
        <ele>1102.29</ele>
        <time>2015-11-08T11:08:55Z</time>
      </trkpt>
      <trkpt lat="44.90155" lon="5.26835">
        <ele>1103.73</ele>
        <time>2015-11-08T11:09:08Z</time>
      </trkpt>
      <trkpt lat="44.90154" lon="5.26835">
        <ele>1105.17</ele>
        <time>2015-11-08T11:09:11Z</time>
      </trkpt>
      <trkpt lat="44.90155" lon="5.26839">
        <ele>1104.69</ele>
        <time>2015-11-08T11:09:26Z</time>
      </trkpt>
      <trkpt lat="44.90152" lon="5.26842">
        <ele>1107.58</ele>
        <time>2015-11-08T11:09:37Z</time>
      </trkpt>
      <trkpt lat="44.90153" lon="5.26845">
        <ele>1109.02</ele>
        <time>2015-11-08T11:09:49Z</time>
      </trkpt>
      <trkpt lat="44.90153" lon="5.26846">
        <ele>1111.42</ele>
        <time>2015-11-08T11:11:59Z</time>
      </trkpt>
      <trkpt lat="44.90152" lon="5.26844">
        <ele>1111.42</ele>
        <time>2015-11-08T11:12:22Z</time>
      </trkpt>
      <trkpt lat="44.90153" lon="5.26853">
        <ele>1111.42</ele>
        <time>2015-11-08T11:12:40Z</time>
      </trkpt>
      <trkpt lat="44.90149" lon="5.26855">
        <ele>1114.31</ele>
        <time>2015-11-08T11:12:52Z</time>
      </trkpt>
      <trkpt lat="44.90143" lon="5.26855">
        <ele>1116.71</ele>
        <time>2015-11-08T11:13:05Z</time>
      </trkpt>
      <trkpt lat="44.90142" lon="5.26857">
        <ele>1118.15</ele>
        <time>2015-11-08T11:13:17Z</time>
      </trkpt>
      <trkpt lat="44.90139" lon="5.26856">
        <ele>1120.07</ele>
        <time>2015-11-08T11:13:33Z</time>
      </trkpt>
      <trkpt lat="44.90139" lon="5.26864">
        <ele>1122.48</ele>
        <time>2015-11-08T11:13:51Z</time>
      </trkpt>
      <trkpt lat="44.90139" lon="5.26866">
        <ele>1123.44</ele>
        <time>2015-11-08T11:14:02Z</time>
      </trkpt>
      <trkpt lat="44.90139" lon="5.26862">
        <ele>1123.92</ele>
        <time>2015-11-08T11:14:17Z</time>
      </trkpt>
      <trkpt lat="44.90138" lon="5.26864">
        <ele>1124.88</ele>
        <time>2015-11-08T11:14:33Z</time>
      </trkpt>
      <trkpt lat="44.90137" lon="5.26864">
        <ele>1125.36</ele>
        <time>2015-11-08T11:14:49Z</time>
      </trkpt>
      <trkpt lat="44.9014" lon="5.26867">
        <ele>1124.88</ele>
        <time>2015-11-08T11:15:11Z</time>
      </trkpt>
      <trkpt lat="44.90139" lon="5.26866">
        <ele>1125.36</ele>
        <time>2015-11-08T11:15:25Z</time>
      </trkpt>
      <trkpt lat="44.90137" lon="5.26866">
        <ele>1126.32</ele>
        <time>2015-11-08T11:15:28Z</time>
      </trkpt>
      <trkpt lat="44.90131" lon="5.26864">
        <ele>1128.24</ele>
        <time>2015-11-08T11:15:39Z</time>
      </trkpt>
      <trkpt lat="44.90131" lon="5.26866">
        <ele>1128.73</ele>
        <time>2015-11-08T11:15:54Z</time>
      </trkpt>
      <trkpt lat="44.90126" lon="5.26863">
        <ele>1130.65</ele>
        <time>2015-11-08T11:16:09Z</time>
      </trkpt>
      <trkpt lat="44.90121" lon="5.26864">
        <ele>1133.05</ele>
        <time>2015-11-08T11:16:22Z</time>
      </trkpt>
      <trkpt lat="44.90116" lon="5.26865">
        <ele>1134.49</ele>
        <time>2015-11-08T11:16:33Z</time>
      </trkpt>
      <trkpt lat="44.90115" lon="5.26858">
        <ele>1134.97</ele>
        <time>2015-11-08T11:16:46Z</time>
      </trkpt>
      <trkpt lat="44.90111" lon="5.26856">
        <ele>1136.9</ele>
        <time>2015-11-08T11:16:58Z</time>
      </trkpt>
      <trkpt lat="44.90109" lon="5.2686">
        <ele>1138.34</ele>
        <time>2015-11-08T11:17:16Z</time>
      </trkpt>
      <trkpt lat="44.90099" lon="5.26855">
        <ele>1140.26</ele>
        <time>2015-11-08T11:17:28Z</time>
      </trkpt>
      <trkpt lat="44.90098" lon="5.2686">
        <ele>1141.22</ele>
        <time>2015-11-08T11:17:32Z</time>
      </trkpt>
      <trkpt lat="44.90098" lon="5.26864">
        <ele>1139.78</ele>
        <time>2015-11-08T11:17:50Z</time>
      </trkpt>
      <trkpt lat="44.90098" lon="5.26864">
        <ele>1140.26</ele>
        <time>2015-11-08T11:18:04Z</time>
      </trkpt>
      <trkpt lat="44.90098" lon="5.26867">
        <ele>1142.18</ele>
        <time>2015-11-08T11:18:07Z</time>
      </trkpt>
      <trkpt lat="44.90097" lon="5.26868">
        <ele>1144.11</ele>
        <time>2015-11-08T11:18:13Z</time>
      </trkpt>
      <trkpt lat="44.90097" lon="5.26869">
        <ele>1151.32</ele>
        <time>2015-11-08T11:19:44Z</time>
      </trkpt>
      <trkpt lat="44.90097" lon="5.26871">
        <ele>1154.68</ele>
        <time>2015-11-08T11:19:52Z</time>
      </trkpt>
      <trkpt lat="44.90096" lon="5.26874">
        <ele>1152.76</ele>
        <time>2015-11-08T11:20:08Z</time>
      </trkpt>
      <trkpt lat="44.90097" lon="5.26878">
        <ele>1154.2</ele>
        <time>2015-11-08T11:20:21Z</time>
      </trkpt>
      <trkpt lat="44.90098" lon="5.26882">
        <ele>1155.16</ele>
        <time>2015-11-08T11:20:37Z</time>
      </trkpt>
      <trkpt lat="44.901" lon="5.26887">
        <ele>1156.12</ele>
        <time>2015-11-08T11:20:49Z</time>
      </trkpt>
      <trkpt lat="44.90104" lon="5.26895">
        <ele>1156.6</ele>
        <time>2015-11-08T11:21:01Z</time>
      </trkpt>
      <trkpt lat="44.90105" lon="5.26899">
        <ele>1159.49</ele>
        <time>2015-11-08T11:21:09Z</time>
      </trkpt>
      <trkpt lat="44.90109" lon="5.26905">
        <ele>1160.45</ele>
        <time>2015-11-08T11:21:26Z</time>
      </trkpt>
      <trkpt lat="44.90109" lon="5.26904">
        <ele>1159.97</ele>
        <time>2015-11-08T11:21:27Z</time>
      </trkpt>
      <trkpt lat="44.90109" lon="5.26904">
        <ele>1159.01</ele>
        <time>2015-11-08T11:21:28Z</time>
      </trkpt>
      <trkpt lat="44.90109" lon="5.26902">
        <ele>1159.97</ele>
        <time>2015-11-08T11:21:31Z</time>
      </trkpt>
      <trkpt lat="44.90114" lon="5.26906">
        <ele>1158.53</ele>
        <time>2015-11-08T11:21:54Z</time>
      </trkpt>
      <trkpt lat="44.90113" lon="5.26913">
        <ele>1159.97</ele>
        <time>2015-11-08T11:22:07Z</time>
      </trkpt>
      <trkpt lat="44.90113" lon="5.26915">
        <ele>1161.41</ele>
        <time>2015-11-08T11:22:09Z</time>
      </trkpt>
      <trkpt lat="44.90117" lon="5.26922">
        <ele>1162.37</ele>
        <time>2015-11-08T11:22:20Z</time>
      </trkpt>
      <trkpt lat="44.90113" lon="5.26924">
        <ele>1165.74</ele>
        <time>2015-11-08T11:22:32Z</time>
      </trkpt>
      <trkpt lat="44.90112" lon="5.26917">
        <ele>1165.74</ele>
        <time>2015-11-08T11:22:57Z</time>
      </trkpt>
      <trkpt lat="44.90111" lon="5.2692">
        <ele>1170.06</ele>
        <time>2015-11-08T11:23:26Z</time>
      </trkpt>
      <trkpt lat="44.90112" lon="5.26924">
        <ele>1169.58</ele>
        <time>2015-11-08T11:23:29Z</time>
      </trkpt>
      <trkpt lat="44.90115" lon="5.26938">
        <ele>1172.47</ele>
        <time>2015-11-08T11:23:38Z</time>
      </trkpt>
      <trkpt lat="44.90116" lon="5.26938">
        <ele>1171.98</ele>
        <time>2015-11-08T11:23:56Z</time>
      </trkpt>
      <trkpt lat="44.90122" lon="5.26951">
        <ele>1171.98</ele>
        <time>2015-11-08T11:24:16Z</time>
      </trkpt>
      <trkpt lat="44.90118" lon="5.26948">
        <ele>1173.91</ele>
        <time>2015-11-08T11:24:33Z</time>
      </trkpt>
      <trkpt lat="44.90118" lon="5.26944">
        <ele>1175.35</ele>
        <time>2015-11-08T11:24:39Z</time>
      </trkpt>
      <trkpt lat="44.90117" lon="5.26939">
        <ele>1176.31</ele>
        <time>2015-11-08T11:24:52Z</time>
      </trkpt>
      <trkpt lat="44.90118" lon="5.26939">
        <ele>1178.23</ele>
        <time>2015-11-08T11:25:02Z</time>
      </trkpt>
      <trkpt lat="44.90121" lon="5.2695">
        <ele>1179.19</ele>
        <time>2015-11-08T11:25:16Z</time>
      </trkpt>
      <trkpt lat="44.90124" lon="5.26952">
        <ele>1182.08</ele>
        <time>2015-11-08T11:25:27Z</time>
      </trkpt>
      <trkpt lat="44.90123" lon="5.26953">
        <ele>1182.56</ele>
        <time>2015-11-08T11:25:28Z</time>
      </trkpt>
      <trkpt lat="44.90121" lon="5.26956">
        <ele>1184</ele>
        <time>2015-11-08T11:25:44Z</time>
      </trkpt>
      <trkpt lat="44.9012" lon="5.26957">
        <ele>1182.08</ele>
        <time>2015-11-08T11:25:47Z</time>
      </trkpt>
      <trkpt lat="44.90124" lon="5.2696">
        <ele>1183.52</ele>
        <time>2015-11-08T11:25:59Z</time>
      </trkpt>
      <trkpt lat="44.90125" lon="5.26966">
        <ele>1183.52</ele>
        <time>2015-11-08T11:26:18Z</time>
      </trkpt>
      <trkpt lat="44.9013" lon="5.26979">
        <ele>1183.52</ele>
        <time>2015-11-08T11:26:32Z</time>
      </trkpt>
      <trkpt lat="44.90128" lon="5.26968">
        <ele>1184</ele>
        <time>2015-11-08T11:26:40Z</time>
      </trkpt>
      <trkpt lat="44.90125" lon="5.26967">
        <ele>1187.37</ele>
        <time>2015-11-08T11:26:48Z</time>
      </trkpt>
      <trkpt lat="44.90125" lon="5.2697">
        <ele>1186.4</ele>
        <time>2015-11-08T11:26:53Z</time>
      </trkpt>
      <trkpt lat="44.90129" lon="5.2697">
        <ele>1185.92</ele>
        <time>2015-11-08T11:27:11Z</time>
      </trkpt>
      <trkpt lat="44.90132" lon="5.2697">
        <ele>1186.88</ele>
        <time>2015-11-08T11:27:20Z</time>
      </trkpt>
      <trkpt lat="44.90131" lon="5.26967">
        <ele>1185.92</ele>
        <time>2015-11-08T11:27:24Z</time>
      </trkpt>
      <trkpt lat="44.9013" lon="5.26964">
        <ele>1187.37</ele>
        <time>2015-11-08T11:27:26Z</time>
      </trkpt>
      <trkpt lat="44.90122" lon="5.26968">
        <ele>1187.85</ele>
        <time>2015-11-08T11:27:36Z</time>
      </trkpt>
      <trkpt lat="44.90123" lon="5.26967">
        <ele>1189.29</ele>
        <time>2015-11-08T11:27:38Z</time>
      </trkpt>
      <trkpt lat="44.90126" lon="5.26964">
        <ele>1191.69</ele>
        <time>2015-11-08T11:27:50Z</time>
      </trkpt>
      <trkpt lat="44.9013" lon="5.26966">
        <ele>1192.17</ele>
        <time>2015-11-08T11:28:05Z</time>
      </trkpt>
      <trkpt lat="44.90125" lon="5.26963">
        <ele>1192.17</ele>
        <time>2015-11-08T11:28:10Z</time>
      </trkpt>
      <trkpt lat="44.9013" lon="5.26981">
        <ele>1195.06</ele>
        <time>2015-11-08T11:28:24Z</time>
      </trkpt>
      <trkpt lat="44.90134" lon="5.26986">
        <ele>1196.02</ele>
        <time>2015-11-08T11:28:30Z</time>
      </trkpt>
      <trkpt lat="44.9013" lon="5.26992">
        <ele>1215.24</ele>
        <time>2015-11-08T11:33:14Z</time>
      </trkpt>
      <trkpt lat="44.90135" lon="5.26993">
        <ele>1216.21</ele>
        <time>2015-11-08T11:33:26Z</time>
      </trkpt>
      <trkpt lat="44.90135" lon="5.26993">
        <ele>1214.28</ele>
        <time>2015-11-08T11:33:27Z</time>
      </trkpt>
      <trkpt lat="44.90136" lon="5.26995">
        <ele>1217.17</ele>
        <time>2015-11-08T11:33:31Z</time>
      </trkpt>
      <trkpt lat="44.90136" lon="5.26992">
        <ele>1213.8</ele>
        <time>2015-11-08T11:33:43Z</time>
      </trkpt>
      <trkpt lat="44.90136" lon="5.2699">
        <ele>1214.76</ele>
        <time>2015-11-08T11:33:45Z</time>
      </trkpt>
      <trkpt lat="44.90135" lon="5.26988">
        <ele>1213.8</ele>
        <time>2015-11-08T11:33:47Z</time>
      </trkpt>
      <trkpt lat="44.90132" lon="5.26985">
        <ele>1215.72</ele>
        <time>2015-11-08T11:33:52Z</time>
      </trkpt>
      <trkpt lat="44.90132" lon="5.26981">
        <ele>1215.24</ele>
        <time>2015-11-08T11:34:01Z</time>
      </trkpt>
      <trkpt lat="44.90134" lon="5.26978">
        <ele>1215.72</ele>
        <time>2015-11-08T11:34:07Z</time>
      </trkpt>
      <trkpt lat="44.90138" lon="5.26978">
        <ele>1215.24</ele>
        <time>2015-11-08T11:34:18Z</time>
      </trkpt>
      <trkpt lat="44.90139" lon="5.26978">
        <ele>1216.69</ele>
        <time>2015-11-08T11:34:20Z</time>
      </trkpt>
      <trkpt lat="44.90141" lon="5.26979">
        <ele>1219.09</ele>
        <time>2015-11-08T11:34:23Z</time>
      </trkpt>
      <trkpt lat="44.90142" lon="5.2698">
        <ele>1217.65</ele>
        <time>2015-11-08T11:34:25Z</time>
      </trkpt>
      <trkpt lat="44.90142" lon="5.26981">
        <ele>1220.05</ele>
        <time>2015-11-08T11:34:34Z</time>
      </trkpt>
      <trkpt lat="44.90141" lon="5.26984">
        <ele>1221.49</ele>
        <time>2015-11-08T11:34:45Z</time>
      </trkpt>
      <trkpt lat="44.90144" lon="5.26982">
        <ele>1221.01</ele>
        <time>2015-11-08T11:34:59Z</time>
      </trkpt>
      <trkpt lat="44.90144" lon="5.26993">
        <ele>1221.97</ele>
        <time>2015-11-08T11:35:20Z</time>
      </trkpt>
      <trkpt lat="44.9015" lon="5.26999">
        <ele>1224.38</ele>
        <time>2015-11-08T11:35:33Z</time>
      </trkpt>
      <trkpt lat="44.90153" lon="5.27017">
        <ele>1226.3</ele>
        <time>2015-11-08T11:35:48Z</time>
      </trkpt>
      <trkpt lat="44.90152" lon="5.27014">
        <ele>1227.74</ele>
        <time>2015-11-08T11:35:59Z</time>
      </trkpt>
      <trkpt lat="44.90157" lon="5.27016">
        <ele>1230.62</ele>
        <time>2015-11-08T11:36:10Z</time>
      </trkpt>
      <trkpt lat="44.90162" lon="5.27018">
        <ele>1230.62</ele>
        <time>2015-11-08T11:36:30Z</time>
      </trkpt>
      <trkpt lat="44.90159" lon="5.27021">
        <ele>1232.07</ele>
        <time>2015-11-08T11:36:37Z</time>
      </trkpt>
      <trkpt lat="44.90163" lon="5.27025">
        <ele>1233.51</ele>
        <time>2015-11-08T11:36:51Z</time>
      </trkpt>
      <trkpt lat="44.90163" lon="5.27028">
        <ele>1235.91</ele>
        <time>2015-11-08T11:37:02Z</time>
      </trkpt>
      <trkpt lat="44.90163" lon="5.2703">
        <ele>1235.91</ele>
        <time>2015-11-08T11:37:06Z</time>
      </trkpt>
      <trkpt lat="44.90162" lon="5.27035">
        <ele>1237.35</ele>
        <time>2015-11-08T11:37:20Z</time>
      </trkpt>
      <trkpt lat="44.90159" lon="5.27034">
        <ele>1239.28</ele>
        <time>2015-11-08T11:37:33Z</time>
      </trkpt>
      <trkpt lat="44.90156" lon="5.27033">
        <ele>1239.76</ele>
        <time>2015-11-08T11:37:37Z</time>
      </trkpt>
      <trkpt lat="44.90154" lon="5.27031">
        <ele>1240.24</ele>
        <time>2015-11-08T11:37:49Z</time>
      </trkpt>
      <trkpt lat="44.90152" lon="5.27029">
        <ele>1239.76</ele>
        <time>2015-11-08T11:38:07Z</time>
      </trkpt>
      <trkpt lat="44.90155" lon="5.27032">
        <ele>1240.72</ele>
        <time>2015-11-08T11:38:26Z</time>
      </trkpt>
      <trkpt lat="44.90155" lon="5.27029">
        <ele>1239.76</ele>
        <time>2015-11-08T11:38:47Z</time>
      </trkpt>
      <trkpt lat="44.90153" lon="5.27032">
        <ele>1236.39</ele>
        <time>2015-11-08T11:38:55Z</time>
      </trkpt>
      <trkpt lat="44.90151" lon="5.27035">
        <ele>1239.76</ele>
        <time>2015-11-08T11:38:58Z</time>
      </trkpt>
      <trkpt lat="44.90145" lon="5.27043">
        <ele>1240.24</ele>
        <time>2015-11-08T11:39:12Z</time>
      </trkpt>
      <trkpt lat="44.90145" lon="5.27043">
        <ele>1243.6</ele>
        <time>2015-11-08T11:39:15Z</time>
      </trkpt>
      <trkpt lat="44.90137" lon="5.2705">
        <ele>1242.64</ele>
        <time>2015-11-08T11:39:27Z</time>
      </trkpt>
      <trkpt lat="44.90135" lon="5.27052">
        <ele>1244.56</ele>
        <time>2015-11-08T11:39:29Z</time>
      </trkpt>
      <trkpt lat="44.90129" lon="5.27055">
        <ele>1245.53</ele>
        <time>2015-11-08T11:39:36Z</time>
      </trkpt>
      <trkpt lat="44.90121" lon="5.27054">
        <ele>1247.45</ele>
        <time>2015-11-08T11:39:44Z</time>
      </trkpt>
      <trkpt lat="44.90114" lon="5.27053">
        <ele>1244.08</ele>
        <time>2015-11-08T11:39:52Z</time>
      </trkpt>
      <trkpt lat="44.90115" lon="5.27052">
        <ele>1244.56</ele>
        <time>2015-11-08T11:40:05Z</time>
      </trkpt>
      <trkpt lat="44.90106" lon="5.27046">
        <ele>1244.56</ele>
        <time>2015-11-08T11:40:28Z</time>
      </trkpt>
      <trkpt lat="44.90102" lon="5.27042">
        <ele>1242.16</ele>
        <time>2015-11-08T11:40:40Z</time>
      </trkpt>
      <trkpt lat="44.90101" lon="5.27043">
        <ele>1245.53</ele>
        <time>2015-11-08T11:40:49Z</time>
      </trkpt>
      <trkpt lat="44.901" lon="5.27043">
        <ele>1239.76</ele>
        <time>2015-11-08T11:40:50Z</time>
      </trkpt>
      <trkpt lat="44.90099" lon="5.27042">
        <ele>1243.12</ele>
        <time>2015-11-08T11:40:51Z</time>
      </trkpt>
      <trkpt lat="44.90095" lon="5.27038">
        <ele>1237.83</ele>
        <time>2015-11-08T11:40:56Z</time>
      </trkpt>
      <trkpt lat="44.90095" lon="5.27037">
        <ele>1242.16</ele>
        <time>2015-11-08T11:40:57Z</time>
      </trkpt>
      <trkpt lat="44.90093" lon="5.27035">
        <ele>1244.08</ele>
        <time>2015-11-08T11:40:59Z</time>
      </trkpt>
      <trkpt lat="44.9009" lon="5.27033">
        <ele>1241.68</ele>
        <time>2015-11-08T11:41:03Z</time>
      </trkpt>
      <trkpt lat="44.90087" lon="5.27028">
        <ele>1238.32</ele>
        <time>2015-11-08T11:41:08Z</time>
      </trkpt>
      <trkpt lat="44.90087" lon="5.27028">
        <ele>1240.24</ele>
        <time>2015-11-08T11:41:09Z</time>
      </trkpt>
      <trkpt lat="44.90087" lon="5.27027">
        <ele>1237.35</ele>
        <time>2015-11-08T11:41:10Z</time>
      </trkpt>
      <trkpt lat="44.90087" lon="5.27027">
        <ele>1235.91</ele>
        <time>2015-11-08T11:41:12Z</time>
      </trkpt>
      <trkpt lat="44.90087" lon="5.27027">
        <ele>1239.76</ele>
        <time>2015-11-08T11:41:14Z</time>
      </trkpt>
      <trkpt lat="44.90087" lon="5.27026">
        <ele>1240.72</ele>
        <time>2015-11-08T11:41:15Z</time>
      </trkpt>
      <trkpt lat="44.90085" lon="5.27023">
        <ele>1236.87</ele>
        <time>2015-11-08T11:41:18Z</time>
      </trkpt>
      <trkpt lat="44.90085" lon="5.27021">
        <ele>1241.68</ele>
        <time>2015-11-08T11:41:19Z</time>
      </trkpt>
      <trkpt lat="44.90085" lon="5.2702">
        <ele>1236.87</ele>
        <time>2015-11-08T11:41:20Z</time>
      </trkpt>
      <trkpt lat="44.90085" lon="5.27019">
        <ele>1240.24</ele>
        <time>2015-11-08T11:41:21Z</time>
      </trkpt>
      <trkpt lat="44.90083" lon="5.27013">
        <ele>1236.39</ele>
        <time>2015-11-08T11:41:26Z</time>
      </trkpt>
      <trkpt lat="44.90082" lon="5.27007">
        <ele>1239.76</ele>
        <time>2015-11-08T11:41:30Z</time>
      </trkpt>
      <trkpt lat="44.90082" lon="5.27006">
        <ele>1233.51</ele>
        <time>2015-11-08T11:41:31Z</time>
      </trkpt>
      <trkpt lat="44.90081" lon="5.27002">
        <ele>1238.8</ele>
        <time>2015-11-08T11:41:34Z</time>
      </trkpt>
      <trkpt lat="44.90081" lon="5.27001">
        <ele>1237.35</ele>
        <time>2015-11-08T11:41:35Z</time>
      </trkpt>
      <trkpt lat="44.90079" lon="5.26992">
        <ele>1233.03</ele>
        <time>2015-11-08T11:41:41Z</time>
      </trkpt>
      <trkpt lat="44.90078" lon="5.2699">
        <ele>1230.62</ele>
        <time>2015-11-08T11:41:43Z</time>
      </trkpt>
      <trkpt lat="44.90076" lon="5.26987">
        <ele>1234.95</ele>
        <time>2015-11-08T11:41:46Z</time>
      </trkpt>
      <trkpt lat="44.90074" lon="5.26983">
        <ele>1230.14</ele>
        <time>2015-11-08T11:41:49Z</time>
      </trkpt>
      <trkpt lat="44.90073" lon="5.26982">
        <ele>1233.99</ele>
        <time>2015-11-08T11:41:50Z</time>
      </trkpt>
      <trkpt lat="44.90073" lon="5.26981">
        <ele>1230.14</ele>
        <time>2015-11-08T11:41:51Z</time>
      </trkpt>
      <trkpt lat="44.90073" lon="5.2698">
        <ele>1233.99</ele>
        <time>2015-11-08T11:41:52Z</time>
      </trkpt>
      <trkpt lat="44.90072" lon="5.26977">
        <ele>1229.18</ele>
        <time>2015-11-08T11:41:54Z</time>
      </trkpt>
      <trkpt lat="44.90071" lon="5.26977">
        <ele>1233.99</ele>
        <time>2015-11-08T11:41:55Z</time>
      </trkpt>
      <trkpt lat="44.9007" lon="5.26974">
        <ele>1229.66</ele>
        <time>2015-11-08T11:41:57Z</time>
      </trkpt>
      <trkpt lat="44.9007" lon="5.26973">
        <ele>1231.11</ele>
        <time>2015-11-08T11:41:58Z</time>
      </trkpt>
      <trkpt lat="44.90068" lon="5.26964">
        <ele>1227.74</ele>
        <time>2015-11-08T11:42:06Z</time>
      </trkpt>
      <trkpt lat="44.90068" lon="5.26963">
        <ele>1228.22</ele>
        <time>2015-11-08T11:42:07Z</time>
      </trkpt>
      <trkpt lat="44.90067" lon="5.26959">
        <ele>1228.22</ele>
        <time>2015-11-08T11:42:11Z</time>
      </trkpt>
      <trkpt lat="44.90066" lon="5.26958">
        <ele>1231.11</ele>
        <time>2015-11-08T11:42:12Z</time>
      </trkpt>
      <trkpt lat="44.90066" lon="5.26954">
        <ele>1227.74</ele>
        <time>2015-11-08T11:42:14Z</time>
      </trkpt>
      <trkpt lat="44.90063" lon="5.26943">
        <ele>1229.18</ele>
        <time>2015-11-08T11:42:23Z</time>
      </trkpt>
      <trkpt lat="44.90061" lon="5.26936">
        <ele>1222.45</ele>
        <time>2015-11-08T11:42:28Z</time>
      </trkpt>
      <trkpt lat="44.9006" lon="5.26934">
        <ele>1224.86</ele>
        <time>2015-11-08T11:42:29Z</time>
      </trkpt>
      <trkpt lat="44.90059" lon="5.26931">
        <ele>1221.01</ele>
        <time>2015-11-08T11:42:32Z</time>
      </trkpt>
      <trkpt lat="44.90058" lon="5.26928">
        <ele>1226.3</ele>
        <time>2015-11-08T11:42:34Z</time>
      </trkpt>
      <trkpt lat="44.90058" lon="5.26927">
        <ele>1225.82</ele>
        <time>2015-11-08T11:42:35Z</time>
      </trkpt>
      <trkpt lat="44.90057" lon="5.26924">
        <ele>1221.97</ele>
        <time>2015-11-08T11:42:39Z</time>
      </trkpt>
      <trkpt lat="44.90057" lon="5.26923">
        <ele>1227.26</ele>
        <time>2015-11-08T11:42:40Z</time>
      </trkpt>
      <trkpt lat="44.90056" lon="5.26922">
        <ele>1222.93</ele>
        <time>2015-11-08T11:42:42Z</time>
      </trkpt>
      <trkpt lat="44.90055" lon="5.26915">
        <ele>1220.05</ele>
        <time>2015-11-08T11:42:50Z</time>
      </trkpt>
      <trkpt lat="44.90055" lon="5.26913">
        <ele>1222.45</ele>
        <time>2015-11-08T11:42:52Z</time>
      </trkpt>
      <trkpt lat="44.90054" lon="5.26908">
        <ele>1219.57</ele>
        <time>2015-11-08T11:42:59Z</time>
      </trkpt>
      <trkpt lat="44.90052" lon="5.26907">
        <ele>1223.42</ele>
        <time>2015-11-08T11:43:03Z</time>
      </trkpt>
      <trkpt lat="44.90052" lon="5.26907">
        <ele>1218.13</ele>
        <time>2015-11-08T11:43:04Z</time>
      </trkpt>
      <trkpt lat="44.90052" lon="5.26907">
        <ele>1221.49</ele>
        <time>2015-11-08T11:43:06Z</time>
      </trkpt>
      <trkpt lat="44.90052" lon="5.26907">
        <ele>1220.53</ele>
        <time>2015-11-08T11:43:07Z</time>
      </trkpt>
      <trkpt lat="44.90052" lon="5.26907">
        <ele>1222.45</ele>
        <time>2015-11-08T11:43:16Z</time>
      </trkpt>
      <trkpt lat="44.90052" lon="5.26906">
        <ele>1219.09</ele>
        <time>2015-11-08T11:43:18Z</time>
      </trkpt>
      <trkpt lat="44.90052" lon="5.26904">
        <ele>1221.49</ele>
        <time>2015-11-08T11:43:23Z</time>
      </trkpt>
      <trkpt lat="44.90051" lon="5.26905">
        <ele>1220.05</ele>
        <time>2015-11-08T11:43:25Z</time>
      </trkpt>
      <trkpt lat="44.90049" lon="5.26905">
        <ele>1215.72</ele>
        <time>2015-11-08T11:43:31Z</time>
      </trkpt>
      <trkpt lat="44.90049" lon="5.26904">
        <ele>1219.57</ele>
        <time>2015-11-08T11:43:32Z</time>
      </trkpt>
      <trkpt lat="44.90049" lon="5.26904">
        <ele>1216.21</ele>
        <time>2015-11-08T11:43:33Z</time>
      </trkpt>
      <trkpt lat="44.90054" lon="5.26902">
        <ele>1214.76</ele>
        <time>2015-11-08T11:43:45Z</time>
      </trkpt>
      <trkpt lat="44.90055" lon="5.26902">
        <ele>1220.05</ele>
        <time>2015-11-08T11:43:47Z</time>
      </trkpt>
      <trkpt lat="44.90056" lon="5.26901">
        <ele>1216.21</ele>
        <time>2015-11-08T11:43:48Z</time>
      </trkpt>
      <trkpt lat="44.90058" lon="5.269">
        <ele>1213.8</ele>
        <time>2015-11-08T11:43:50Z</time>
      </trkpt>
      <trkpt lat="44.90061" lon="5.26897">
        <ele>1218.13</ele>
        <time>2015-11-08T11:43:54Z</time>
      </trkpt>
      <trkpt lat="44.90062" lon="5.26897">
        <ele>1215.24</ele>
        <time>2015-11-08T11:43:55Z</time>
      </trkpt>
      <trkpt lat="44.90064" lon="5.26896">
        <ele>1211.88</ele>
        <time>2015-11-08T11:43:57Z</time>
      </trkpt>
      <trkpt lat="44.90065" lon="5.26896">
        <ele>1217.17</ele>
        <time>2015-11-08T11:43:58Z</time>
      </trkpt>
      <trkpt lat="44.90068" lon="5.26897">
        <ele>1214.28</ele>
        <time>2015-11-08T11:44:01Z</time>
      </trkpt>
      <trkpt lat="44.9007" lon="5.26898">
        <ele>1212.84</ele>
        <time>2015-11-08T11:44:03Z</time>
      </trkpt>
      <trkpt lat="44.90071" lon="5.26899">
        <ele>1215.72</ele>
        <time>2015-11-08T11:44:06Z</time>
      </trkpt>
      <trkpt lat="44.90072" lon="5.269">
        <ele>1212.84</ele>
        <time>2015-11-08T11:44:09Z</time>
      </trkpt>
      <trkpt lat="44.90071" lon="5.26901">
        <ele>1217.17</ele>
        <time>2015-11-08T11:44:11Z</time>
      </trkpt>
      <trkpt lat="44.90071" lon="5.26901">
        <ele>1216.69</ele>
        <time>2015-11-08T11:44:12Z</time>
      </trkpt>
      <trkpt lat="44.90073" lon="5.269">
        <ele>1212.36</ele>
        <time>2015-11-08T11:44:18Z</time>
      </trkpt>
      <trkpt lat="44.90072" lon="5.269">
        <ele>1215.72</ele>
        <time>2015-11-08T11:44:19Z</time>
      </trkpt>
      <trkpt lat="44.90073" lon="5.269">
        <ele>1212.36</ele>
        <time>2015-11-08T11:44:29Z</time>
      </trkpt>
      <trkpt lat="44.90072" lon="5.269">
        <ele>1216.21</ele>
        <time>2015-11-08T11:44:30Z</time>
      </trkpt>
      <trkpt lat="44.90069" lon="5.26899">
        <ele>1213.32</ele>
        <time>2015-11-08T11:44:33Z</time>
      </trkpt>
      <trkpt lat="44.90068" lon="5.26899">
        <ele>1218.61</ele>
        <time>2015-11-08T11:44:35Z</time>
      </trkpt>
      <trkpt lat="44.90069" lon="5.26898">
        <ele>1212.84</ele>
        <time>2015-11-08T11:44:36Z</time>
      </trkpt>
      <trkpt lat="44.90068" lon="5.26897">
        <ele>1217.17</ele>
        <time>2015-11-08T11:44:37Z</time>
      </trkpt>
      <trkpt lat="44.90068" lon="5.26896">
        <ele>1213.32</ele>
        <time>2015-11-08T11:44:39Z</time>
      </trkpt>
      <trkpt lat="44.90068" lon="5.26896">
        <ele>1218.13</ele>
        <time>2015-11-08T11:44:40Z</time>
      </trkpt>
      <trkpt lat="44.90066" lon="5.26897">
        <ele>1213.8</ele>
        <time>2015-11-08T11:44:44Z</time>
      </trkpt>
      <trkpt lat="44.90066" lon="5.26897">
        <ele>1217.17</ele>
        <time>2015-11-08T11:44:45Z</time>
      </trkpt>
      <trkpt lat="44.90066" lon="5.26897">
        <ele>1218.13</ele>
        <time>2015-11-08T11:44:47Z</time>
      </trkpt>
      <trkpt lat="44.90066" lon="5.26896">
        <ele>1213.8</ele>
        <time>2015-11-08T11:44:48Z</time>
      </trkpt>
      <trkpt lat="44.90066" lon="5.26896">
        <ele>1214.76</ele>
        <time>2015-11-08T11:44:49Z</time>
      </trkpt>
      <trkpt lat="44.90067" lon="5.26895">
        <ele>1219.57</ele>
        <time>2015-11-08T11:44:51Z</time>
      </trkpt>
      <trkpt lat="44.90067" lon="5.26895">
        <ele>1216.69</ele>
        <time>2015-11-08T11:44:52Z</time>
      </trkpt>
      <trkpt lat="44.90068" lon="5.26896">
        <ele>1213.32</ele>
        <time>2015-11-08T11:44:57Z</time>
      </trkpt>
      <trkpt lat="44.90068" lon="5.26896">
        <ele>1213.32</ele>
        <time>2015-11-08T11:44:58Z</time>
      </trkpt>
      <trkpt lat="44.90067" lon="5.26897">
        <ele>1217.17</ele>
        <time>2015-11-08T11:45:06Z</time>
      </trkpt>
      <trkpt lat="44.90068" lon="5.26898">
        <ele>1213.32</ele>
        <time>2015-11-08T11:45:08Z</time>
      </trkpt>
      <trkpt lat="44.90069" lon="5.26898">
        <ele>1216.69</ele>
        <time>2015-11-08T11:45:11Z</time>
      </trkpt>
      <trkpt lat="44.90071" lon="5.269">
        <ele>1215.72</ele>
        <time>2015-11-08T11:45:27Z</time>
      </trkpt>
      <trkpt lat="44.90067" lon="5.26899">
        <ele>1215.24</ele>
        <time>2015-11-08T11:45:33Z</time>
      </trkpt>
      <trkpt lat="44.9006" lon="5.26898">
        <ele>1215.24</ele>
        <time>2015-11-08T11:45:40Z</time>
      </trkpt>
      <trkpt lat="44.90053" lon="5.269">
        <ele>1216.69</ele>
        <time>2015-11-08T11:45:52Z</time>
      </trkpt>
      <trkpt lat="44.9005" lon="5.26897">
        <ele>1216.69</ele>
        <time>2015-11-08T11:46:06Z</time>
      </trkpt>
      <trkpt lat="44.90049" lon="5.26891">
        <ele>1213.32</ele>
        <time>2015-11-08T11:46:24Z</time>
      </trkpt>
      <trkpt lat="44.90049" lon="5.2689">
        <ele>1213.8</ele>
        <time>2015-11-08T11:46:25Z</time>
      </trkpt>
      <trkpt lat="44.90045" lon="5.26883">
        <ele>1215.72</ele>
        <time>2015-11-08T11:46:36Z</time>
      </trkpt>
      <trkpt lat="44.90046" lon="5.2688">
        <ele>1217.17</ele>
        <time>2015-11-08T11:46:40Z</time>
      </trkpt>
      <trkpt lat="44.90048" lon="5.26871">
        <ele>1220.53</ele>
        <time>2015-11-08T11:46:53Z</time>
      </trkpt>
      <trkpt lat="44.90047" lon="5.26867">
        <ele>1223.42</ele>
        <time>2015-11-08T11:46:59Z</time>
      </trkpt>
      <trkpt lat="44.90048" lon="5.26865">
        <ele>1220.05</ele>
        <time>2015-11-08T11:47:01Z</time>
      </trkpt>
      <trkpt lat="44.90047" lon="5.26863">
        <ele>1222.45</ele>
        <time>2015-11-08T11:47:03Z</time>
      </trkpt>
      <trkpt lat="44.90041" lon="5.26858">
        <ele>1222.45</ele>
        <time>2015-11-08T11:47:20Z</time>
      </trkpt>
      <trkpt lat="44.90041" lon="5.26857">
        <ele>1225.34</ele>
        <time>2015-11-08T11:47:22Z</time>
      </trkpt>
      <trkpt lat="44.90041" lon="5.26856">
        <ele>1225.34</ele>
        <time>2015-11-08T11:47:23Z</time>
      </trkpt>
      <trkpt lat="44.9004" lon="5.26852">
        <ele>1221.49</ele>
        <time>2015-11-08T11:47:30Z</time>
      </trkpt>
      <trkpt lat="44.90039" lon="5.26851">
        <ele>1225.82</ele>
        <time>2015-11-08T11:47:31Z</time>
      </trkpt>
      <trkpt lat="44.90045" lon="5.26846">
        <ele>1228.22</ele>
        <time>2015-11-08T11:47:44Z</time>
      </trkpt>
      <trkpt lat="44.90045" lon="5.26846">
        <ele>1230.14</ele>
        <time>2015-11-08T11:47:50Z</time>
      </trkpt>
      <trkpt lat="44.90046" lon="5.26846">
        <ele>1224.86</ele>
        <time>2015-11-08T11:47:55Z</time>
      </trkpt>
      <trkpt lat="44.90046" lon="5.26847">
        <ele>1229.66</ele>
        <time>2015-11-08T11:47:56Z</time>
      </trkpt>
      <trkpt lat="44.90046" lon="5.26847">
        <ele>1226.3</ele>
        <time>2015-11-08T11:47:57Z</time>
      </trkpt>
      <trkpt lat="44.90046" lon="5.26848">
        <ele>1230.14</ele>
        <time>2015-11-08T11:47:58Z</time>
      </trkpt>
      <trkpt lat="44.90046" lon="5.26848">
        <ele>1225.82</ele>
        <time>2015-11-08T11:48:00Z</time>
      </trkpt>
      <trkpt lat="44.90046" lon="5.26847">
        <ele>1230.62</ele>
        <time>2015-11-08T11:48:01Z</time>
      </trkpt>
      <trkpt lat="44.90046" lon="5.26847">
        <ele>1227.26</ele>
        <time>2015-11-08T11:48:02Z</time>
      </trkpt>
      <trkpt lat="44.90046" lon="5.26848">
        <ele>1230.14</ele>
        <time>2015-11-08T11:48:06Z</time>
      </trkpt>
      <trkpt lat="44.90047" lon="5.26848">
        <ele>1226.78</ele>
        <time>2015-11-08T11:48:09Z</time>
      </trkpt>
      <trkpt lat="44.90047" lon="5.26848">
        <ele>1229.66</ele>
        <time>2015-11-08T11:48:10Z</time>
      </trkpt>
      <trkpt lat="44.90046" lon="5.2685">
        <ele>1229.18</ele>
        <time>2015-11-08T11:48:39Z</time>
      </trkpt>
      <trkpt lat="44.90046" lon="5.2685">
        <ele>1228.22</ele>
        <time>2015-11-08T11:48:41Z</time>
      </trkpt>
      <trkpt lat="44.90047" lon="5.26849">
        <ele>1228.7</ele>
        <time>2015-11-08T11:48:51Z</time>
      </trkpt>
      <trkpt lat="44.90044" lon="5.26837">
        <ele>1227.26</ele>
        <time>2015-11-08T11:49:00Z</time>
      </trkpt>
      <trkpt lat="44.90036" lon="5.26827">
        <ele>1228.7</ele>
        <time>2015-11-08T11:49:12Z</time>
      </trkpt>
      <trkpt lat="44.9003" lon="5.26827">
        <ele>1228.22</ele>
        <time>2015-11-08T11:49:19Z</time>
      </trkpt>
      <trkpt lat="44.90024" lon="5.26831">
        <ele>1229.66</ele>
        <time>2015-11-08T11:49:25Z</time>
      </trkpt>
      <trkpt lat="44.90022" lon="5.26824">
        <ele>1230.62</ele>
        <time>2015-11-08T11:49:31Z</time>
      </trkpt>
      <trkpt lat="44.90036" lon="5.26809">
        <ele>1229.66</ele>
        <time>2015-11-08T11:49:48Z</time>
      </trkpt>
      <trkpt lat="44.90035" lon="5.26807">
        <ele>1228.22</ele>
        <time>2015-11-08T11:49:54Z</time>
      </trkpt>
      <trkpt lat="44.90043" lon="5.26798">
        <ele>1229.18</ele>
        <time>2015-11-08T11:50:06Z</time>
      </trkpt>
      <trkpt lat="44.90052" lon="5.2679">
        <ele>1228.22</ele>
        <time>2015-11-08T11:50:18Z</time>
      </trkpt>
      <trkpt lat="44.90057" lon="5.26793">
        <ele>1230.62</ele>
        <time>2015-11-08T11:50:24Z</time>
      </trkpt>
      <trkpt lat="44.90059" lon="5.26795">
        <ele>1231.59</ele>
        <time>2015-11-08T11:50:26Z</time>
      </trkpt>
      <trkpt lat="44.90062" lon="5.268">
        <ele>1233.03</ele>
        <time>2015-11-08T11:50:30Z</time>
      </trkpt>
      <trkpt lat="44.90065" lon="5.26802">
        <ele>1233.99</ele>
        <time>2015-11-08T11:50:35Z</time>
      </trkpt>
      <trkpt lat="44.90069" lon="5.26797">
        <ele>1236.39</ele>
        <time>2015-11-08T11:50:47Z</time>
      </trkpt>
      <trkpt lat="44.90071" lon="5.26796">
        <ele>1233.03</ele>
        <time>2015-11-08T11:50:49Z</time>
      </trkpt>
      <trkpt lat="44.90077" lon="5.26787">
        <ele>1231.59</ele>
        <time>2015-11-08T11:50:58Z</time>
      </trkpt>
      <trkpt lat="44.90078" lon="5.26785">
        <ele>1233.03</ele>
        <time>2015-11-08T11:51:00Z</time>
      </trkpt>
      <trkpt lat="44.90081" lon="5.26785">
        <ele>1233.03</ele>
        <time>2015-11-08T11:51:03Z</time>
      </trkpt>
      <trkpt lat="44.90082" lon="5.26784">
        <ele>1236.39</ele>
        <time>2015-11-08T11:51:05Z</time>
      </trkpt>
      <trkpt lat="44.90082" lon="5.26785">
        <ele>1236.87</ele>
        <time>2015-11-08T11:51:23Z</time>
      </trkpt>
      <trkpt lat="44.90083" lon="5.26785">
        <ele>1233.99</ele>
        <time>2015-11-08T11:51:34Z</time>
      </trkpt>
      <trkpt lat="44.90086" lon="5.26776">
        <ele>1234.47</ele>
        <time>2015-11-08T11:51:46Z</time>
      </trkpt>
      <trkpt lat="44.90088" lon="5.26778">
        <ele>1233.99</ele>
        <time>2015-11-08T11:51:51Z</time>
      </trkpt>
      <trkpt lat="44.90091" lon="5.26777">
        <ele>1233.03</ele>
        <time>2015-11-08T11:52:10Z</time>
      </trkpt>
      <trkpt lat="44.90091" lon="5.26777">
        <ele>1233.03</ele>
        <time>2015-11-08T11:52:36Z</time>
      </trkpt>
      <trkpt lat="44.90089" lon="5.26768">
        <ele>1235.91</ele>
        <time>2015-11-08T11:52:42Z</time>
      </trkpt>
      <trkpt lat="44.90089" lon="5.26767">
        <ele>1234.95</ele>
        <time>2015-11-08T11:52:43Z</time>
      </trkpt>
      <trkpt lat="44.90088" lon="5.2676">
        <ele>1234.47</ele>
        <time>2015-11-08T11:52:47Z</time>
      </trkpt>
      <trkpt lat="44.90089" lon="5.26739">
        <ele>1230.14</ele>
        <time>2015-11-08T11:53:01Z</time>
      </trkpt>
      <trkpt lat="44.90088" lon="5.26722">
        <ele>1229.66</ele>
        <time>2015-11-08T11:53:12Z</time>
      </trkpt>
      <trkpt lat="44.90085" lon="5.26705">
        <ele>1229.18</ele>
        <time>2015-11-08T11:53:25Z</time>
      </trkpt>
      <trkpt lat="44.90085" lon="5.26696">
        <ele>1230.14</ele>
        <time>2015-11-08T11:53:31Z</time>
      </trkpt>
      <trkpt lat="44.90085" lon="5.26692">
        <ele>1230.62</ele>
        <time>2015-11-08T11:53:35Z</time>
      </trkpt>
      <trkpt lat="44.90086" lon="5.26688">
        <ele>1230.62</ele>
        <time>2015-11-08T11:53:48Z</time>
      </trkpt>
      <trkpt lat="44.90085" lon="5.26682">
        <ele>1231.59</ele>
        <time>2015-11-08T11:53:52Z</time>
      </trkpt>
      <trkpt lat="44.90083" lon="5.26679">
        <ele>1230.14</ele>
        <time>2015-11-08T11:54:04Z</time>
      </trkpt>
      <trkpt lat="44.90087" lon="5.26668">
        <ele>1233.03</ele>
        <time>2015-11-08T11:54:19Z</time>
      </trkpt>
      <trkpt lat="44.90094" lon="5.2665">
        <ele>1231.11</ele>
        <time>2015-11-08T11:54:34Z</time>
      </trkpt>
      <trkpt lat="44.90101" lon="5.26633">
        <ele>1234.47</ele>
        <time>2015-11-08T11:54:48Z</time>
      </trkpt>
      <trkpt lat="44.90104" lon="5.26627">
        <ele>1234.47</ele>
        <time>2015-11-08T11:54:51Z</time>
      </trkpt>
      <trkpt lat="44.90105" lon="5.26625">
        <ele>1231.59</ele>
        <time>2015-11-08T11:54:53Z</time>
      </trkpt>
      <trkpt lat="44.90107" lon="5.2662">
        <ele>1232.55</ele>
        <time>2015-11-08T11:54:57Z</time>
      </trkpt>
      <trkpt lat="44.90107" lon="5.26618">
        <ele>1229.18</ele>
        <time>2015-11-08T11:54:58Z</time>
      </trkpt>
      <trkpt lat="44.90108" lon="5.26617">
        <ele>1233.51</ele>
        <time>2015-11-08T11:54:59Z</time>
      </trkpt>
      <trkpt lat="44.90109" lon="5.26614">
        <ele>1229.18</ele>
        <time>2015-11-08T11:55:01Z</time>
      </trkpt>
      <trkpt lat="44.90109" lon="5.26613">
        <ele>1232.07</ele>
        <time>2015-11-08T11:55:02Z</time>
      </trkpt>
      <trkpt lat="44.90111" lon="5.26609">
        <ele>1228.7</ele>
        <time>2015-11-08T11:55:05Z</time>
      </trkpt>
      <trkpt lat="44.90112" lon="5.26608">
        <ele>1232.55</ele>
        <time>2015-11-08T11:55:06Z</time>
      </trkpt>
      <trkpt lat="44.90114" lon="5.26601">
        <ele>1230.14</ele>
        <time>2015-11-08T11:55:11Z</time>
      </trkpt>
      <trkpt lat="44.90116" lon="5.26595">
        <ele>1232.55</ele>
        <time>2015-11-08T11:55:16Z</time>
      </trkpt>
      <trkpt lat="44.90116" lon="5.26594">
        <ele>1235.91</ele>
        <time>2015-11-08T11:55:17Z</time>
      </trkpt>
      <trkpt lat="44.90117" lon="5.26592">
        <ele>1235.91</ele>
        <time>2015-11-08T11:55:18Z</time>
      </trkpt>
      <trkpt lat="44.90118" lon="5.26591">
        <ele>1230.62</ele>
        <time>2015-11-08T11:55:19Z</time>
      </trkpt>
      <trkpt lat="44.90118" lon="5.26589">
        <ele>1231.59</ele>
        <time>2015-11-08T11:55:20Z</time>
      </trkpt>
      <trkpt lat="44.90119" lon="5.26587">
        <ele>1235.43</ele>
        <time>2015-11-08T11:55:22Z</time>
      </trkpt>
      <trkpt lat="44.90119" lon="5.26586">
        <ele>1232.07</ele>
        <time>2015-11-08T11:55:23Z</time>
      </trkpt>
      <trkpt lat="44.90123" lon="5.26577">
        <ele>1233.03</ele>
        <time>2015-11-08T11:55:30Z</time>
      </trkpt>
      <trkpt lat="44.90128" lon="5.26565">
        <ele>1232.07</ele>
        <time>2015-11-08T11:55:39Z</time>
      </trkpt>
      <trkpt lat="44.90129" lon="5.26561">
        <ele>1233.51</ele>
        <time>2015-11-08T11:55:41Z</time>
      </trkpt>
      <trkpt lat="44.90139" lon="5.26539">
        <ele>1232.07</ele>
        <time>2015-11-08T11:55:57Z</time>
      </trkpt>
      <trkpt lat="44.90148" lon="5.26514">
        <ele>1231.59</ele>
        <time>2015-11-08T11:56:14Z</time>
      </trkpt>
      <trkpt lat="44.90157" lon="5.26493">
        <ele>1231.59</ele>
        <time>2015-11-08T11:56:29Z</time>
      </trkpt>
      <trkpt lat="44.90165" lon="5.26473">
        <ele>1232.55</ele>
        <time>2015-11-08T11:56:44Z</time>
      </trkpt>
      <trkpt lat="44.90173" lon="5.26452">
        <ele>1232.07</ele>
        <time>2015-11-08T11:56:59Z</time>
      </trkpt>
      <trkpt lat="44.90174" lon="5.26449">
        <ele>1232.07</ele>
        <time>2015-11-08T11:57:01Z</time>
      </trkpt>
      <trkpt lat="44.90186" lon="5.26425">
        <ele>1232.55</ele>
        <time>2015-11-08T11:57:18Z</time>
      </trkpt>
      <trkpt lat="44.902" lon="5.26403">
        <ele>1231.59</ele>
        <time>2015-11-08T11:57:36Z</time>
      </trkpt>
      <trkpt lat="44.90212" lon="5.26384">
        <ele>1230.62</ele>
        <time>2015-11-08T11:57:52Z</time>
      </trkpt>
      <trkpt lat="44.90221" lon="5.26364">
        <ele>1230.14</ele>
        <time>2015-11-08T11:58:06Z</time>
      </trkpt>
      <trkpt lat="44.90228" lon="5.2634">
        <ele>1228.7</ele>
        <time>2015-11-08T11:58:20Z</time>
      </trkpt>
      <trkpt lat="44.90228" lon="5.26332">
        <ele>1227.26</ele>
        <time>2015-11-08T11:58:24Z</time>
      </trkpt>
      <trkpt lat="44.90227" lon="5.26315">
        <ele>1226.3</ele>
        <time>2015-11-08T11:58:34Z</time>
      </trkpt>
      <trkpt lat="44.90218" lon="5.26288">
        <ele>1225.82</ele>
        <time>2015-11-08T11:58:51Z</time>
      </trkpt>
      <trkpt lat="44.90214" lon="5.26277">
        <ele>1222.93</ele>
        <time>2015-11-08T11:58:58Z</time>
      </trkpt>
      <trkpt lat="44.90213" lon="5.26276">
        <ele>1226.78</ele>
        <time>2015-11-08T11:58:59Z</time>
      </trkpt>
      <trkpt lat="44.90212" lon="5.26273">
        <ele>1223.9</ele>
        <time>2015-11-08T11:59:01Z</time>
      </trkpt>
      <trkpt lat="44.90212" lon="5.26271">
        <ele>1226.78</ele>
        <time>2015-11-08T11:59:02Z</time>
      </trkpt>
      <trkpt lat="44.90211" lon="5.2627">
        <ele>1222.93</ele>
        <time>2015-11-08T11:59:03Z</time>
      </trkpt>
      <trkpt lat="44.902" lon="5.26251">
        <ele>1221.49</ele>
        <time>2015-11-08T11:59:16Z</time>
      </trkpt>
      <trkpt lat="44.90198" lon="5.26247">
        <ele>1224.86</ele>
        <time>2015-11-08T11:59:19Z</time>
      </trkpt>
      <trkpt lat="44.90193" lon="5.26239">
        <ele>1221.49</ele>
        <time>2015-11-08T11:59:25Z</time>
      </trkpt>
      <trkpt lat="44.90191" lon="5.26236">
        <ele>1223.9</ele>
        <time>2015-11-08T11:59:27Z</time>
      </trkpt>
      <trkpt lat="44.90189" lon="5.26232">
        <ele>1222.45</ele>
        <time>2015-11-08T11:59:30Z</time>
      </trkpt>
      <trkpt lat="44.90179" lon="5.26214">
        <ele>1220.53</ele>
        <time>2015-11-08T11:59:43Z</time>
      </trkpt>
      <trkpt lat="44.90176" lon="5.26208">
        <ele>1223.42</ele>
        <time>2015-11-08T11:59:47Z</time>
      </trkpt>
      <trkpt lat="44.90175" lon="5.26207">
        <ele>1219.09</ele>
        <time>2015-11-08T11:59:48Z</time>
      </trkpt>
      <trkpt lat="44.9017" lon="5.26199">
        <ele>1222.45</ele>
        <time>2015-11-08T11:59:54Z</time>
      </trkpt>
      <trkpt lat="44.90169" lon="5.26197">
        <ele>1217.17</ele>
        <time>2015-11-08T11:59:55Z</time>
      </trkpt>
      <trkpt lat="44.90169" lon="5.26196">
        <ele>1222.93</ele>
        <time>2015-11-08T11:59:56Z</time>
      </trkpt>
      <trkpt lat="44.90168" lon="5.26194">
        <ele>1219.09</ele>
        <time>2015-11-08T11:59:57Z</time>
      </trkpt>
      <trkpt lat="44.90159" lon="5.26169">
        <ele>1221.97</ele>
        <time>2015-11-08T12:00:12Z</time>
      </trkpt>
      <trkpt lat="44.90158" lon="5.26166">
        <ele>1215.72</ele>
        <time>2015-11-08T12:00:14Z</time>
      </trkpt>
      <trkpt lat="44.90157" lon="5.26161">
        <ele>1221.01</ele>
        <time>2015-11-08T12:00:18Z</time>
      </trkpt>
      <trkpt lat="44.90157" lon="5.26157">
        <ele>1214.76</ele>
        <time>2015-11-08T12:00:20Z</time>
      </trkpt>
      <trkpt lat="44.90158" lon="5.26155">
        <ele>1217.17</ele>
        <time>2015-11-08T12:00:21Z</time>
      </trkpt>
      <trkpt lat="44.90158" lon="5.26151">
        <ele>1218.13</ele>
        <time>2015-11-08T12:00:23Z</time>
      </trkpt>
      <trkpt lat="44.90161" lon="5.26137">
        <ele>1221.49</ele>
        <time>2015-11-08T12:00:31Z</time>
      </trkpt>
      <trkpt lat="44.90162" lon="5.26135">
        <ele>1217.17</ele>
        <time>2015-11-08T12:00:32Z</time>
      </trkpt>
      <trkpt lat="44.90165" lon="5.2613">
        <ele>1219.57</ele>
        <time>2015-11-08T12:00:36Z</time>
      </trkpt>
      <trkpt lat="44.90167" lon="5.26128">
        <ele>1221.49</ele>
        <time>2015-11-08T12:00:38Z</time>
      </trkpt>
      <trkpt lat="44.9017" lon="5.26124">
        <ele>1217.65</ele>
        <time>2015-11-08T12:00:41Z</time>
      </trkpt>
      <trkpt lat="44.90171" lon="5.26123">
        <ele>1219.57</ele>
        <time>2015-11-08T12:00:42Z</time>
      </trkpt>
      <trkpt lat="44.90172" lon="5.2612">
        <ele>1216.21</ele>
        <time>2015-11-08T12:00:44Z</time>
      </trkpt>
      <trkpt lat="44.90173" lon="5.26118">
        <ele>1216.69</ele>
        <time>2015-11-08T12:00:45Z</time>
      </trkpt>
      <trkpt lat="44.90174" lon="5.26116">
        <ele>1221.97</ele>
        <time>2015-11-08T12:00:47Z</time>
      </trkpt>
      <trkpt lat="44.90177" lon="5.26111">
        <ele>1222.93</ele>
        <time>2015-11-08T12:00:51Z</time>
      </trkpt>
      <trkpt lat="44.9018" lon="5.26106">
        <ele>1216.69</ele>
        <time>2015-11-08T12:00:55Z</time>
      </trkpt>
      <trkpt lat="44.90184" lon="5.26099">
        <ele>1220.05</ele>
        <time>2015-11-08T12:01:00Z</time>
      </trkpt>
      <trkpt lat="44.90188" lon="5.26091">
        <ele>1223.42</ele>
        <time>2015-11-08T12:01:06Z</time>
      </trkpt>
      <trkpt lat="44.90193" lon="5.26081">
        <ele>1220.53</ele>
        <time>2015-11-08T12:01:14Z</time>
      </trkpt>
      <trkpt lat="44.90195" lon="5.26077">
        <ele>1222.93</ele>
        <time>2015-11-08T12:01:17Z</time>
      </trkpt>
      <trkpt lat="44.90198" lon="5.26067">
        <ele>1219.57</ele>
        <time>2015-11-08T12:01:24Z</time>
      </trkpt>
      <trkpt lat="44.90198" lon="5.26066">
        <ele>1219.57</ele>
        <time>2015-11-08T12:01:25Z</time>
      </trkpt>
      <trkpt lat="44.90198" lon="5.26063">
        <ele>1222.45</ele>
        <time>2015-11-08T12:01:27Z</time>
      </trkpt>
      <trkpt lat="44.90198" lon="5.26059">
        <ele>1226.3</ele>
        <time>2015-11-08T12:01:30Z</time>
      </trkpt>
      <trkpt lat="44.90198" lon="5.26057">
        <ele>1222.45</ele>
        <time>2015-11-08T12:01:31Z</time>
      </trkpt>
      <trkpt lat="44.90199" lon="5.26051">
        <ele>1226.78</ele>
        <time>2015-11-08T12:01:35Z</time>
      </trkpt>
      <trkpt lat="44.90199" lon="5.26049">
        <ele>1225.34</ele>
        <time>2015-11-08T12:01:36Z</time>
      </trkpt>
      <trkpt lat="44.90199" lon="5.26047">
        <ele>1225.34</ele>
        <time>2015-11-08T12:01:37Z</time>
      </trkpt>
      <trkpt lat="44.90199" lon="5.26043">
        <ele>1222.45</ele>
        <time>2015-11-08T12:01:39Z</time>
      </trkpt>
      <trkpt lat="44.90199" lon="5.26039">
        <ele>1221.97</ele>
        <time>2015-11-08T12:01:41Z</time>
      </trkpt>
      <trkpt lat="44.90199" lon="5.26036">
        <ele>1226.3</ele>
        <time>2015-11-08T12:01:43Z</time>
      </trkpt>
      <trkpt lat="44.90199" lon="5.26035">
        <ele>1225.34</ele>
        <time>2015-11-08T12:01:44Z</time>
      </trkpt>
      <trkpt lat="44.90199" lon="5.26033">
        <ele>1221.49</ele>
        <time>2015-11-08T12:01:45Z</time>
      </trkpt>
      <trkpt lat="44.90199" lon="5.26029">
        <ele>1226.78</ele>
        <time>2015-11-08T12:01:48Z</time>
      </trkpt>
      <trkpt lat="44.90198" lon="5.26026">
        <ele>1221.49</ele>
        <time>2015-11-08T12:01:50Z</time>
      </trkpt>
      <trkpt lat="44.90198" lon="5.26024">
        <ele>1221.49</ele>
        <time>2015-11-08T12:01:51Z</time>
      </trkpt>
      <trkpt lat="44.90198" lon="5.2602">
        <ele>1222.93</ele>
        <time>2015-11-08T12:01:54Z</time>
      </trkpt>
      <trkpt lat="44.90197" lon="5.26016">
        <ele>1223.42</ele>
        <time>2015-11-08T12:01:57Z</time>
      </trkpt>
      <trkpt lat="44.90197" lon="5.26012">
        <ele>1224.86</ele>
        <time>2015-11-08T12:01:59Z</time>
      </trkpt>
      <trkpt lat="44.90196" lon="5.26008">
        <ele>1227.74</ele>
        <time>2015-11-08T12:02:02Z</time>
      </trkpt>
      <trkpt lat="44.90196" lon="5.26005">
        <ele>1222.93</ele>
        <time>2015-11-08T12:02:04Z</time>
      </trkpt>
      <trkpt lat="44.90195" lon="5.25999">
        <ele>1226.78</ele>
        <time>2015-11-08T12:02:15Z</time>
      </trkpt>
      <trkpt lat="44.90195" lon="5.25999">
        <ele>1221.97</ele>
        <time>2015-11-08T12:02:17Z</time>
      </trkpt>
      <trkpt lat="44.90195" lon="5.25999">
        <ele>1222.93</ele>
        <time>2015-11-08T12:02:18Z</time>
      </trkpt>
      <trkpt lat="44.90194" lon="5.25999">
        <ele>1228.7</ele>
        <time>2015-11-08T12:02:20Z</time>
      </trkpt>
      <trkpt lat="44.90194" lon="5.25999">
        <ele>1224.38</ele>
        <time>2015-11-08T12:02:21Z</time>
      </trkpt>
      <trkpt lat="44.90194" lon="5.25999">
        <ele>1223.9</ele>
        <time>2015-11-08T12:02:23Z</time>
      </trkpt>
      <trkpt lat="44.90194" lon="5.25999">
        <ele>1228.22</ele>
        <time>2015-11-08T12:02:24Z</time>
      </trkpt>
      <trkpt lat="44.90193" lon="5.26">
        <ele>1223.9</ele>
        <time>2015-11-08T12:02:26Z</time>
      </trkpt>
      <trkpt lat="44.90193" lon="5.26">
        <ele>1226.78</ele>
        <time>2015-11-08T12:02:27Z</time>
      </trkpt>
      <trkpt lat="44.90193" lon="5.25999">
        <ele>1223.42</ele>
        <time>2015-11-08T12:02:28Z</time>
      </trkpt>
      <trkpt lat="44.90193" lon="5.25999">
        <ele>1227.26</ele>
        <time>2015-11-08T12:02:29Z</time>
      </trkpt>
      <trkpt lat="44.90193" lon="5.25998">
        <ele>1223.42</ele>
        <time>2015-11-08T12:02:30Z</time>
      </trkpt>
      <trkpt lat="44.90193" lon="5.25998">
        <ele>1228.7</ele>
        <time>2015-11-08T12:02:32Z</time>
      </trkpt>
      <trkpt lat="44.90193" lon="5.25998">
        <ele>1227.74</ele>
        <time>2015-11-08T12:02:33Z</time>
      </trkpt>
      <trkpt lat="44.90193" lon="5.25998">
        <ele>1222.93</ele>
        <time>2015-11-08T12:02:34Z</time>
      </trkpt>
      <trkpt lat="44.90193" lon="5.25998">
        <ele>1224.38</ele>
        <time>2015-11-08T12:02:35Z</time>
      </trkpt>
      <trkpt lat="44.90193" lon="5.25998">
        <ele>1225.82</ele>
        <time>2015-11-08T12:02:37Z</time>
      </trkpt>
      <trkpt lat="44.90193" lon="5.25998">
        <ele>1230.14</ele>
        <time>2015-11-08T12:02:45Z</time>
      </trkpt>
      <trkpt lat="44.90193" lon="5.25999">
        <ele>1225.34</ele>
        <time>2015-11-08T12:02:46Z</time>
      </trkpt>
      <trkpt lat="44.90191" lon="5.25996">
        <ele>1228.22</ele>
        <time>2015-11-08T12:03:06Z</time>
      </trkpt>
      <trkpt lat="44.90191" lon="5.25996">
        <ele>1224.38</ele>
        <time>2015-11-08T12:03:07Z</time>
      </trkpt>
      <trkpt lat="44.90191" lon="5.25995">
        <ele>1227.26</ele>
        <time>2015-11-08T12:03:11Z</time>
      </trkpt>
      <trkpt lat="44.90191" lon="5.25995">
        <ele>1223.42</ele>
        <time>2015-11-08T12:03:12Z</time>
      </trkpt>
      <trkpt lat="44.90191" lon="5.25995">
        <ele>1226.78</ele>
        <time>2015-11-08T12:03:14Z</time>
      </trkpt>
      <trkpt lat="44.90191" lon="5.25995">
        <ele>1223.9</ele>
        <time>2015-11-08T12:03:15Z</time>
      </trkpt>
      <trkpt lat="44.90191" lon="5.25995">
        <ele>1226.78</ele>
        <time>2015-11-08T12:03:20Z</time>
      </trkpt>
      <trkpt lat="44.90189" lon="5.25996">
        <ele>1223.42</ele>
        <time>2015-11-08T12:03:22Z</time>
      </trkpt>
      <trkpt lat="44.90185" lon="5.25997">
        <ele>1227.26</ele>
        <time>2015-11-08T12:03:25Z</time>
      </trkpt>
      <trkpt lat="44.90184" lon="5.25997">
        <ele>1223.42</ele>
        <time>2015-11-08T12:03:26Z</time>
      </trkpt>
      <trkpt lat="44.90183" lon="5.25997">
        <ele>1227.74</ele>
        <time>2015-11-08T12:03:27Z</time>
      </trkpt>
      <trkpt lat="44.90182" lon="5.25998">
        <ele>1222.93</ele>
        <time>2015-11-08T12:03:29Z</time>
      </trkpt>
      <trkpt lat="44.90182" lon="5.25998">
        <ele>1226.78</ele>
        <time>2015-11-08T12:03:30Z</time>
      </trkpt>
      <trkpt lat="44.90181" lon="5.25998">
        <ele>1223.9</ele>
        <time>2015-11-08T12:03:31Z</time>
      </trkpt>
      <trkpt lat="44.90179" lon="5.25996">
        <ele>1226.78</ele>
        <time>2015-11-08T12:03:34Z</time>
      </trkpt>
      <trkpt lat="44.90175" lon="5.25994">
        <ele>1223.9</ele>
        <time>2015-11-08T12:03:38Z</time>
      </trkpt>
      <trkpt lat="44.90173" lon="5.25992">
        <ele>1223.9</ele>
        <time>2015-11-08T12:03:42Z</time>
      </trkpt>
      <trkpt lat="44.90173" lon="5.25992">
        <ele>1227.26</ele>
        <time>2015-11-08T12:03:49Z</time>
      </trkpt>
      <trkpt lat="44.90173" lon="5.25991">
        <ele>1224.38</ele>
        <time>2015-11-08T12:03:52Z</time>
      </trkpt>
      <trkpt lat="44.90174" lon="5.25991">
        <ele>1227.26</ele>
        <time>2015-11-08T12:03:57Z</time>
      </trkpt>
      <trkpt lat="44.90174" lon="5.25991">
        <ele>1222.45</ele>
        <time>2015-11-08T12:04:00Z</time>
      </trkpt>
      <trkpt lat="44.90174" lon="5.25991">
        <ele>1222.45</ele>
        <time>2015-11-08T12:04:01Z</time>
      </trkpt>
      <trkpt lat="44.90175" lon="5.25991">
        <ele>1226.78</ele>
        <time>2015-11-08T12:04:02Z</time>
      </trkpt>
      <trkpt lat="44.90175" lon="5.2599">
        <ele>1225.34</ele>
        <time>2015-11-08T12:04:03Z</time>
      </trkpt>
      <trkpt lat="44.90176" lon="5.2599">
        <ele>1224.38</ele>
        <time>2015-11-08T12:04:05Z</time>
      </trkpt>
      <trkpt lat="44.90178" lon="5.25989">
        <ele>1227.26</ele>
        <time>2015-11-08T12:04:11Z</time>
      </trkpt>
      <trkpt lat="44.90172" lon="5.25987">
        <ele>1224.38</ele>
        <time>2015-11-08T12:04:27Z</time>
      </trkpt>
      <trkpt lat="44.90173" lon="5.25986">
        <ele>1227.74</ele>
        <time>2015-11-08T12:04:30Z</time>
      </trkpt>
      <trkpt lat="44.90173" lon="5.25986">
        <ele>1225.34</ele>
        <time>2015-11-08T12:04:31Z</time>
      </trkpt>
      <trkpt lat="44.90175" lon="5.25988">
        <ele>1224.86</ele>
        <time>2015-11-08T12:04:33Z</time>
      </trkpt>
      <trkpt lat="44.90183" lon="5.25992">
        <ele>1226.78</ele>
        <time>2015-11-08T12:04:42Z</time>
      </trkpt>
      <trkpt lat="44.90183" lon="5.25992">
        <ele>1223.42</ele>
        <time>2015-11-08T12:04:43Z</time>
      </trkpt>
      <trkpt lat="44.90183" lon="5.25992">
        <ele>1227.74</ele>
        <time>2015-11-08T12:04:44Z</time>
      </trkpt>
      <trkpt lat="44.90187" lon="5.25992">
        <ele>1223.9</ele>
        <time>2015-11-08T12:04:48Z</time>
      </trkpt>
      <trkpt lat="44.90188" lon="5.25993">
        <ele>1227.26</ele>
        <time>2015-11-08T12:04:49Z</time>
      </trkpt>
      <trkpt lat="44.90189" lon="5.25993">
        <ele>1225.82</ele>
        <time>2015-11-08T12:04:50Z</time>
      </trkpt>
      <trkpt lat="44.90194" lon="5.25993">
        <ele>1226.3</ele>
        <time>2015-11-08T12:05:06Z</time>
      </trkpt>
      <trkpt lat="44.90193" lon="5.25993">
        <ele>1227.26</ele>
        <time>2015-11-08T12:05:08Z</time>
      </trkpt>
      <trkpt lat="44.90192" lon="5.25992">
        <ele>1222.45</ele>
        <time>2015-11-08T12:05:09Z</time>
      </trkpt>
      <trkpt lat="44.90191" lon="5.25992">
        <ele>1223.9</ele>
        <time>2015-11-08T12:05:10Z</time>
      </trkpt>
      <trkpt lat="44.9019" lon="5.25991">
        <ele>1227.74</ele>
        <time>2015-11-08T12:05:12Z</time>
      </trkpt>
      <trkpt lat="44.9019" lon="5.25991">
        <ele>1226.3</ele>
        <time>2015-11-08T12:05:13Z</time>
      </trkpt>
      <trkpt lat="44.9019" lon="5.2599">
        <ele>1222.45</ele>
        <time>2015-11-08T12:05:14Z</time>
      </trkpt>
      <trkpt lat="44.9019" lon="5.2599">
        <ele>1222.45</ele>
        <time>2015-11-08T12:05:15Z</time>
      </trkpt>
      <trkpt lat="44.9019" lon="5.25987">
        <ele>1226.78</ele>
        <time>2015-11-08T12:05:19Z</time>
      </trkpt>
      <trkpt lat="44.9019" lon="5.25986">
        <ele>1225.82</ele>
        <time>2015-11-08T12:05:20Z</time>
      </trkpt>
      <trkpt lat="44.9019" lon="5.25984">
        <ele>1221.01</ele>
        <time>2015-11-08T12:05:22Z</time>
      </trkpt>
      <trkpt lat="44.9019" lon="5.25983">
        <ele>1223.9</ele>
        <time>2015-11-08T12:05:23Z</time>
      </trkpt>
      <trkpt lat="44.90189" lon="5.25978">
        <ele>1220.53</ele>
        <time>2015-11-08T12:05:27Z</time>
      </trkpt>
      <trkpt lat="44.9019" lon="5.25973">
        <ele>1219.09</ele>
        <time>2015-11-08T12:05:32Z</time>
      </trkpt>
      <trkpt lat="44.90192" lon="5.2597">
        <ele>1217.17</ele>
        <time>2015-11-08T12:05:37Z</time>
      </trkpt>
      <trkpt lat="44.90196" lon="5.2596">
        <ele>1212.84</ele>
        <time>2015-11-08T12:05:46Z</time>
      </trkpt>
      <trkpt lat="44.90196" lon="5.2596">
        <ele>1212.84</ele>
        <time>2015-11-08T12:05:47Z</time>
      </trkpt>
      <trkpt lat="44.90197" lon="5.25958">
        <ele>1213.8</ele>
        <time>2015-11-08T12:05:49Z</time>
      </trkpt>
      <trkpt lat="44.90198" lon="5.25954">
        <ele>1209.48</ele>
        <time>2015-11-08T12:05:53Z</time>
      </trkpt>
      <trkpt lat="44.90198" lon="5.25953">
        <ele>1212.36</ele>
        <time>2015-11-08T12:05:54Z</time>
      </trkpt>
      <trkpt lat="44.90197" lon="5.2595">
        <ele>1209.48</ele>
        <time>2015-11-08T12:05:58Z</time>
      </trkpt>
      <trkpt lat="44.90198" lon="5.25948">
        <ele>1212.36</ele>
        <time>2015-11-08T12:05:59Z</time>
      </trkpt>
      <trkpt lat="44.90197" lon="5.25947">
        <ele>1211.88</ele>
        <time>2015-11-08T12:06:00Z</time>
      </trkpt>
      <trkpt lat="44.90198" lon="5.25941">
        <ele>1208.03</ele>
        <time>2015-11-08T12:06:04Z</time>
      </trkpt>
      <trkpt lat="44.90199" lon="5.25937">
        <ele>1211.4</ele>
        <time>2015-11-08T12:06:07Z</time>
      </trkpt>
      <trkpt lat="44.90199" lon="5.25937">
        <ele>1210.92</ele>
        <time>2015-11-08T12:06:08Z</time>
      </trkpt>
      <trkpt lat="44.90199" lon="5.25934">
        <ele>1212.36</ele>
        <time>2015-11-08T12:06:11Z</time>
      </trkpt>
      <trkpt lat="44.90198" lon="5.25931">
        <ele>1206.59</ele>
        <time>2015-11-08T12:06:14Z</time>
      </trkpt>
      <trkpt lat="44.90198" lon="5.2593">
        <ele>1208.03</ele>
        <time>2015-11-08T12:06:15Z</time>
      </trkpt>
      <trkpt lat="44.90196" lon="5.25924">
        <ele>1204.19</ele>
        <time>2015-11-08T12:06:20Z</time>
      </trkpt>
      <trkpt lat="44.90195" lon="5.25923">
        <ele>1206.11</ele>
        <time>2015-11-08T12:06:21Z</time>
      </trkpt>
      <trkpt lat="44.9019" lon="5.25911">
        <ele>1209.96</ele>
        <time>2015-11-08T12:06:29Z</time>
      </trkpt>
      <trkpt lat="44.9019" lon="5.2591">
        <ele>1207.07</ele>
        <time>2015-11-08T12:06:30Z</time>
      </trkpt>
      <trkpt lat="44.90188" lon="5.25904">
        <ele>1203.23</ele>
        <time>2015-11-08T12:06:35Z</time>
      </trkpt>
      <trkpt lat="44.90185" lon="5.259">
        <ele>1204.67</ele>
        <time>2015-11-08T12:06:41Z</time>
      </trkpt>
      <trkpt lat="44.90185" lon="5.259">
        <ele>1203.71</ele>
        <time>2015-11-08T12:06:43Z</time>
      </trkpt>
      <trkpt lat="44.90187" lon="5.25893">
        <ele>1203.23</ele>
        <time>2015-11-08T12:06:57Z</time>
      </trkpt>
      <trkpt lat="44.90189" lon="5.2589">
        <ele>1201.79</ele>
        <time>2015-11-08T12:07:02Z</time>
      </trkpt>
      <trkpt lat="44.90195" lon="5.25885">
        <ele>1197.94</ele>
        <time>2015-11-08T12:07:10Z</time>
      </trkpt>
      <trkpt lat="44.90195" lon="5.25885">
        <ele>1201.79</ele>
        <time>2015-11-08T12:07:11Z</time>
      </trkpt>
      <trkpt lat="44.90196" lon="5.25884">
        <ele>1198.42</ele>
        <time>2015-11-08T12:07:12Z</time>
      </trkpt>
      <trkpt lat="44.90197" lon="5.2588">
        <ele>1197.94</ele>
        <time>2015-11-08T12:07:16Z</time>
      </trkpt>
      <trkpt lat="44.90196" lon="5.25872">
        <ele>1194.58</ele>
        <time>2015-11-08T12:07:28Z</time>
      </trkpt>
      <trkpt lat="44.90194" lon="5.25868">
        <ele>1190.73</ele>
        <time>2015-11-08T12:07:35Z</time>
      </trkpt>
      <trkpt lat="44.90194" lon="5.25867">
        <ele>1195.06</ele>
        <time>2015-11-08T12:07:36Z</time>
      </trkpt>
      <trkpt lat="44.90192" lon="5.25864">
        <ele>1191.69</ele>
        <time>2015-11-08T12:07:40Z</time>
      </trkpt>
      <trkpt lat="44.90185" lon="5.25853">
        <ele>1187.85</ele>
        <time>2015-11-08T12:07:56Z</time>
      </trkpt>
      <trkpt lat="44.90184" lon="5.2585">
        <ele>1187.37</ele>
        <time>2015-11-08T12:08:00Z</time>
      </trkpt>
      <trkpt lat="44.90181" lon="5.25842">
        <ele>1184.48</ele>
        <time>2015-11-08T12:08:09Z</time>
      </trkpt>
      <trkpt lat="44.90179" lon="5.25833">
        <ele>1180.64</ele>
        <time>2015-11-08T12:08:20Z</time>
      </trkpt>
      <trkpt lat="44.90175" lon="5.25826">
        <ele>1182.56</ele>
        <time>2015-11-08T12:08:27Z</time>
      </trkpt>
      <trkpt lat="44.90173" lon="5.25825">
        <ele>1179.67</ele>
        <time>2015-11-08T12:08:30Z</time>
      </trkpt>
      <trkpt lat="44.90172" lon="5.25817">
        <ele>1176.79</ele>
        <time>2015-11-08T12:08:39Z</time>
      </trkpt>
      <trkpt lat="44.9017" lon="5.25809">
        <ele>1174.39</ele>
        <time>2015-11-08T12:08:48Z</time>
      </trkpt>
      <trkpt lat="44.90166" lon="5.25804">
        <ele>1172.95</ele>
        <time>2015-11-08T12:08:55Z</time>
      </trkpt>
      <trkpt lat="44.90163" lon="5.25802">
        <ele>1171.98</ele>
        <time>2015-11-08T12:08:57Z</time>
      </trkpt>
      <trkpt lat="44.90157" lon="5.25797">
        <ele>1171.5</ele>
        <time>2015-11-08T12:09:14Z</time>
      </trkpt>
      <trkpt lat="44.90153" lon="5.25788">
        <ele>1168.14</ele>
        <time>2015-11-08T12:09:25Z</time>
      </trkpt>
      <trkpt lat="44.90152" lon="5.25783">
        <ele>1167.18</ele>
        <time>2015-11-08T12:09:30Z</time>
      </trkpt>
      <trkpt lat="44.90149" lon="5.25776">
        <ele>1164.29</ele>
        <time>2015-11-08T12:09:37Z</time>
      </trkpt>
      <trkpt lat="44.90148" lon="5.25771">
        <ele>1163.81</ele>
        <time>2015-11-08T12:09:43Z</time>
      </trkpt>
      <trkpt lat="44.90144" lon="5.25766">
        <ele>1161.89</ele>
        <time>2015-11-08T12:09:52Z</time>
      </trkpt>
      <trkpt lat="44.90143" lon="5.25762">
        <ele>1159.49</ele>
        <time>2015-11-08T12:09:55Z</time>
      </trkpt>
      <trkpt lat="44.90142" lon="5.2576">
        <ele>1160.45</ele>
        <time>2015-11-08T12:09:57Z</time>
      </trkpt>
      <trkpt lat="44.9014" lon="5.25755">
        <ele>1158.05</ele>
        <time>2015-11-08T12:10:12Z</time>
      </trkpt>
      <trkpt lat="44.90141" lon="5.25755">
        <ele>1159.49</ele>
        <time>2015-11-08T12:10:27Z</time>
      </trkpt>
      <trkpt lat="44.9014" lon="5.25751">
        <ele>1156.12</ele>
        <time>2015-11-08T12:10:46Z</time>
      </trkpt>
      <trkpt lat="44.9014" lon="5.2575">
        <ele>1156.12</ele>
        <time>2015-11-08T12:10:47Z</time>
      </trkpt>
      <trkpt lat="44.90136" lon="5.25744">
        <ele>1155.16</ele>
        <time>2015-11-08T12:10:55Z</time>
      </trkpt>
      <trkpt lat="44.90135" lon="5.25742">
        <ele>1155.64</ele>
        <time>2015-11-08T12:11:09Z</time>
      </trkpt>
      <trkpt lat="44.90134" lon="5.25736">
        <ele>1152.28</ele>
        <time>2015-11-08T12:11:16Z</time>
      </trkpt>
      <trkpt lat="44.90133" lon="5.25734">
        <ele>1152.76</ele>
        <time>2015-11-08T12:11:18Z</time>
      </trkpt>
      <trkpt lat="44.90131" lon="5.25729">
        <ele>1151.8</ele>
        <time>2015-11-08T12:11:23Z</time>
      </trkpt>
      <trkpt lat="44.90129" lon="5.25725">
        <ele>1151.8</ele>
        <time>2015-11-08T12:11:28Z</time>
      </trkpt>
      <trkpt lat="44.90127" lon="5.25715">
        <ele>1148.43</ele>
        <time>2015-11-08T12:11:35Z</time>
      </trkpt>
      <trkpt lat="44.90124" lon="5.25701">
        <ele>1146.03</ele>
        <time>2015-11-08T12:11:44Z</time>
      </trkpt>
      <trkpt lat="44.90124" lon="5.25687">
        <ele>1144.59</ele>
        <time>2015-11-08T12:11:54Z</time>
      </trkpt>
      <trkpt lat="44.90124" lon="5.25678">
        <ele>1145.07</ele>
        <time>2015-11-08T12:12:01Z</time>
      </trkpt>
      <trkpt lat="44.90123" lon="5.25669">
        <ele>1143.63</ele>
        <time>2015-11-08T12:12:07Z</time>
      </trkpt>
      <trkpt lat="44.90121" lon="5.25661">
        <ele>1143.14</ele>
        <time>2015-11-08T12:12:12Z</time>
      </trkpt>
      <trkpt lat="44.90121" lon="5.25652">
        <ele>1141.7</ele>
        <time>2015-11-08T12:12:26Z</time>
      </trkpt>
      <trkpt lat="44.9012" lon="5.25643">
        <ele>1140.74</ele>
        <time>2015-11-08T12:12:35Z</time>
      </trkpt>
      <trkpt lat="44.9012" lon="5.25635">
        <ele>1140.26</ele>
        <time>2015-11-08T12:12:40Z</time>
      </trkpt>
      <trkpt lat="44.90121" lon="5.25618">
        <ele>1138.82</ele>
        <time>2015-11-08T12:12:51Z</time>
      </trkpt>
      <trkpt lat="44.90119" lon="5.25611">
        <ele>1136.9</ele>
        <time>2015-11-08T12:12:56Z</time>
      </trkpt>
      <trkpt lat="44.90119" lon="5.256">
        <ele>1135.45</ele>
        <time>2015-11-08T12:13:03Z</time>
      </trkpt>
      <trkpt lat="44.90117" lon="5.25578">
        <ele>1134.49</ele>
        <time>2015-11-08T12:13:16Z</time>
      </trkpt>
      <trkpt lat="44.90118" lon="5.25557">
        <ele>1132.09</ele>
        <time>2015-11-08T12:13:30Z</time>
      </trkpt>
      <trkpt lat="44.90117" lon="5.25554">
        <ele>1133.05</ele>
        <time>2015-11-08T12:13:32Z</time>
      </trkpt>
      <trkpt lat="44.90118" lon="5.2555">
        <ele>1131.13</ele>
        <time>2015-11-08T12:13:35Z</time>
      </trkpt>
      <trkpt lat="44.90116" lon="5.2553">
        <ele>1130.17</ele>
        <time>2015-11-08T12:13:48Z</time>
      </trkpt>
      <trkpt lat="44.90115" lon="5.25524">
        <ele>1131.61</ele>
        <time>2015-11-08T12:13:51Z</time>
      </trkpt>
      <trkpt lat="44.9012" lon="5.2551">
        <ele>1134.01</ele>
        <time>2015-11-08T12:14:05Z</time>
      </trkpt>
      <trkpt lat="44.90122" lon="5.2551">
        <ele>1134.49</ele>
        <time>2015-11-08T12:14:18Z</time>
      </trkpt>
      <trkpt lat="44.90121" lon="5.25508">
        <ele>1133.53</ele>
        <time>2015-11-08T12:14:21Z</time>
      </trkpt>
      <trkpt lat="44.90117" lon="5.25503">
        <ele>1133.05</ele>
        <time>2015-11-08T12:14:25Z</time>
      </trkpt>
      <trkpt lat="44.90113" lon="5.25492">
        <ele>1132.57</ele>
        <time>2015-11-08T12:14:33Z</time>
      </trkpt>
      <trkpt lat="44.90112" lon="5.25487">
        <ele>1131.13</ele>
        <time>2015-11-08T12:14:48Z</time>
      </trkpt>
      <trkpt lat="44.90111" lon="5.25487">
        <ele>1131.61</ele>
        <time>2015-11-08T12:14:49Z</time>
      </trkpt>
      <trkpt lat="44.90112" lon="5.25488">
        <ele>1132.57</ele>
        <time>2015-11-08T12:15:11Z</time>
      </trkpt>
      <trkpt lat="44.90112" lon="5.25488">
        <ele>1133.05</ele>
        <time>2015-11-08T12:15:13Z</time>
      </trkpt>
      <trkpt lat="44.9011" lon="5.25479">
        <ele>1131.13</ele>
        <time>2015-11-08T12:15:18Z</time>
      </trkpt>
      <trkpt lat="44.90111" lon="5.25474">
        <ele>1132.09</ele>
        <time>2015-11-08T12:15:33Z</time>
      </trkpt>
      <trkpt lat="44.9011" lon="5.25476">
        <ele>1132.57</ele>
        <time>2015-11-08T12:15:58Z</time>
      </trkpt>
      <trkpt lat="44.90108" lon="5.25462">
        <ele>1128.73</ele>
        <time>2015-11-08T12:16:10Z</time>
      </trkpt>
      <trkpt lat="44.90108" lon="5.2546">
        <ele>1132.09</ele>
        <time>2015-11-08T12:16:12Z</time>
      </trkpt>
      <trkpt lat="44.90108" lon="5.25459">
        <ele>1128.73</ele>
        <time>2015-11-08T12:16:13Z</time>
      </trkpt>
      <trkpt lat="44.90108" lon="5.25456">
        <ele>1129.69</ele>
        <time>2015-11-08T12:16:15Z</time>
      </trkpt>
      <trkpt lat="44.90107" lon="5.25452">
        <ele>1132.09</ele>
        <time>2015-11-08T12:16:17Z</time>
      </trkpt>
      <trkpt lat="44.90107" lon="5.25449">
        <ele>1128.73</ele>
        <time>2015-11-08T12:16:19Z</time>
      </trkpt>
      <trkpt lat="44.90107" lon="5.25448">
        <ele>1129.69</ele>
        <time>2015-11-08T12:16:20Z</time>
      </trkpt>
      <trkpt lat="44.90104" lon="5.25434">
        <ele>1126.32</ele>
        <time>2015-11-08T12:16:29Z</time>
      </trkpt>
      <trkpt lat="44.90101" lon="5.25419">
        <ele>1126.32</ele>
        <time>2015-11-08T12:16:41Z</time>
      </trkpt>
      <trkpt lat="44.90101" lon="5.25413">
        <ele>1122.48</ele>
        <time>2015-11-08T12:16:45Z</time>
      </trkpt>
      <trkpt lat="44.90101" lon="5.25412">
        <ele>1124.88</ele>
        <time>2015-11-08T12:16:46Z</time>
      </trkpt>
      <trkpt lat="44.90102" lon="5.25408">
        <ele>1121.52</ele>
        <time>2015-11-08T12:16:50Z</time>
      </trkpt>
      <trkpt lat="44.90101" lon="5.25401">
        <ele>1118.63</ele>
        <time>2015-11-08T12:16:55Z</time>
      </trkpt>
      <trkpt lat="44.901" lon="5.25387">
        <ele>1117.19</ele>
        <time>2015-11-08T12:17:04Z</time>
      </trkpt>
      <trkpt lat="44.90099" lon="5.25375">
        <ele>1115.75</ele>
        <time>2015-11-08T12:17:12Z</time>
      </trkpt>
      <trkpt lat="44.90099" lon="5.25372">
        <ele>1114.31</ele>
        <time>2015-11-08T12:17:15Z</time>
      </trkpt>
      <trkpt lat="44.90099" lon="5.25367">
        <ele>1113.82</ele>
        <time>2015-11-08T12:17:19Z</time>
      </trkpt>
      <trkpt lat="44.90098" lon="5.25357">
        <ele>1111.9</ele>
        <time>2015-11-08T12:17:28Z</time>
      </trkpt>
      <trkpt lat="44.90097" lon="5.25355">
        <ele>1110.94</ele>
        <time>2015-11-08T12:17:30Z</time>
      </trkpt>
      <trkpt lat="44.90097" lon="5.25348">
        <ele>1110.46</ele>
        <time>2015-11-08T12:17:37Z</time>
      </trkpt>
      <trkpt lat="44.90096" lon="5.25345">
        <ele>1109.5</ele>
        <time>2015-11-08T12:17:40Z</time>
      </trkpt>
      <trkpt lat="44.90082" lon="5.25345">
        <ele>1108.54</ele>
        <time>2015-11-08T12:17:52Z</time>
      </trkpt>
      <trkpt lat="44.90081" lon="5.25343">
        <ele>1109.02</ele>
        <time>2015-11-08T12:17:54Z</time>
      </trkpt>
      <trkpt lat="44.90082" lon="5.25338">
        <ele>1111.9</ele>
        <time>2015-11-08T12:18:00Z</time>
      </trkpt>
      <trkpt lat="44.90085" lon="5.25333">
        <ele>1114.31</ele>
        <time>2015-11-08T12:18:11Z</time>
      </trkpt>
      <trkpt lat="44.90084" lon="5.25332">
        <ele>1113.82</ele>
        <time>2015-11-08T12:18:12Z</time>
      </trkpt>
      <trkpt lat="44.90082" lon="5.25322">
        <ele>1116.23</ele>
        <time>2015-11-08T12:18:24Z</time>
      </trkpt>
      <trkpt lat="44.9008" lon="5.25323">
        <ele>1115.75</ele>
        <time>2015-11-08T12:18:26Z</time>
      </trkpt>
      <trkpt lat="44.90075" lon="5.25319">
        <ele>1116.23</ele>
        <time>2015-11-08T12:18:44Z</time>
      </trkpt>
      <trkpt lat="44.90074" lon="5.25319">
        <ele>1116.23</ele>
        <time>2015-11-08T12:18:49Z</time>
      </trkpt>
      <trkpt lat="44.90073" lon="5.2531">
        <ele>1114.31</ele>
        <time>2015-11-08T12:19:20Z</time>
      </trkpt>
      <trkpt lat="44.90072" lon="5.2531">
        <ele>1116.71</ele>
        <time>2015-11-08T12:19:31Z</time>
      </trkpt>
      <trkpt lat="44.90072" lon="5.25311">
        <ele>1116.23</ele>
        <time>2015-11-08T12:19:36Z</time>
      </trkpt>
      <trkpt lat="44.90073" lon="5.25312">
        <ele>1117.19</ele>
        <time>2015-11-08T12:19:44Z</time>
      </trkpt>
      <trkpt lat="44.90072" lon="5.25312">
        <ele>1114.79</ele>
        <time>2015-11-08T12:19:49Z</time>
      </trkpt>
      <trkpt lat="44.90081" lon="5.25323">
        <ele>1115.75</ele>
        <time>2015-11-08T12:20:04Z</time>
      </trkpt>
      <trkpt lat="44.90088" lon="5.25312">
        <ele>1114.79</ele>
        <time>2015-11-08T12:20:19Z</time>
      </trkpt>
      <trkpt lat="44.9009" lon="5.25311">
        <ele>1116.23</ele>
        <time>2015-11-08T12:20:22Z</time>
      </trkpt>
      <trkpt lat="44.9009" lon="5.25308">
        <ele>1115.27</ele>
        <time>2015-11-08T12:20:43Z</time>
      </trkpt>
      <trkpt lat="44.90095" lon="5.25296">
        <ele>1114.31</ele>
        <time>2015-11-08T12:20:53Z</time>
      </trkpt>
      <trkpt lat="44.90097" lon="5.2529">
        <ele>1113.82</ele>
        <time>2015-11-08T12:20:57Z</time>
      </trkpt>
      <trkpt lat="44.90098" lon="5.25287">
        <ele>1114.31</ele>
        <time>2015-11-08T12:20:59Z</time>
      </trkpt>
      <trkpt lat="44.90099" lon="5.25277">
        <ele>1115.75</ele>
        <time>2015-11-08T12:21:05Z</time>
      </trkpt>
      <trkpt lat="44.90104" lon="5.25261">
        <ele>1114.31</ele>
        <time>2015-11-08T12:21:17Z</time>
      </trkpt>
      <trkpt lat="44.90102" lon="5.2525">
        <ele>1113.82</ele>
        <time>2015-11-08T12:21:24Z</time>
      </trkpt>
      <trkpt lat="44.90104" lon="5.2524">
        <ele>1113.82</ele>
        <time>2015-11-08T12:21:32Z</time>
      </trkpt>
      <trkpt lat="44.90114" lon="5.25224">
        <ele>1113.34</ele>
        <time>2015-11-08T12:21:47Z</time>
      </trkpt>
      <trkpt lat="44.90115" lon="5.25224">
        <ele>1112.86</ele>
        <time>2015-11-08T12:21:48Z</time>
      </trkpt>
      <trkpt lat="44.90138" lon="5.25213">
        <ele>1111.9</ele>
        <time>2015-11-08T12:22:09Z</time>
      </trkpt>
      <trkpt lat="44.90151" lon="5.25204">
        <ele>1111.42</ele>
        <time>2015-11-08T12:22:25Z</time>
      </trkpt>
      <trkpt lat="44.90165" lon="5.25203">
        <ele>1110.94</ele>
        <time>2015-11-08T12:22:49Z</time>
      </trkpt>
      <trkpt lat="44.90167" lon="5.25202">
        <ele>1109.98</ele>
        <time>2015-11-08T12:22:51Z</time>
      </trkpt>
      <trkpt lat="44.90184" lon="5.25192">
        <ele>1110.46</ele>
        <time>2015-11-08T12:23:07Z</time>
      </trkpt>
      <trkpt lat="44.90191" lon="5.25188">
        <ele>1111.42</ele>
        <time>2015-11-08T12:23:14Z</time>
      </trkpt>
      <trkpt lat="44.90197" lon="5.25187">
        <ele>1109.02</ele>
        <time>2015-11-08T12:23:20Z</time>
      </trkpt>
      <trkpt lat="44.90202" lon="5.2519">
        <ele>1109.5</ele>
        <time>2015-11-08T12:23:24Z</time>
      </trkpt>
      <trkpt lat="44.90217" lon="5.2519">
        <ele>1109.02</ele>
        <time>2015-11-08T12:23:37Z</time>
      </trkpt>
      <trkpt lat="44.90232" lon="5.25197">
        <ele>1108.54</ele>
        <time>2015-11-08T12:23:54Z</time>
      </trkpt>
      <trkpt lat="44.90232" lon="5.25198">
        <ele>1109.02</ele>
        <time>2015-11-08T12:23:55Z</time>
      </trkpt>
      <trkpt lat="44.90233" lon="5.25203">
        <ele>1107.58</ele>
        <time>2015-11-08T12:23:59Z</time>
      </trkpt>
      <trkpt lat="44.90238" lon="5.25221">
        <ele>1105.65</ele>
        <time>2015-11-08T12:24:13Z</time>
      </trkpt>
      <trkpt lat="44.90238" lon="5.25223">
        <ele>1106.13</ele>
        <time>2015-11-08T12:24:14Z</time>
      </trkpt>
      <trkpt lat="44.90242" lon="5.25233">
        <ele>1108.06</ele>
        <time>2015-11-08T12:24:20Z</time>
      </trkpt>
      <trkpt lat="44.90246" lon="5.25248">
        <ele>1106.13</ele>
        <time>2015-11-08T12:24:31Z</time>
      </trkpt>
      <trkpt lat="44.90249" lon="5.2526">
        <ele>1106.61</ele>
        <time>2015-11-08T12:24:37Z</time>
      </trkpt>
      <trkpt lat="44.90251" lon="5.25264">
        <ele>1106.61</ele>
        <time>2015-11-08T12:24:40Z</time>
      </trkpt>
      <trkpt lat="44.90257" lon="5.25275">
        <ele>1109.5</ele>
        <time>2015-11-08T12:24:52Z</time>
      </trkpt>
      <trkpt lat="44.90256" lon="5.25276">
        <ele>1114.31</ele>
        <time>2015-11-08T12:24:57Z</time>
      </trkpt>
      <trkpt lat="44.90256" lon="5.25276">
        <ele>1108.06</ele>
        <time>2015-11-08T12:24:58Z</time>
      </trkpt>
      <trkpt lat="44.90256" lon="5.25276">
        <ele>1112.38</ele>
        <time>2015-11-08T12:24:59Z</time>
      </trkpt>
      <trkpt lat="44.90255" lon="5.25276">
        <ele>1106.13</ele>
        <time>2015-11-08T12:25:17Z</time>
      </trkpt>
      <trkpt lat="44.90255" lon="5.25275">
        <ele>1107.1</ele>
        <time>2015-11-08T12:25:18Z</time>
      </trkpt>
      <trkpt lat="44.90255" lon="5.25272">
        <ele>1109.98</ele>
        <time>2015-11-08T12:25:20Z</time>
      </trkpt>
      <trkpt lat="44.90254" lon="5.25269">
        <ele>1108.06</ele>
        <time>2015-11-08T12:25:25Z</time>
      </trkpt>
      <trkpt lat="44.90252" lon="5.25262">
        <ele>1107.1</ele>
        <time>2015-11-08T12:25:36Z</time>
      </trkpt>
      <trkpt lat="44.90251" lon="5.25261">
        <ele>1106.61</ele>
        <time>2015-11-08T12:25:37Z</time>
      </trkpt>
      <trkpt lat="44.90248" lon="5.25257">
        <ele>1106.61</ele>
        <time>2015-11-08T12:25:42Z</time>
      </trkpt>
      <trkpt lat="44.90247" lon="5.25246">
        <ele>1107.58</ele>
        <time>2015-11-08T12:25:52Z</time>
      </trkpt>
      <trkpt lat="44.90248" lon="5.25246">
        <ele>1106.13</ele>
        <time>2015-11-08T12:25:54Z</time>
      </trkpt>
      <trkpt lat="44.90249" lon="5.25249">
        <ele>1107.58</ele>
        <time>2015-11-08T12:25:57Z</time>
      </trkpt>
      <trkpt lat="44.90248" lon="5.25255">
        <ele>1105.17</ele>
        <time>2015-11-08T12:26:01Z</time>
      </trkpt>
      <trkpt lat="44.90244" lon="5.25258">
        <ele>1106.13</ele>
        <time>2015-11-08T12:26:22Z</time>
      </trkpt>
      <trkpt lat="44.90245" lon="5.2526">
        <ele>1105.17</ele>
        <time>2015-11-08T12:26:31Z</time>
      </trkpt>
      <trkpt lat="44.90244" lon="5.25255">
        <ele>1104.69</ele>
        <time>2015-11-08T12:26:57Z</time>
      </trkpt>
      <trkpt lat="44.90245" lon="5.25255">
        <ele>1106.61</ele>
        <time>2015-11-08T12:27:21Z</time>
      </trkpt>
      <trkpt lat="44.90249" lon="5.25253">
        <ele>1105.65</ele>
        <time>2015-11-08T12:27:40Z</time>
      </trkpt>
      <trkpt lat="44.90251" lon="5.25238">
        <ele>1106.61</ele>
        <time>2015-11-08T12:27:51Z</time>
      </trkpt>
      <trkpt lat="44.90253" lon="5.25217">
        <ele>1108.54</ele>
        <time>2015-11-08T12:28:07Z</time>
      </trkpt>
      <trkpt lat="44.90251" lon="5.25209">
        <ele>1108.54</ele>
        <time>2015-11-08T12:28:12Z</time>
      </trkpt>
      <trkpt lat="44.90256" lon="5.25191">
        <ele>1109.02</ele>
        <time>2015-11-08T12:28:28Z</time>
      </trkpt>
      <trkpt lat="44.90267" lon="5.25179">
        <ele>1108.06</ele>
        <time>2015-11-08T12:28:44Z</time>
      </trkpt>
      <trkpt lat="44.90274" lon="5.25168">
        <ele>1108.06</ele>
        <time>2015-11-08T12:28:55Z</time>
      </trkpt>
      <trkpt lat="44.90278" lon="5.25151">
        <ele>1107.1</ele>
        <time>2015-11-08T12:29:07Z</time>
      </trkpt>
      <trkpt lat="44.9028" lon="5.25138">
        <ele>1106.13</ele>
        <time>2015-11-08T12:29:22Z</time>
      </trkpt>
      <trkpt lat="44.90292" lon="5.25136">
        <ele>1105.17</ele>
        <time>2015-11-08T12:29:37Z</time>
      </trkpt>
      <trkpt lat="44.90299" lon="5.25136">
        <ele>1104.21</ele>
        <time>2015-11-08T12:29:40Z</time>
      </trkpt>
      <trkpt lat="44.9031" lon="5.25139">
        <ele>1104.21</ele>
        <time>2015-11-08T12:29:47Z</time>
      </trkpt>
      <trkpt lat="44.90329" lon="5.25148">
        <ele>1102.77</ele>
        <time>2015-11-08T12:30:00Z</time>
      </trkpt>
      <trkpt lat="44.90331" lon="5.2515">
        <ele>1104.21</ele>
        <time>2015-11-08T12:30:02Z</time>
      </trkpt>
      <trkpt lat="44.90334" lon="5.25153">
        <ele>1103.73</ele>
        <time>2015-11-08T12:30:06Z</time>
      </trkpt>
      <trkpt lat="44.90351" lon="5.25158">
        <ele>1101.81</ele>
        <time>2015-11-08T12:30:22Z</time>
      </trkpt>
      <trkpt lat="44.90361" lon="5.25163">
        <ele>1102.29</ele>
        <time>2015-11-08T12:30:34Z</time>
      </trkpt>
      <trkpt lat="44.90358" lon="5.25158">
        <ele>1101.33</ele>
        <time>2015-11-08T12:30:46Z</time>
      </trkpt>
      <trkpt lat="44.90354" lon="5.25155">
        <ele>1102.29</ele>
        <time>2015-11-08T12:30:52Z</time>
      </trkpt>
      <trkpt lat="44.90357" lon="5.25155">
        <ele>1100.37</ele>
        <time>2015-11-08T12:31:08Z</time>
      </trkpt>
      <trkpt lat="44.90359" lon="5.25161">
        <ele>1101.33</ele>
        <time>2015-11-08T12:31:22Z</time>
      </trkpt>
      <trkpt lat="44.90359" lon="5.25161">
        <ele>1100.85</ele>
        <time>2015-11-08T12:31:23Z</time>
      </trkpt>
      <trkpt lat="44.90358" lon="5.25161">
        <ele>1099.89</ele>
        <time>2015-11-08T12:31:36Z</time>
      </trkpt>
      <trkpt lat="44.90353" lon="5.25157">
        <ele>1100.85</ele>
        <time>2015-11-08T12:32:18Z</time>
      </trkpt>
      <trkpt lat="44.90355" lon="5.25158">
        <ele>1100.37</ele>
        <time>2015-11-08T12:32:59Z</time>
      </trkpt>
      <trkpt lat="44.90347" lon="5.25155">
        <ele>1101.33</ele>
        <time>2015-11-08T12:33:30Z</time>
      </trkpt>
      <trkpt lat="44.90348" lon="5.25163">
        <ele>1101.81</ele>
        <time>2015-11-08T12:34:07Z</time>
      </trkpt>
      <trkpt lat="44.90349" lon="5.25158">
        <ele>1101.81</ele>
        <time>2015-11-08T12:34:38Z</time>
      </trkpt>
      <trkpt lat="44.90345" lon="5.25158">
        <ele>1102.29</ele>
        <time>2015-11-08T12:35:17Z</time>
      </trkpt>
      <trkpt lat="44.90343" lon="5.25157">
        <ele>1102.29</ele>
        <time>2015-11-08T12:35:56Z</time>
      </trkpt>
      <trkpt lat="44.90345" lon="5.25155">
        <ele>1103.73</ele>
        <time>2015-11-08T12:36:38Z</time>
      </trkpt>
      <trkpt lat="44.90341" lon="5.25151">
        <ele>1102.29</ele>
        <time>2015-11-08T12:37:18Z</time>
      </trkpt>
      <trkpt lat="44.90345" lon="5.25159">
        <ele>1101.81</ele>
        <time>2015-11-08T12:37:49Z</time>
      </trkpt>
      <trkpt lat="44.90345" lon="5.2516">
        <ele>1103.25</ele>
        <time>2015-11-08T12:38:25Z</time>
      </trkpt>
      <trkpt lat="44.90354" lon="5.25148">
        <ele>1103.73</ele>
        <time>2015-11-08T12:39:08Z</time>
      </trkpt>
      <trkpt lat="44.90353" lon="5.25143">
        <ele>1102.77</ele>
        <time>2015-11-08T12:39:45Z</time>
      </trkpt>
      <trkpt lat="44.90349" lon="5.25135">
        <ele>1102.29</ele>
        <time>2015-11-08T12:40:24Z</time>
      </trkpt>
      <trkpt lat="44.90349" lon="5.25135">
        <ele>1104.21</ele>
        <time>2015-11-08T12:40:31Z</time>
      </trkpt>
      <trkpt lat="44.9035" lon="5.25138">
        <ele>1102.77</ele>
        <time>2015-11-08T12:40:59Z</time>
      </trkpt>
      <trkpt lat="44.90354" lon="5.25143">
        <ele>1102.77</ele>
        <time>2015-11-08T12:41:32Z</time>
      </trkpt>
      <trkpt lat="44.90356" lon="5.25153">
        <ele>1102.29</ele>
        <time>2015-11-08T12:42:07Z</time>
      </trkpt>
      <trkpt lat="44.90356" lon="5.25157">
        <ele>1103.25</ele>
        <time>2015-11-08T12:42:37Z</time>
      </trkpt>
      <trkpt lat="44.90354" lon="5.25148">
        <ele>1101.81</ele>
        <time>2015-11-08T12:43:03Z</time>
      </trkpt>
      <trkpt lat="44.90352" lon="5.25145">
        <ele>1102.29</ele>
        <time>2015-11-08T12:43:40Z</time>
      </trkpt>
      <trkpt lat="44.90354" lon="5.25148">
        <ele>1101.81</ele>
        <time>2015-11-08T12:44:15Z</time>
      </trkpt>
      <trkpt lat="44.90356" lon="5.25153">
        <ele>1102.29</ele>
        <time>2015-11-08T12:44:46Z</time>
      </trkpt>
      <trkpt lat="44.90357" lon="5.25153">
        <ele>1102.77</ele>
        <time>2015-11-08T12:45:14Z</time>
      </trkpt>
      <trkpt lat="44.90354" lon="5.25149">
        <ele>1102.29</ele>
        <time>2015-11-08T12:45:43Z</time>
      </trkpt>
      <trkpt lat="44.90355" lon="5.25151">
        <ele>1102.29</ele>
        <time>2015-11-08T12:46:13Z</time>
      </trkpt>
      <trkpt lat="44.90353" lon="5.25147">
        <ele>1101.33</ele>
        <time>2015-11-08T12:46:45Z</time>
      </trkpt>
      <trkpt lat="44.90354" lon="5.25149">
        <ele>1101.33</ele>
        <time>2015-11-08T12:47:17Z</time>
      </trkpt>
      <trkpt lat="44.90356" lon="5.25157">
        <ele>1101.81</ele>
        <time>2015-11-08T12:47:45Z</time>
      </trkpt>
      <trkpt lat="44.90355" lon="5.25153">
        <ele>1101.33</ele>
        <time>2015-11-08T12:48:17Z</time>
      </trkpt>
      <trkpt lat="44.90356" lon="5.25155">
        <ele>1100.85</ele>
        <time>2015-11-08T12:48:43Z</time>
      </trkpt>
      <trkpt lat="44.90357" lon="5.25157">
        <ele>1102.77</ele>
        <time>2015-11-08T12:48:49Z</time>
      </trkpt>
      <trkpt lat="44.90358" lon="5.25158">
        <ele>1101.33</ele>
        <time>2015-11-08T12:48:52Z</time>
      </trkpt>
      <trkpt lat="44.90356" lon="5.25153">
        <ele>1101.33</ele>
        <time>2015-11-08T12:49:21Z</time>
      </trkpt>
      <trkpt lat="44.90358" lon="5.25157">
        <ele>1102.29</ele>
        <time>2015-11-08T12:49:55Z</time>
      </trkpt>
      <trkpt lat="44.90356" lon="5.25153">
        <ele>1102.29</ele>
        <time>2015-11-08T12:50:20Z</time>
      </trkpt>
      <trkpt lat="44.90357" lon="5.25164">
        <ele>1102.77</ele>
        <time>2015-11-08T12:50:35Z</time>
      </trkpt>
      <trkpt lat="44.90355" lon="5.25159">
        <ele>1102.77</ele>
        <time>2015-11-08T12:50:48Z</time>
      </trkpt>
      <trkpt lat="44.9035" lon="5.25159">
        <ele>1103.25</ele>
        <time>2015-11-08T12:51:02Z</time>
      </trkpt>
      <trkpt lat="44.90351" lon="5.25156">
        <ele>1102.29</ele>
        <time>2015-11-08T12:51:05Z</time>
      </trkpt>
      <trkpt lat="44.90352" lon="5.25158">
        <ele>1101.81</ele>
        <time>2015-11-08T12:51:20Z</time>
      </trkpt>
      <trkpt lat="44.90351" lon="5.25159">
        <ele>1101.81</ele>
        <time>2015-11-08T12:51:42Z</time>
      </trkpt>
      <trkpt lat="44.90351" lon="5.25158">
        <ele>1101.81</ele>
        <time>2015-11-08T12:52:00Z</time>
      </trkpt>
      <trkpt lat="44.9036" lon="5.25149">
        <ele>1100.37</ele>
        <time>2015-11-08T12:52:12Z</time>
      </trkpt>
      <trkpt lat="44.90361" lon="5.25146">
        <ele>1099.4</ele>
        <time>2015-11-08T12:52:14Z</time>
      </trkpt>
      <trkpt lat="44.9037" lon="5.25133">
        <ele>1097.48</ele>
        <time>2015-11-08T12:52:28Z</time>
      </trkpt>
      <trkpt lat="44.90372" lon="5.25122">
        <ele>1095.56</ele>
        <time>2015-11-08T12:52:40Z</time>
      </trkpt>
      <trkpt lat="44.90375" lon="5.25106">
        <ele>1093.16</ele>
        <time>2015-11-08T12:52:54Z</time>
      </trkpt>
      <trkpt lat="44.90379" lon="5.25096">
        <ele>1094.12</ele>
        <time>2015-11-08T12:53:14Z</time>
      </trkpt>
      <trkpt lat="44.90388" lon="5.2509">
        <ele>1094.12</ele>
        <time>2015-11-08T12:53:42Z</time>
      </trkpt>
      <trkpt lat="44.90399" lon="5.25089">
        <ele>1090.75</ele>
        <time>2015-11-08T12:54:06Z</time>
      </trkpt>
      <trkpt lat="44.90393" lon="5.25096">
        <ele>1091.23</ele>
        <time>2015-11-08T12:54:12Z</time>
      </trkpt>
      <trkpt lat="44.90396" lon="5.25098">
        <ele>1089.31</ele>
        <time>2015-11-08T12:54:18Z</time>
      </trkpt>
      <trkpt lat="44.904" lon="5.25098">
        <ele>1088.83</ele>
        <time>2015-11-08T12:54:28Z</time>
      </trkpt>
      <trkpt lat="44.90407" lon="5.25098">
        <ele>1086.91</ele>
        <time>2015-11-08T12:54:40Z</time>
      </trkpt>
      <trkpt lat="44.90412" lon="5.25098">
        <ele>1085.47</ele>
        <time>2015-11-08T12:54:51Z</time>
      </trkpt>
      <trkpt lat="44.90419" lon="5.25091">
        <ele>1082.58</ele>
        <time>2015-11-08T12:55:08Z</time>
      </trkpt>
      <trkpt lat="44.90433" lon="5.25083">
        <ele>1080.18</ele>
        <time>2015-11-08T12:55:22Z</time>
      </trkpt>
      <trkpt lat="44.90435" lon="5.2508">
        <ele>1080.66</ele>
        <time>2015-11-08T12:55:31Z</time>
      </trkpt>
      <trkpt lat="44.9044" lon="5.25067">
        <ele>1078.74</ele>
        <time>2015-11-08T12:55:46Z</time>
      </trkpt>
      <trkpt lat="44.9044" lon="5.25068">
        <ele>1078.26</ele>
        <time>2015-11-08T12:56:02Z</time>
      </trkpt>
      <trkpt lat="44.90455" lon="5.25069">
        <ele>1076.33</ele>
        <time>2015-11-08T12:56:16Z</time>
      </trkpt>
      <trkpt lat="44.90468" lon="5.25065">
        <ele>1073.93</ele>
        <time>2015-11-08T12:56:31Z</time>
      </trkpt>
      <trkpt lat="44.90481" lon="5.25064">
        <ele>1072.49</ele>
        <time>2015-11-08T12:56:44Z</time>
      </trkpt>
      <trkpt lat="44.90497" lon="5.25059">
        <ele>1070.08</ele>
        <time>2015-11-08T12:56:59Z</time>
      </trkpt>
      <trkpt lat="44.90501" lon="5.25058">
        <ele>1069.6</ele>
        <time>2015-11-08T12:57:04Z</time>
      </trkpt>
      <trkpt lat="44.90507" lon="5.25057">
        <ele>1068.64</ele>
        <time>2015-11-08T12:57:08Z</time>
      </trkpt>
      <trkpt lat="44.90517" lon="5.25059">
        <ele>1067.2</ele>
        <time>2015-11-08T12:57:17Z</time>
      </trkpt>
      <trkpt lat="44.9053" lon="5.25059">
        <ele>1065.76</ele>
        <time>2015-11-08T12:57:31Z</time>
      </trkpt>
      <trkpt lat="44.90528" lon="5.25057">
        <ele>1065.28</ele>
        <time>2015-11-08T12:57:35Z</time>
      </trkpt>
      <trkpt lat="44.90526" lon="5.25054">
        <ele>1064.8</ele>
        <time>2015-11-08T12:57:37Z</time>
      </trkpt>
      <trkpt lat="44.90523" lon="5.25051">
        <ele>1064.8</ele>
        <time>2015-11-08T12:57:40Z</time>
      </trkpt>
      <trkpt lat="44.90512" lon="5.25047">
        <ele>1063.36</ele>
        <time>2015-11-08T12:57:53Z</time>
      </trkpt>
      <trkpt lat="44.90501" lon="5.25045">
        <ele>1060.95</ele>
        <time>2015-11-08T12:58:05Z</time>
      </trkpt>
      <trkpt lat="44.905" lon="5.25045">
        <ele>1061.43</ele>
        <time>2015-11-08T12:58:06Z</time>
      </trkpt>
      <trkpt lat="44.90492" lon="5.25044">
        <ele>1059.51</ele>
        <time>2015-11-08T12:58:13Z</time>
      </trkpt>
      <trkpt lat="44.9048" lon="5.25039">
        <ele>1058.07</ele>
        <time>2015-11-08T12:58:27Z</time>
      </trkpt>
      <trkpt lat="44.90467" lon="5.25032">
        <ele>1055.67</ele>
        <time>2015-11-08T12:58:42Z</time>
      </trkpt>
      <trkpt lat="44.90462" lon="5.25024">
        <ele>1055.67</ele>
        <time>2015-11-08T12:58:56Z</time>
      </trkpt>
      <trkpt lat="44.9046" lon="5.25015">
        <ele>1054.22</ele>
        <time>2015-11-08T12:59:13Z</time>
      </trkpt>
      <trkpt lat="44.9046" lon="5.25013">
        <ele>1053.74</ele>
        <time>2015-11-08T12:59:14Z</time>
      </trkpt>
      <trkpt lat="44.90457" lon="5.25009">
        <ele>1052.78</ele>
        <time>2015-11-08T12:59:16Z</time>
      </trkpt>
      <trkpt lat="44.90457" lon="5.24993">
        <ele>1050.38</ele>
        <time>2015-11-08T12:59:30Z</time>
      </trkpt>
      <trkpt lat="44.90444" lon="5.24979">
        <ele>1048.94</ele>
        <time>2015-11-08T12:59:41Z</time>
      </trkpt>
      <trkpt lat="44.90437" lon="5.24971">
        <ele>1047.01</ele>
        <time>2015-11-08T12:59:57Z</time>
      </trkpt>
      <trkpt lat="44.90429" lon="5.2496">
        <ele>1046.05</ele>
        <time>2015-11-08T13:00:08Z</time>
      </trkpt>
      <trkpt lat="44.90422" lon="5.2495">
        <ele>1045.09</ele>
        <time>2015-11-08T13:00:23Z</time>
      </trkpt>
      <trkpt lat="44.90416" lon="5.24937">
        <ele>1044.13</ele>
        <time>2015-11-08T13:00:38Z</time>
      </trkpt>
      <trkpt lat="44.90409" lon="5.24931">
        <ele>1047.49</ele>
        <time>2015-11-08T13:00:45Z</time>
      </trkpt>
      <trkpt lat="44.90418" lon="5.24924">
        <ele>1044.61</ele>
        <time>2015-11-08T13:01:04Z</time>
      </trkpt>
      <trkpt lat="44.90419" lon="5.24926">
        <ele>1043.17</ele>
        <time>2015-11-08T13:01:07Z</time>
      </trkpt>
      <trkpt lat="44.90411" lon="5.24912">
        <ele>1041.25</ele>
        <time>2015-11-08T13:01:22Z</time>
      </trkpt>
      <trkpt lat="44.90401" lon="5.24898">
        <ele>1039.32</ele>
        <time>2015-11-08T13:01:33Z</time>
      </trkpt>
      <trkpt lat="44.90398" lon="5.24894">
        <ele>1038.84</ele>
        <time>2015-11-08T13:01:36Z</time>
      </trkpt>
      <trkpt lat="44.90392" lon="5.24887">
        <ele>1037.88</ele>
        <time>2015-11-08T13:01:42Z</time>
      </trkpt>
      <trkpt lat="44.90382" lon="5.24877">
        <ele>1035.96</ele>
        <time>2015-11-08T13:01:55Z</time>
      </trkpt>
      <trkpt lat="44.90377" lon="5.24873">
        <ele>1035</ele>
        <time>2015-11-08T13:02:00Z</time>
      </trkpt>
      <trkpt lat="44.90372" lon="5.2487">
        <ele>1034.04</ele>
        <time>2015-11-08T13:02:05Z</time>
      </trkpt>
      <trkpt lat="44.90362" lon="5.24857">
        <ele>1033.55</ele>
        <time>2015-11-08T13:02:19Z</time>
      </trkpt>
      <trkpt lat="44.9036" lon="5.24855">
        <ele>1032.11</ele>
        <time>2015-11-08T13:02:22Z</time>
      </trkpt>
      <trkpt lat="44.90348" lon="5.24841">
        <ele>1030.67</ele>
        <time>2015-11-08T13:02:37Z</time>
      </trkpt>
      <trkpt lat="44.90339" lon="5.2483">
        <ele>1028.27</ele>
        <time>2015-11-08T13:02:49Z</time>
      </trkpt>
      <trkpt lat="44.90332" lon="5.24817">
        <ele>1027.79</ele>
        <time>2015-11-08T13:03:05Z</time>
      </trkpt>
      <trkpt lat="44.90328" lon="5.24807">
        <ele>1026.34</ele>
        <time>2015-11-08T13:03:17Z</time>
      </trkpt>
      <trkpt lat="44.90324" lon="5.24799">
        <ele>1024.42</ele>
        <time>2015-11-08T13:03:30Z</time>
      </trkpt>
      <trkpt lat="44.90319" lon="5.24786">
        <ele>1023.94</ele>
        <time>2015-11-08T13:03:45Z</time>
      </trkpt>
      <trkpt lat="44.90314" lon="5.24771">
        <ele>1022.5</ele>
        <time>2015-11-08T13:03:59Z</time>
      </trkpt>
      <trkpt lat="44.90306" lon="5.24756">
        <ele>1020.1</ele>
        <time>2015-11-08T13:04:16Z</time>
      </trkpt>
      <trkpt lat="44.90301" lon="5.24745">
        <ele>1018.65</ele>
        <time>2015-11-08T13:04:30Z</time>
      </trkpt>
      <trkpt lat="44.9029" lon="5.24726">
        <ele>1017.21</ele>
        <time>2015-11-08T13:04:43Z</time>
      </trkpt>
      <trkpt lat="44.90279" lon="5.24714">
        <ele>1016.25</ele>
        <time>2015-11-08T13:04:55Z</time>
      </trkpt>
      <trkpt lat="44.90272" lon="5.24702">
        <ele>1014.33</ele>
        <time>2015-11-08T13:05:07Z</time>
      </trkpt>
      <trkpt lat="44.90264" lon="5.24688">
        <ele>1012.89</ele>
        <time>2015-11-08T13:05:21Z</time>
      </trkpt>
      <trkpt lat="44.90257" lon="5.24669">
        <ele>1011.44</ele>
        <time>2015-11-08T13:05:32Z</time>
      </trkpt>
      <trkpt lat="44.90257" lon="5.24663">
        <ele>1008.08</ele>
        <time>2015-11-08T13:05:45Z</time>
      </trkpt>
      <trkpt lat="44.90264" lon="5.24682">
        <ele>1006.16</ele>
        <time>2015-11-08T13:06:00Z</time>
      </trkpt>
      <trkpt lat="44.90271" lon="5.24694">
        <ele>1004.23</ele>
        <time>2015-11-08T13:06:12Z</time>
      </trkpt>
      <trkpt lat="44.90279" lon="5.24703">
        <ele>1002.79</ele>
        <time>2015-11-08T13:06:25Z</time>
      </trkpt>
      <trkpt lat="44.9028" lon="5.24704">
        <ele>1002.31</ele>
        <time>2015-11-08T13:06:27Z</time>
      </trkpt>
      <trkpt lat="44.90294" lon="5.24717">
        <ele>1001.35</ele>
        <time>2015-11-08T13:06:40Z</time>
      </trkpt>
      <trkpt lat="44.90302" lon="5.24723">
        <ele>999.43</ele>
        <time>2015-11-08T13:06:47Z</time>
      </trkpt>
      <trkpt lat="44.90313" lon="5.24735">
        <ele>997.02</ele>
        <time>2015-11-08T13:07:00Z</time>
      </trkpt>
      <trkpt lat="44.9032" lon="5.24739">
        <ele>996.06</ele>
        <time>2015-11-08T13:07:16Z</time>
      </trkpt>
      <trkpt lat="44.90329" lon="5.24748">
        <ele>994.14</ele>
        <time>2015-11-08T13:07:27Z</time>
      </trkpt>
      <trkpt lat="44.9034" lon="5.24761">
        <ele>992.7</ele>
        <time>2015-11-08T13:07:39Z</time>
      </trkpt>
      <trkpt lat="44.90348" lon="5.24769">
        <ele>991.26</ele>
        <time>2015-11-08T13:07:50Z</time>
      </trkpt>
      <trkpt lat="44.90359" lon="5.24778">
        <ele>989.81</ele>
        <time>2015-11-08T13:08:02Z</time>
      </trkpt>
      <trkpt lat="44.90375" lon="5.24781">
        <ele>987.89</ele>
        <time>2015-11-08T13:08:13Z</time>
      </trkpt>
      <trkpt lat="44.9038" lon="5.24783">
        <ele>986.93</ele>
        <time>2015-11-08T13:08:17Z</time>
      </trkpt>
      <trkpt lat="44.904" lon="5.24788">
        <ele>985.01</ele>
        <time>2015-11-08T13:08:30Z</time>
      </trkpt>
      <trkpt lat="44.90415" lon="5.24797">
        <ele>983.09</ele>
        <time>2015-11-08T13:08:45Z</time>
      </trkpt>
      <trkpt lat="44.9043" lon="5.24804">
        <ele>980.68</ele>
        <time>2015-11-08T13:08:58Z</time>
      </trkpt>
      <trkpt lat="44.90443" lon="5.24813">
        <ele>978.76</ele>
        <time>2015-11-08T13:09:12Z</time>
      </trkpt>
      <trkpt lat="44.90461" lon="5.24826">
        <ele>975.88</ele>
        <time>2015-11-08T13:09:26Z</time>
      </trkpt>
      <trkpt lat="44.90475" lon="5.24846">
        <ele>972.99</ele>
        <time>2015-11-08T13:09:44Z</time>
      </trkpt>
      <trkpt lat="44.90486" lon="5.24874">
        <ele>970.59</ele>
        <time>2015-11-08T13:10:03Z</time>
      </trkpt>
      <trkpt lat="44.90499" lon="5.24896">
        <ele>967.7</ele>
        <time>2015-11-08T13:10:19Z</time>
      </trkpt>
      <trkpt lat="44.90508" lon="5.2491">
        <ele>965.78</ele>
        <time>2015-11-08T13:10:34Z</time>
      </trkpt>
      <trkpt lat="44.90518" lon="5.24917">
        <ele>962.42</ele>
        <time>2015-11-08T13:10:47Z</time>
      </trkpt>
      <trkpt lat="44.90519" lon="5.24918">
        <ele>961.94</ele>
        <time>2015-11-08T13:10:48Z</time>
      </trkpt>
      <trkpt lat="44.90531" lon="5.24919">
        <ele>960.49</ele>
        <time>2015-11-08T13:11:00Z</time>
      </trkpt>
      <trkpt lat="44.9053" lon="5.24909">
        <ele>959.05</ele>
        <time>2015-11-08T13:11:08Z</time>
      </trkpt>
      <trkpt lat="44.90524" lon="5.249">
        <ele>957.13</ele>
        <time>2015-11-08T13:11:19Z</time>
      </trkpt>
      <trkpt lat="44.90518" lon="5.24884">
        <ele>953.77</ele>
        <time>2015-11-08T13:11:32Z</time>
      </trkpt>
      <trkpt lat="44.90516" lon="5.24868">
        <ele>950.88</ele>
        <time>2015-11-08T13:11:45Z</time>
      </trkpt>
      <trkpt lat="44.90517" lon="5.24848">
        <ele>947.52</ele>
        <time>2015-11-08T13:11:57Z</time>
      </trkpt>
      <trkpt lat="44.90511" lon="5.24824">
        <ele>945.59</ele>
        <time>2015-11-08T13:12:10Z</time>
      </trkpt>
      <trkpt lat="44.90507" lon="5.24799">
        <ele>942.71</ele>
        <time>2015-11-08T13:12:25Z</time>
      </trkpt>
      <trkpt lat="44.90501" lon="5.24776">
        <ele>940.79</ele>
        <time>2015-11-08T13:12:39Z</time>
      </trkpt>
      <trkpt lat="44.90492" lon="5.24759">
        <ele>938.86</ele>
        <time>2015-11-08T13:12:50Z</time>
      </trkpt>
      <trkpt lat="44.90482" lon="5.24745">
        <ele>937.42</ele>
        <time>2015-11-08T13:13:01Z</time>
      </trkpt>
      <trkpt lat="44.9048" lon="5.24743">
        <ele>937.42</ele>
        <time>2015-11-08T13:13:03Z</time>
      </trkpt>
      <trkpt lat="44.90471" lon="5.24729">
        <ele>935.5</ele>
        <time>2015-11-08T13:13:12Z</time>
      </trkpt>
      <trkpt lat="44.90458" lon="5.24712">
        <ele>932.62</ele>
        <time>2015-11-08T13:13:27Z</time>
      </trkpt>
      <trkpt lat="44.90457" lon="5.24709">
        <ele>932.62</ele>
        <time>2015-11-08T13:13:29Z</time>
      </trkpt>
      <trkpt lat="44.90442" lon="5.24693">
        <ele>930.69</ele>
        <time>2015-11-08T13:13:44Z</time>
      </trkpt>
      <trkpt lat="44.90437" lon="5.24685">
        <ele>929.73</ele>
        <time>2015-11-08T13:13:51Z</time>
      </trkpt>
      <trkpt lat="44.90423" lon="5.24673">
        <ele>927.33</ele>
        <time>2015-11-08T13:14:05Z</time>
      </trkpt>
      <trkpt lat="44.90416" lon="5.2466">
        <ele>926.85</ele>
        <time>2015-11-08T13:14:16Z</time>
      </trkpt>
      <trkpt lat="44.90415" lon="5.24657">
        <ele>926.37</ele>
        <time>2015-11-08T13:14:19Z</time>
      </trkpt>
      <trkpt lat="44.90413" lon="5.2464">
        <ele>924.45</ele>
        <time>2015-11-08T13:14:30Z</time>
      </trkpt>
      <trkpt lat="44.9041" lon="5.2463">
        <ele>923.48</ele>
        <time>2015-11-08T13:14:37Z</time>
      </trkpt>
      <trkpt lat="44.90402" lon="5.24619">
        <ele>922.52</ele>
        <time>2015-11-08T13:14:45Z</time>
      </trkpt>
      <trkpt lat="44.90396" lon="5.24612">
        <ele>921.56</ele>
        <time>2015-11-08T13:14:52Z</time>
      </trkpt>
      <trkpt lat="44.90394" lon="5.24609">
        <ele>921.56</ele>
        <time>2015-11-08T13:14:54Z</time>
      </trkpt>
      <trkpt lat="44.90382" lon="5.24592">
        <ele>920.12</ele>
        <time>2015-11-08T13:15:08Z</time>
      </trkpt>
      <trkpt lat="44.90374" lon="5.24577">
        <ele>919.64</ele>
        <time>2015-11-08T13:15:21Z</time>
      </trkpt>
      <trkpt lat="44.90366" lon="5.24563">
        <ele>920.12</ele>
        <time>2015-11-08T13:15:34Z</time>
      </trkpt>
      <trkpt lat="44.90368" lon="5.2455">
        <ele>918.2</ele>
        <time>2015-11-08T13:15:46Z</time>
      </trkpt>
      <trkpt lat="44.90373" lon="5.24539">
        <ele>915.79</ele>
        <time>2015-11-08T13:15:59Z</time>
      </trkpt>
      <trkpt lat="44.9038" lon="5.24529">
        <ele>914.35</ele>
        <time>2015-11-08T13:16:10Z</time>
      </trkpt>
      <trkpt lat="44.90383" lon="5.24524">
        <ele>912.91</ele>
        <time>2015-11-08T13:16:14Z</time>
      </trkpt>
      <trkpt lat="44.90391" lon="5.24503">
        <ele>910.03</ele>
        <time>2015-11-08T13:16:28Z</time>
      </trkpt>
      <trkpt lat="44.90392" lon="5.24498">
        <ele>908.58</ele>
        <time>2015-11-08T13:16:31Z</time>
      </trkpt>
      <trkpt lat="44.90393" lon="5.24489">
        <ele>907.62</ele>
        <time>2015-11-08T13:16:35Z</time>
      </trkpt>
      <trkpt lat="44.90392" lon="5.24478">
        <ele>907.14</ele>
        <time>2015-11-08T13:16:40Z</time>
      </trkpt>
      <trkpt lat="44.90392" lon="5.24454">
        <ele>905.22</ele>
        <time>2015-11-08T13:16:52Z</time>
      </trkpt>
      <trkpt lat="44.90392" lon="5.24431">
        <ele>903.3</ele>
        <time>2015-11-08T13:17:05Z</time>
      </trkpt>
      <trkpt lat="44.9039" lon="5.24408">
        <ele>901.37</ele>
        <time>2015-11-08T13:17:18Z</time>
      </trkpt>
      <trkpt lat="44.90384" lon="5.24382">
        <ele>898.97</ele>
        <time>2015-11-08T13:17:32Z</time>
      </trkpt>
      <trkpt lat="44.90373" lon="5.2436">
        <ele>896.57</ele>
        <time>2015-11-08T13:17:46Z</time>
      </trkpt>
      <trkpt lat="44.90372" lon="5.24357">
        <ele>896.57</ele>
        <time>2015-11-08T13:17:48Z</time>
      </trkpt>
      <trkpt lat="44.90356" lon="5.24341">
        <ele>895.12</ele>
        <time>2015-11-08T13:18:01Z</time>
      </trkpt>
      <trkpt lat="44.90344" lon="5.24331">
        <ele>892.72</ele>
        <time>2015-11-08T13:18:13Z</time>
      </trkpt>
      <trkpt lat="44.90332" lon="5.24323">
        <ele>890.8</ele>
        <time>2015-11-08T13:18:26Z</time>
      </trkpt>
      <trkpt lat="44.90331" lon="5.2432">
        <ele>891.28</ele>
        <time>2015-11-08T13:18:39Z</time>
      </trkpt>
      <trkpt lat="44.90329" lon="5.24313">
        <ele>889.84</ele>
        <time>2015-11-08T13:18:51Z</time>
      </trkpt>
      <trkpt lat="44.90326" lon="5.2431">
        <ele>889.84</ele>
        <time>2015-11-08T13:18:55Z</time>
      </trkpt>
      <trkpt lat="44.90324" lon="5.24308">
        <ele>889.84</ele>
        <time>2015-11-08T13:18:59Z</time>
      </trkpt>
      <trkpt lat="44.90332" lon="5.24288">
        <ele>888.88</ele>
        <time>2015-11-08T13:19:14Z</time>
      </trkpt>
      <trkpt lat="44.90329" lon="5.24285">
        <ele>890.32</ele>
        <time>2015-11-08T13:19:39Z</time>
      </trkpt>
      <trkpt lat="44.90335" lon="5.2428">
        <ele>886.95</ele>
        <time>2015-11-08T13:19:55Z</time>
      </trkpt>
      <trkpt lat="44.90342" lon="5.24275">
        <ele>886.95</ele>
        <time>2015-11-08T13:20:06Z</time>
      </trkpt>
      <trkpt lat="44.90349" lon="5.24268">
        <ele>885.03</ele>
        <time>2015-11-08T13:20:17Z</time>
      </trkpt>
      <trkpt lat="44.90361" lon="5.24261">
        <ele>881.67</ele>
        <time>2015-11-08T13:20:32Z</time>
      </trkpt>
      <trkpt lat="44.90367" lon="5.24258">
        <ele>881.19</ele>
        <time>2015-11-08T13:20:40Z</time>
      </trkpt>
      <trkpt lat="44.90387" lon="5.2425">
        <ele>878.78</ele>
        <time>2015-11-08T13:20:54Z</time>
      </trkpt>
      <trkpt lat="44.90411" lon="5.24251">
        <ele>877.34</ele>
        <time>2015-11-08T13:21:08Z</time>
      </trkpt>
      <trkpt lat="44.90424" lon="5.24252">
        <ele>876.38</ele>
        <time>2015-11-08T13:21:20Z</time>
      </trkpt>
      <trkpt lat="44.9043" lon="5.24253">
        <ele>875.9</ele>
        <time>2015-11-08T13:21:33Z</time>
      </trkpt>
      <trkpt lat="44.90433" lon="5.24254">
        <ele>874.94</ele>
        <time>2015-11-08T13:21:47Z</time>
      </trkpt>
      <trkpt lat="44.90434" lon="5.24255">
        <ele>874.94</ele>
        <time>2015-11-08T13:22:07Z</time>
      </trkpt>
      <trkpt lat="44.90438" lon="5.24251">
        <ele>873.98</ele>
        <time>2015-11-08T13:22:22Z</time>
      </trkpt>
      <trkpt lat="44.90438" lon="5.24254">
        <ele>875.42</ele>
        <time>2015-11-08T13:22:38Z</time>
      </trkpt>
      <trkpt lat="44.90432" lon="5.24258">
        <ele>873.98</ele>
        <time>2015-11-08T13:23:02Z</time>
      </trkpt>
      <trkpt lat="44.90426" lon="5.24264">
        <ele>874.94</ele>
        <time>2015-11-08T13:23:23Z</time>
      </trkpt>
      <trkpt lat="44.9043" lon="5.24263">
        <ele>874.94</ele>
        <time>2015-11-08T13:23:37Z</time>
      </trkpt>
      <trkpt lat="44.90433" lon="5.24258">
        <ele>874.46</ele>
        <time>2015-11-08T13:24:01Z</time>
      </trkpt>
      <trkpt lat="44.9044" lon="5.24265">
        <ele>874.94</ele>
        <time>2015-11-08T13:24:26Z</time>
      </trkpt>
      <trkpt lat="44.9044" lon="5.24271">
        <ele>873.01</ele>
        <time>2015-11-08T13:24:41Z</time>
      </trkpt>
      <trkpt lat="44.90449" lon="5.24274">
        <ele>873.01</ele>
        <time>2015-11-08T13:24:53Z</time>
      </trkpt>
      <trkpt lat="44.90462" lon="5.24278">
        <ele>870.13</ele>
        <time>2015-11-08T13:25:07Z</time>
      </trkpt>
      <trkpt lat="44.90475" lon="5.24283">
        <ele>868.21</ele>
        <time>2015-11-08T13:25:19Z</time>
      </trkpt>
      <trkpt lat="44.90496" lon="5.24283">
        <ele>866.29</ele>
        <time>2015-11-08T13:25:34Z</time>
      </trkpt>
      <trkpt lat="44.90503" lon="5.24278">
        <ele>864.84</ele>
        <time>2015-11-08T13:25:40Z</time>
      </trkpt>
      <trkpt lat="44.90518" lon="5.2426">
        <ele>865.8</ele>
        <time>2015-11-08T13:25:55Z</time>
      </trkpt>
      <trkpt lat="44.90518" lon="5.2426">
        <ele>862.44</ele>
        <time>2015-11-08T13:25:56Z</time>
      </trkpt>
      <trkpt lat="44.90522" lon="5.24258">
        <ele>863.4</ele>
        <time>2015-11-08T13:26:01Z</time>
      </trkpt>
      <trkpt lat="44.90527" lon="5.24256">
        <ele>861.96</ele>
        <time>2015-11-08T13:26:06Z</time>
      </trkpt>
      <trkpt lat="44.90539" lon="5.24266">
        <ele>860.52</ele>
        <time>2015-11-08T13:26:18Z</time>
      </trkpt>
      <trkpt lat="44.9055" lon="5.24277">
        <ele>858.59</ele>
        <time>2015-11-08T13:26:32Z</time>
      </trkpt>
      <trkpt lat="44.90559" lon="5.24286">
        <ele>857.15</ele>
        <time>2015-11-08T13:26:42Z</time>
      </trkpt>
      <trkpt lat="44.90574" lon="5.24298">
        <ele>854.75</ele>
        <time>2015-11-08T13:26:55Z</time>
      </trkpt>
      <trkpt lat="44.90575" lon="5.24299">
        <ele>854.75</ele>
        <time>2015-11-08T13:26:57Z</time>
      </trkpt>
      <trkpt lat="44.90583" lon="5.24306">
        <ele>853.79</ele>
        <time>2015-11-08T13:27:04Z</time>
      </trkpt>
      <trkpt lat="44.90587" lon="5.24308">
        <ele>852.83</ele>
        <time>2015-11-08T13:27:19Z</time>
      </trkpt>
      <trkpt lat="44.90602" lon="5.24319">
        <ele>850.42</ele>
        <time>2015-11-08T13:27:32Z</time>
      </trkpt>
      <trkpt lat="44.90617" lon="5.24331">
        <ele>848.5</ele>
        <time>2015-11-08T13:27:46Z</time>
      </trkpt>
      <trkpt lat="44.90618" lon="5.24333">
        <ele>848.98</ele>
        <time>2015-11-08T13:27:47Z</time>
      </trkpt>
      <trkpt lat="44.90621" lon="5.24335">
        <ele>848.5</ele>
        <time>2015-11-08T13:27:50Z</time>
      </trkpt>
      <trkpt lat="44.90633" lon="5.24346">
        <ele>847.06</ele>
        <time>2015-11-08T13:28:02Z</time>
      </trkpt>
      <trkpt lat="44.90645" lon="5.24356">
        <ele>845.14</ele>
        <time>2015-11-08T13:28:13Z</time>
      </trkpt>
      <trkpt lat="44.90656" lon="5.24372">
        <ele>843.69</ele>
        <time>2015-11-08T13:28:27Z</time>
      </trkpt>
      <trkpt lat="44.90666" lon="5.24381">
        <ele>841.77</ele>
        <time>2015-11-08T13:28:37Z</time>
      </trkpt>
      <trkpt lat="44.90675" lon="5.2439">
        <ele>840.33</ele>
        <time>2015-11-08T13:28:48Z</time>
      </trkpt>
      <trkpt lat="44.90677" lon="5.24392">
        <ele>840.33</ele>
        <time>2015-11-08T13:28:50Z</time>
      </trkpt>
      <trkpt lat="44.90686" lon="5.24402">
        <ele>838.89</ele>
        <time>2015-11-08T13:29:01Z</time>
      </trkpt>
      <trkpt lat="44.90705" lon="5.24409">
        <ele>836.96</ele>
        <time>2015-11-08T13:29:17Z</time>
      </trkpt>
      <trkpt lat="44.90719" lon="5.24417">
        <ele>835.52</ele>
        <time>2015-11-08T13:29:30Z</time>
      </trkpt>
      <trkpt lat="44.90724" lon="5.24424">
        <ele>834.08</ele>
        <time>2015-11-08T13:29:43Z</time>
      </trkpt>
      <trkpt lat="44.90728" lon="5.24432">
        <ele>834.08</ele>
        <time>2015-11-08T13:29:49Z</time>
      </trkpt>
      <trkpt lat="44.90734" lon="5.24437">
        <ele>832.64</ele>
        <time>2015-11-08T13:29:55Z</time>
      </trkpt>
      <trkpt lat="44.90738" lon="5.24443">
        <ele>831.68</ele>
        <time>2015-11-08T13:30:00Z</time>
      </trkpt>
      <trkpt lat="44.90746" lon="5.24451">
        <ele>830.24</ele>
        <time>2015-11-08T13:30:09Z</time>
      </trkpt>
      <trkpt lat="44.90756" lon="5.2446">
        <ele>828.79</ele>
        <time>2015-11-08T13:30:21Z</time>
      </trkpt>
      <trkpt lat="44.90761" lon="5.24467">
        <ele>828.31</ele>
        <time>2015-11-08T13:30:26Z</time>
      </trkpt>
      <trkpt lat="44.90765" lon="5.24471">
        <ele>827.35</ele>
        <time>2015-11-08T13:30:30Z</time>
      </trkpt>
      <trkpt lat="44.90773" lon="5.24479">
        <ele>827.35</ele>
        <time>2015-11-08T13:30:44Z</time>
      </trkpt>
      <trkpt lat="44.90774" lon="5.24474">
        <ele>825.43</ele>
        <time>2015-11-08T13:30:55Z</time>
      </trkpt>
      <trkpt lat="44.90772" lon="5.2447">
        <ele>825.43</ele>
        <time>2015-11-08T13:31:28Z</time>
      </trkpt>
      <trkpt lat="44.90773" lon="5.24478">
        <ele>826.87</ele>
        <time>2015-11-08T13:31:46Z</time>
      </trkpt>
      <trkpt lat="44.90777" lon="5.24477">
        <ele>826.39</ele>
        <time>2015-11-08T13:32:06Z</time>
      </trkpt>
      <trkpt lat="44.90773" lon="5.24477">
        <ele>825.91</ele>
        <time>2015-11-08T13:32:21Z</time>
      </trkpt>
      <trkpt lat="44.9077" lon="5.24483">
        <ele>826.39</ele>
        <time>2015-11-08T13:32:48Z</time>
      </trkpt>
      <trkpt lat="44.90774" lon="5.2448">
        <ele>825.43</ele>
        <time>2015-11-08T13:33:07Z</time>
      </trkpt>
      <trkpt lat="44.90789" lon="5.24493">
        <ele>823.99</ele>
        <time>2015-11-08T13:33:22Z</time>
      </trkpt>
      <trkpt lat="44.90805" lon="5.24514">
        <ele>821.1</ele>
        <time>2015-11-08T13:33:40Z</time>
      </trkpt>
      <trkpt lat="44.90809" lon="5.24519">
        <ele>820.14</ele>
        <time>2015-11-08T13:33:44Z</time>
      </trkpt>
      <trkpt lat="44.90822" lon="5.24535">
        <ele>818.7</ele>
        <time>2015-11-08T13:33:58Z</time>
      </trkpt>
      <trkpt lat="44.90834" lon="5.24555">
        <ele>816.78</ele>
        <time>2015-11-08T13:34:14Z</time>
      </trkpt>
      <trkpt lat="44.90836" lon="5.24562">
        <ele>814.37</ele>
        <time>2015-11-08T13:34:27Z</time>
      </trkpt>
      <trkpt lat="44.90842" lon="5.2457">
        <ele>813.89</ele>
        <time>2015-11-08T13:34:40Z</time>
      </trkpt>
      <trkpt lat="44.90854" lon="5.2459">
        <ele>811.97</ele>
        <time>2015-11-08T13:34:54Z</time>
      </trkpt>
      <trkpt lat="44.90856" lon="5.24593">
        <ele>811.01</ele>
        <time>2015-11-08T13:34:57Z</time>
      </trkpt>
      <trkpt lat="44.90871" lon="5.24613">
        <ele>809.09</ele>
        <time>2015-11-08T13:35:13Z</time>
      </trkpt>
      <trkpt lat="44.90873" lon="5.24615">
        <ele>808.61</ele>
        <time>2015-11-08T13:35:15Z</time>
      </trkpt>
      <trkpt lat="44.90876" lon="5.24623">
        <ele>807.64</ele>
        <time>2015-11-08T13:35:20Z</time>
      </trkpt>
      <trkpt lat="44.9089" lon="5.24641">
        <ele>806.2</ele>
        <time>2015-11-08T13:35:34Z</time>
      </trkpt>
      <trkpt lat="44.90895" lon="5.24646">
        <ele>805.24</ele>
        <time>2015-11-08T13:35:39Z</time>
      </trkpt>
      <trkpt lat="44.90907" lon="5.24646">
        <ele>804.28</ele>
        <time>2015-11-08T13:35:48Z</time>
      </trkpt>
      <trkpt lat="44.90918" lon="5.24639">
        <ele>803.32</ele>
        <time>2015-11-08T13:35:57Z</time>
      </trkpt>
      <trkpt lat="44.90934" lon="5.24632">
        <ele>801.88</ele>
        <time>2015-11-08T13:36:10Z</time>
      </trkpt>
      <trkpt lat="44.90949" lon="5.24638">
        <ele>800.44</ele>
        <time>2015-11-08T13:36:22Z</time>
      </trkpt>
      <trkpt lat="44.9095" lon="5.2464">
        <ele>799.47</ele>
        <time>2015-11-08T13:36:23Z</time>
      </trkpt>
      <trkpt lat="44.90948" lon="5.24646">
        <ele>798.51</ele>
        <time>2015-11-08T13:36:27Z</time>
      </trkpt>
      <trkpt lat="44.90939" lon="5.24651">
        <ele>797.55</ele>
        <time>2015-11-08T13:36:35Z</time>
      </trkpt>
      <trkpt lat="44.90932" lon="5.24654">
        <ele>796.11</ele>
        <time>2015-11-08T13:36:41Z</time>
      </trkpt>
      <trkpt lat="44.90925" lon="5.24661">
        <ele>795.63</ele>
        <time>2015-11-08T13:36:49Z</time>
      </trkpt>
      <trkpt lat="44.90916" lon="5.24684">
        <ele>794.19</ele>
        <time>2015-11-08T13:37:03Z</time>
      </trkpt>
      <trkpt lat="44.9091" lon="5.24693">
        <ele>793.22</ele>
        <time>2015-11-08T13:37:10Z</time>
      </trkpt>
      <trkpt lat="44.90906" lon="5.24696">
        <ele>792.26</ele>
        <time>2015-11-08T13:37:14Z</time>
      </trkpt>
      <trkpt lat="44.9089" lon="5.24692">
        <ele>790.34</ele>
        <time>2015-11-08T13:37:27Z</time>
      </trkpt>
      <trkpt lat="44.90874" lon="5.24688">
        <ele>787.94</ele>
        <time>2015-11-08T13:37:39Z</time>
      </trkpt>
      <trkpt lat="44.90854" lon="5.24683">
        <ele>785.53</ele>
        <time>2015-11-08T13:37:54Z</time>
      </trkpt>
      <trkpt lat="44.90842" lon="5.24682">
        <ele>784.09</ele>
        <time>2015-11-08T13:38:03Z</time>
      </trkpt>
      <trkpt lat="44.90826" lon="5.24677">
        <ele>782.65</ele>
        <time>2015-11-08T13:38:16Z</time>
      </trkpt>
      <trkpt lat="44.90809" lon="5.24664">
        <ele>778.32</ele>
        <time>2015-11-08T13:38:33Z</time>
      </trkpt>
      <trkpt lat="44.90809" lon="5.24664">
        <ele>781.69</ele>
        <time>2015-11-08T13:38:34Z</time>
      </trkpt>
      <trkpt lat="44.90803" lon="5.24671">
        <ele>779.29</ele>
        <time>2015-11-08T13:38:51Z</time>
      </trkpt>
      <trkpt lat="44.90799" lon="5.24676">
        <ele>780.25</ele>
        <time>2015-11-08T13:39:06Z</time>
      </trkpt>
      <trkpt lat="44.90796" lon="5.24684">
        <ele>779.77</ele>
        <time>2015-11-08T13:39:22Z</time>
      </trkpt>
      <trkpt lat="44.90794" lon="5.24685">
        <ele>780.73</ele>
        <time>2015-11-08T13:39:36Z</time>
      </trkpt>
      <trkpt lat="44.90802" lon="5.24683">
        <ele>779.77</ele>
        <time>2015-11-08T13:39:52Z</time>
      </trkpt>
      <trkpt lat="44.9081" lon="5.24697">
        <ele>777.84</ele>
        <time>2015-11-08T13:40:00Z</time>
      </trkpt>
      <trkpt lat="44.90826" lon="5.24716">
        <ele>775.92</ele>
        <time>2015-11-08T13:40:16Z</time>
      </trkpt>
      <trkpt lat="44.90836" lon="5.24722">
        <ele>774.48</ele>
        <time>2015-11-08T13:40:31Z</time>
      </trkpt>
      <trkpt lat="44.90854" lon="5.24728">
        <ele>773.04</ele>
        <time>2015-11-08T13:40:43Z</time>
      </trkpt>
      <trkpt lat="44.90872" lon="5.24744">
        <ele>772.08</ele>
        <time>2015-11-08T13:41:00Z</time>
      </trkpt>
      <trkpt lat="44.90879" lon="5.24752">
        <ele>770.63</ele>
        <time>2015-11-08T13:41:07Z</time>
      </trkpt>
      <trkpt lat="44.90881" lon="5.24754">
        <ele>770.15</ele>
        <time>2015-11-08T13:41:09Z</time>
      </trkpt>
      <trkpt lat="44.90897" lon="5.24767">
        <ele>768.23</ele>
        <time>2015-11-08T13:41:23Z</time>
      </trkpt>
      <trkpt lat="44.90911" lon="5.24779">
        <ele>766.79</ele>
        <time>2015-11-08T13:41:35Z</time>
      </trkpt>
      <trkpt lat="44.90927" lon="5.24792">
        <ele>765.35</ele>
        <time>2015-11-08T13:41:49Z</time>
      </trkpt>
      <trkpt lat="44.90933" lon="5.24795">
        <ele>763.9</ele>
        <time>2015-11-08T13:41:55Z</time>
      </trkpt>
      <trkpt lat="44.90943" lon="5.24797">
        <ele>762.94</ele>
        <time>2015-11-08T13:42:03Z</time>
      </trkpt>
      <trkpt lat="44.90951" lon="5.24796">
        <ele>762.46</ele>
        <time>2015-11-08T13:42:08Z</time>
      </trkpt>
      <trkpt lat="44.90963" lon="5.24796">
        <ele>760.54</ele>
        <time>2015-11-08T13:42:16Z</time>
      </trkpt>
      <trkpt lat="44.90977" lon="5.24798">
        <ele>759.1</ele>
        <time>2015-11-08T13:42:30Z</time>
      </trkpt>
      <trkpt lat="44.90982" lon="5.24804">
        <ele>758.62</ele>
        <time>2015-11-08T13:42:34Z</time>
      </trkpt>
      <trkpt lat="44.90985" lon="5.24814">
        <ele>757.66</ele>
        <time>2015-11-08T13:42:39Z</time>
      </trkpt>
      <trkpt lat="44.90988" lon="5.2482">
        <ele>757.18</ele>
        <time>2015-11-08T13:42:44Z</time>
      </trkpt>
      <trkpt lat="44.90999" lon="5.24842">
        <ele>754.29</ele>
        <time>2015-11-08T13:43:00Z</time>
      </trkpt>
      <trkpt lat="44.91" lon="5.24843">
        <ele>754.29</ele>
        <time>2015-11-08T13:43:01Z</time>
      </trkpt>
      <trkpt lat="44.91009" lon="5.24863">
        <ele>752.37</ele>
        <time>2015-11-08T13:43:15Z</time>
      </trkpt>
      <trkpt lat="44.9101" lon="5.24864">
        <ele>752.37</ele>
        <time>2015-11-08T13:43:16Z</time>
      </trkpt>
      <trkpt lat="44.91014" lon="5.2487">
        <ele>751.41</ele>
        <time>2015-11-08T13:43:21Z</time>
      </trkpt>
      <trkpt lat="44.91022" lon="5.24888">
        <ele>749.97</ele>
        <time>2015-11-08T13:43:30Z</time>
      </trkpt>
      <trkpt lat="44.91039" lon="5.24912">
        <ele>747.08</ele>
        <time>2015-11-08T13:43:48Z</time>
      </trkpt>
      <trkpt lat="44.91057" lon="5.24928">
        <ele>745.16</ele>
        <time>2015-11-08T13:44:03Z</time>
      </trkpt>
      <trkpt lat="44.9107" lon="5.24934">
        <ele>743.24</ele>
        <time>2015-11-08T13:44:14Z</time>
      </trkpt>
      <trkpt lat="44.91076" lon="5.24938">
        <ele>743.24</ele>
        <time>2015-11-08T13:44:19Z</time>
      </trkpt>
      <trkpt lat="44.91096" lon="5.24963">
        <ele>739.87</ele>
        <time>2015-11-08T13:44:37Z</time>
      </trkpt>
      <trkpt lat="44.91114" lon="5.24985">
        <ele>737.95</ele>
        <time>2015-11-08T13:44:54Z</time>
      </trkpt>
      <trkpt lat="44.91131" lon="5.24994">
        <ele>736.03</ele>
        <time>2015-11-08T13:45:11Z</time>
      </trkpt>
      <trkpt lat="44.91149" lon="5.24998">
        <ele>734.1</ele>
        <time>2015-11-08T13:45:29Z</time>
      </trkpt>
      <trkpt lat="44.91154" lon="5.25001">
        <ele>733.14</ele>
        <time>2015-11-08T13:45:33Z</time>
      </trkpt>
      <trkpt lat="44.91162" lon="5.25006">
        <ele>731.7</ele>
        <time>2015-11-08T13:45:40Z</time>
      </trkpt>
      <trkpt lat="44.91173" lon="5.25018">
        <ele>729.78</ele>
        <time>2015-11-08T13:45:51Z</time>
      </trkpt>
      <trkpt lat="44.91188" lon="5.25043">
        <ele>727.37</ele>
        <time>2015-11-08T13:46:08Z</time>
      </trkpt>
      <trkpt lat="44.91198" lon="5.25056">
        <ele>724.97</ele>
        <time>2015-11-08T13:46:18Z</time>
      </trkpt>
      <trkpt lat="44.91211" lon="5.25078">
        <ele>723.53</ele>
        <time>2015-11-08T13:46:33Z</time>
      </trkpt>
      <trkpt lat="44.91212" lon="5.2508">
        <ele>722.57</ele>
        <time>2015-11-08T13:46:35Z</time>
      </trkpt>
      <trkpt lat="44.91222" lon="5.25096">
        <ele>721.61</ele>
        <time>2015-11-08T13:46:47Z</time>
      </trkpt>
      <trkpt lat="44.9123" lon="5.25105">
        <ele>720.16</ele>
        <time>2015-11-08T13:47:02Z</time>
      </trkpt>
      <trkpt lat="44.91239" lon="5.25111">
        <ele>719.2</ele>
        <time>2015-11-08T13:47:15Z</time>
      </trkpt>
      <trkpt lat="44.91255" lon="5.25129">
        <ele>716.32</ele>
        <time>2015-11-08T13:47:32Z</time>
      </trkpt>
      <trkpt lat="44.91269" lon="5.25144">
        <ele>713.92</ele>
        <time>2015-11-08T13:47:48Z</time>
      </trkpt>
      <trkpt lat="44.91286" lon="5.2516">
        <ele>711.99</ele>
        <time>2015-11-08T13:48:04Z</time>
      </trkpt>
      <trkpt lat="44.91293" lon="5.25169">
        <ele>711.03</ele>
        <time>2015-11-08T13:48:12Z</time>
      </trkpt>
      <trkpt lat="44.91305" lon="5.25191">
        <ele>708.15</ele>
        <time>2015-11-08T13:48:29Z</time>
      </trkpt>
      <trkpt lat="44.91307" lon="5.25196">
        <ele>708.15</ele>
        <time>2015-11-08T13:48:32Z</time>
      </trkpt>
      <trkpt lat="44.91318" lon="5.25208">
        <ele>706.23</ele>
        <time>2015-11-08T13:48:43Z</time>
      </trkpt>
      <trkpt lat="44.91321" lon="5.25212">
        <ele>705.75</ele>
        <time>2015-11-08T13:48:46Z</time>
      </trkpt>
      <trkpt lat="44.91335" lon="5.2523">
        <ele>703.82</ele>
        <time>2015-11-08T13:49:04Z</time>
      </trkpt>
      <trkpt lat="44.91345" lon="5.25249">
        <ele>701.9</ele>
        <time>2015-11-08T13:49:19Z</time>
      </trkpt>
      <trkpt lat="44.91346" lon="5.2525">
        <ele>701.42</ele>
        <time>2015-11-08T13:49:21Z</time>
      </trkpt>
      <trkpt lat="44.91356" lon="5.25261">
        <ele>700.46</ele>
        <time>2015-11-08T13:49:34Z</time>
      </trkpt>
      <trkpt lat="44.91361" lon="5.25267">
        <ele>700.46</ele>
        <time>2015-11-08T13:49:38Z</time>
      </trkpt>
      <trkpt lat="44.91377" lon="5.2529">
        <ele>698.05</ele>
        <time>2015-11-08T13:49:54Z</time>
      </trkpt>
      <trkpt lat="44.9139" lon="5.25311">
        <ele>695.17</ele>
        <time>2015-11-08T13:50:10Z</time>
      </trkpt>
      <trkpt lat="44.91401" lon="5.25329">
        <ele>693.73</ele>
        <time>2015-11-08T13:50:24Z</time>
      </trkpt>
      <trkpt lat="44.91411" lon="5.25341">
        <ele>692.29</ele>
        <time>2015-11-08T13:50:36Z</time>
      </trkpt>
      <trkpt lat="44.91419" lon="5.25345">
        <ele>691.81</ele>
        <time>2015-11-08T13:50:43Z</time>
      </trkpt>
      <trkpt lat="44.91426" lon="5.25354">
        <ele>690.36</ele>
        <time>2015-11-08T13:50:51Z</time>
      </trkpt>
      <trkpt lat="44.91438" lon="5.25381">
        <ele>687.96</ele>
        <time>2015-11-08T13:51:08Z</time>
      </trkpt>
      <trkpt lat="44.91445" lon="5.25411">
        <ele>686.04</ele>
        <time>2015-11-08T13:51:26Z</time>
      </trkpt>
      <trkpt lat="44.91453" lon="5.25435">
        <ele>683.63</ele>
        <time>2015-11-08T13:51:41Z</time>
      </trkpt>
      <trkpt lat="44.91459" lon="5.25467">
        <ele>680.75</ele>
        <time>2015-11-08T13:51:59Z</time>
      </trkpt>
      <trkpt lat="44.91462" lon="5.25501">
        <ele>678.83</ele>
        <time>2015-11-08T13:52:17Z</time>
      </trkpt>
      <trkpt lat="44.91462" lon="5.25521">
        <ele>676.42</ele>
        <time>2015-11-08T13:52:31Z</time>
      </trkpt>
      <trkpt lat="44.91461" lon="5.25521">
        <ele>676.91</ele>
        <time>2015-11-08T13:52:32Z</time>
      </trkpt>
      <trkpt lat="44.9146" lon="5.25519">
        <ele>675.94</ele>
        <time>2015-11-08T13:52:35Z</time>
      </trkpt>
      <trkpt lat="44.91458" lon="5.25514">
        <ele>675.94</ele>
        <time>2015-11-08T13:52:43Z</time>
      </trkpt>
      <trkpt lat="44.91463" lon="5.25524">
        <ele>675.94</ele>
        <time>2015-11-08T13:52:51Z</time>
      </trkpt>
      <trkpt lat="44.91471" lon="5.25537">
        <ele>676.42</ele>
        <time>2015-11-08T13:53:02Z</time>
      </trkpt>
      <trkpt lat="44.91471" lon="5.2556">
        <ele>676.91</ele>
        <time>2015-11-08T13:53:17Z</time>
      </trkpt>
      <trkpt lat="44.91471" lon="5.25581">
        <ele>677.39</ele>
        <time>2015-11-08T13:53:31Z</time>
      </trkpt>
      <trkpt lat="44.9147" lon="5.25593">
        <ele>677.87</ele>
        <time>2015-11-08T13:53:43Z</time>
      </trkpt>
      <trkpt lat="44.91471" lon="5.25602">
        <ele>678.83</ele>
        <time>2015-11-08T13:53:53Z</time>
      </trkpt>
      <trkpt lat="44.91469" lon="5.25624">
        <ele>679.79</ele>
        <time>2015-11-08T13:54:07Z</time>
      </trkpt>
      <trkpt lat="44.91466" lon="5.25641">
        <ele>680.75</ele>
        <time>2015-11-08T13:54:20Z</time>
      </trkpt>
      <trkpt lat="44.91465" lon="5.25652">
        <ele>682.67</ele>
        <time>2015-11-08T13:54:29Z</time>
      </trkpt>
      <trkpt lat="44.91464" lon="5.25656">
        <ele>682.19</ele>
        <time>2015-11-08T13:54:32Z</time>
      </trkpt>
      <trkpt lat="44.91458" lon="5.25673">
        <ele>683.15</ele>
        <time>2015-11-08T13:54:44Z</time>
      </trkpt>
      <trkpt lat="44.91453" lon="5.25686">
        <ele>684.12</ele>
        <time>2015-11-08T13:54:54Z</time>
      </trkpt>
      <trkpt lat="44.9145" lon="5.25697">
        <ele>684.12</ele>
        <time>2015-11-08T13:55:01Z</time>
      </trkpt>
      <trkpt lat="44.91449" lon="5.257">
        <ele>684.12</ele>
        <time>2015-11-08T13:55:03Z</time>
      </trkpt>
      <trkpt lat="44.91449" lon="5.25702">
        <ele>684.6</ele>
        <time>2015-11-08T13:55:05Z</time>
      </trkpt>
      <trkpt lat="44.91447" lon="5.25722">
        <ele>685.56</ele>
        <time>2015-11-08T13:55:19Z</time>
      </trkpt>
      <trkpt lat="44.91445" lon="5.25738">
        <ele>686.52</ele>
        <time>2015-11-08T13:55:31Z</time>
      </trkpt>
      <trkpt lat="44.91444" lon="5.25741">
        <ele>686.52</ele>
        <time>2015-11-08T13:55:33Z</time>
      </trkpt>
      <trkpt lat="44.91443" lon="5.25746">
        <ele>687</ele>
        <time>2015-11-08T13:55:37Z</time>
      </trkpt>
      <trkpt lat="44.91442" lon="5.2575">
        <ele>686.52</ele>
        <time>2015-11-08T13:55:40Z</time>
      </trkpt>
      <trkpt lat="44.91441" lon="5.25758">
        <ele>687.96</ele>
        <time>2015-11-08T13:55:45Z</time>
      </trkpt>
      <trkpt lat="44.9144" lon="5.25771">
        <ele>688.92</ele>
        <time>2015-11-08T13:55:57Z</time>
      </trkpt>
      <trkpt lat="44.91441" lon="5.25787">
        <ele>688.92</ele>
        <time>2015-11-08T13:56:07Z</time>
      </trkpt>
      <trkpt lat="44.91445" lon="5.25797">
        <ele>688.92</ele>
        <time>2015-11-08T13:56:18Z</time>
      </trkpt>
      <trkpt lat="44.91449" lon="5.25806">
        <ele>688.44</ele>
        <time>2015-11-08T13:56:27Z</time>
      </trkpt>
      <trkpt lat="44.91454" lon="5.25813">
        <ele>688.92</ele>
        <time>2015-11-08T13:56:34Z</time>
      </trkpt>
      <trkpt lat="44.91465" lon="5.25827">
        <ele>687.48</ele>
        <time>2015-11-08T13:56:47Z</time>
      </trkpt>
      <trkpt lat="44.91471" lon="5.25833">
        <ele>687</ele>
        <time>2015-11-08T13:56:53Z</time>
      </trkpt>
      <trkpt lat="44.91484" lon="5.25835">
        <ele>685.08</ele>
        <time>2015-11-08T13:57:06Z</time>
      </trkpt>
      <trkpt lat="44.915" lon="5.25834">
        <ele>683.63</ele>
        <time>2015-11-08T13:57:22Z</time>
      </trkpt>
      <trkpt lat="44.91511" lon="5.25836">
        <ele>682.67</ele>
        <time>2015-11-08T13:57:34Z</time>
      </trkpt>
      <trkpt lat="44.91521" lon="5.25834">
        <ele>681.71</ele>
        <time>2015-11-08T13:57:43Z</time>
      </trkpt>
      <trkpt lat="44.91537" lon="5.25835">
        <ele>681.23</ele>
        <time>2015-11-08T13:57:56Z</time>
      </trkpt>
      <trkpt lat="44.91554" lon="5.2584">
        <ele>679.31</ele>
        <time>2015-11-08T13:58:10Z</time>
      </trkpt>
      <trkpt lat="44.91559" lon="5.25843">
        <ele>678.83</ele>
        <time>2015-11-08T13:58:14Z</time>
      </trkpt>
      <trkpt lat="44.91575" lon="5.25856">
        <ele>678.35</ele>
        <time>2015-11-08T13:58:29Z</time>
      </trkpt>
      <trkpt lat="44.91588" lon="5.25866">
        <ele>676.91</ele>
        <time>2015-11-08T13:58:40Z</time>
      </trkpt>
      <trkpt lat="44.916" lon="5.25875">
        <ele>675.94</ele>
        <time>2015-11-08T13:58:52Z</time>
      </trkpt>
      <trkpt lat="44.91615" lon="5.25885">
        <ele>673.54</ele>
        <time>2015-11-08T13:59:05Z</time>
      </trkpt>
      <trkpt lat="44.91626" lon="5.25891">
        <ele>671.14</ele>
        <time>2015-11-08T13:59:15Z</time>
      </trkpt>
      <trkpt lat="44.91647" lon="5.25895">
        <ele>669.7</ele>
        <time>2015-11-08T13:59:31Z</time>
      </trkpt>
      <trkpt lat="44.9166" lon="5.25897">
        <ele>668.25</ele>
        <time>2015-11-08T13:59:41Z</time>
      </trkpt>
      <trkpt lat="44.91667" lon="5.25902">
        <ele>667.77</ele>
        <time>2015-11-08T13:59:48Z</time>
      </trkpt>
      <trkpt lat="44.91675" lon="5.2591">
        <ele>667.29</ele>
        <time>2015-11-08T13:59:57Z</time>
      </trkpt>
      <trkpt lat="44.91678" lon="5.25918">
        <ele>665.85</ele>
        <time>2015-11-08T14:00:02Z</time>
      </trkpt>
      <trkpt lat="44.9168" lon="5.25929">
        <ele>665.37</ele>
        <time>2015-11-08T14:00:09Z</time>
      </trkpt>
      <trkpt lat="44.91692" lon="5.25955">
        <ele>662.97</ele>
        <time>2015-11-08T14:00:24Z</time>
      </trkpt>
      <trkpt lat="44.91691" lon="5.25955">
        <ele>662.97</ele>
        <time>2015-11-08T14:00:35Z</time>
      </trkpt>
      <trkpt lat="44.91694" lon="5.25968">
        <ele>662.49</ele>
        <time>2015-11-08T14:00:55Z</time>
      </trkpt>
      <trkpt lat="44.91697" lon="5.25974">
        <ele>661.52</ele>
        <time>2015-11-08T14:01:00Z</time>
      </trkpt>
      <trkpt lat="44.91702" lon="5.25978">
        <ele>660.56</ele>
        <time>2015-11-08T14:01:04Z</time>
      </trkpt>
      <trkpt lat="44.91705" lon="5.25981">
        <ele>660.56</ele>
        <time>2015-11-08T14:01:07Z</time>
      </trkpt>
      <trkpt lat="44.91711" lon="5.2599">
        <ele>659.12</ele>
        <time>2015-11-08T14:01:14Z</time>
      </trkpt>
      <trkpt lat="44.91721" lon="5.26008">
        <ele>656.72</ele>
        <time>2015-11-08T14:01:26Z</time>
      </trkpt>
      <trkpt lat="44.91727" lon="5.2603">
        <ele>653.35</ele>
        <time>2015-11-08T14:01:41Z</time>
      </trkpt>
      <trkpt lat="44.91729" lon="5.26044">
        <ele>650.47</ele>
        <time>2015-11-08T14:01:50Z</time>
      </trkpt>
      <trkpt lat="44.91729" lon="5.2605">
        <ele>649.51</ele>
        <time>2015-11-08T14:01:54Z</time>
      </trkpt>
      <trkpt lat="44.91733" lon="5.26066">
        <ele>647.1</ele>
        <time>2015-11-08T14:02:04Z</time>
      </trkpt>
      <trkpt lat="44.91738" lon="5.26072">
        <ele>646.62</ele>
        <time>2015-11-08T14:02:16Z</time>
      </trkpt>
      <trkpt lat="44.91737" lon="5.26079">
        <ele>645.66</ele>
        <time>2015-11-08T14:02:24Z</time>
      </trkpt>
      <trkpt lat="44.91742" lon="5.2609">
        <ele>644.22</ele>
        <time>2015-11-08T14:02:35Z</time>
      </trkpt>
      <trkpt lat="44.91748" lon="5.26103">
        <ele>642.3</ele>
        <time>2015-11-08T14:02:48Z</time>
      </trkpt>
      <trkpt lat="44.91753" lon="5.26107">
        <ele>640.86</ele>
        <time>2015-11-08T14:02:54Z</time>
      </trkpt>
      <trkpt lat="44.91756" lon="5.26108">
        <ele>640.38</ele>
        <time>2015-11-08T14:02:56Z</time>
      </trkpt>
      <trkpt lat="44.91771" lon="5.26109">
        <ele>637.01</ele>
        <time>2015-11-08T14:03:09Z</time>
      </trkpt>
      <trkpt lat="44.91776" lon="5.26114">
        <ele>636.53</ele>
        <time>2015-11-08T14:03:20Z</time>
      </trkpt>
      <trkpt lat="44.91782" lon="5.2613">
        <ele>634.13</ele>
        <time>2015-11-08T14:03:34Z</time>
      </trkpt>
      <trkpt lat="44.91781" lon="5.26148">
        <ele>631.24</ele>
        <time>2015-11-08T14:03:45Z</time>
      </trkpt>
      <trkpt lat="44.9178" lon="5.26155">
        <ele>629.8</ele>
        <time>2015-11-08T14:03:51Z</time>
      </trkpt>
      <trkpt lat="44.9178" lon="5.2616">
        <ele>629.32</ele>
        <time>2015-11-08T14:03:54Z</time>
      </trkpt>
      <trkpt lat="44.91775" lon="5.26176">
        <ele>626.44</ele>
        <time>2015-11-08T14:04:05Z</time>
      </trkpt>
      <trkpt lat="44.9178" lon="5.26203">
        <ele>624.03</ele>
        <time>2015-11-08T14:04:21Z</time>
      </trkpt>
      <trkpt lat="44.91791" lon="5.26223">
        <ele>623.55</ele>
        <time>2015-11-08T14:04:36Z</time>
      </trkpt>
      <trkpt lat="44.91797" lon="5.26244">
        <ele>620.19</ele>
        <time>2015-11-08T14:04:51Z</time>
      </trkpt>
      <trkpt lat="44.91782" lon="5.26263">
        <ele>618.26</ele>
        <time>2015-11-08T14:05:07Z</time>
      </trkpt>
      <trkpt lat="44.91773" lon="5.26264">
        <ele>616.82</ele>
        <time>2015-11-08T14:05:15Z</time>
      </trkpt>
      <trkpt lat="44.9176" lon="5.26256">
        <ele>616.34</ele>
        <time>2015-11-08T14:05:25Z</time>
      </trkpt>
      <trkpt lat="44.91754" lon="5.26253">
        <ele>615.38</ele>
        <time>2015-11-08T14:05:30Z</time>
      </trkpt>
      <trkpt lat="44.91751" lon="5.26251">
        <ele>614.9</ele>
        <time>2015-11-08T14:05:34Z</time>
      </trkpt>
      <trkpt lat="44.91747" lon="5.26251">
        <ele>614.42</ele>
        <time>2015-11-08T14:05:37Z</time>
      </trkpt>
      <trkpt lat="44.9175" lon="5.26268">
        <ele>613.46</ele>
        <time>2015-11-08T14:05:49Z</time>
      </trkpt>
      <trkpt lat="44.91756" lon="5.26276">
        <ele>612.98</ele>
        <time>2015-11-08T14:06:11Z</time>
      </trkpt>
      <trkpt lat="44.91758" lon="5.2628">
        <ele>612.5</ele>
        <time>2015-11-08T14:06:15Z</time>
      </trkpt>
      <trkpt lat="44.91771" lon="5.26294">
        <ele>611.54</ele>
        <time>2015-11-08T14:06:29Z</time>
      </trkpt>
      <trkpt lat="44.91782" lon="5.26301">
        <ele>610.57</ele>
        <time>2015-11-08T14:06:38Z</time>
      </trkpt>
      <trkpt lat="44.91786" lon="5.26301">
        <ele>610.09</ele>
        <time>2015-11-08T14:06:49Z</time>
      </trkpt>
      <trkpt lat="44.91793" lon="5.26309">
        <ele>609.13</ele>
        <time>2015-11-08T14:07:12Z</time>
      </trkpt>
      <trkpt lat="44.91809" lon="5.2631">
        <ele>607.69</ele>
        <time>2015-11-08T14:07:25Z</time>
      </trkpt>
      <trkpt lat="44.91823" lon="5.26308">
        <ele>607.21</ele>
        <time>2015-11-08T14:07:36Z</time>
      </trkpt>
      <trkpt lat="44.91837" lon="5.26318">
        <ele>606.25</ele>
        <time>2015-11-08T14:07:49Z</time>
      </trkpt>
      <trkpt lat="44.91831" lon="5.26336">
        <ele>605.77</ele>
        <time>2015-11-08T14:08:04Z</time>
      </trkpt>
      <trkpt lat="44.91825" lon="5.26339">
        <ele>604.33</ele>
        <time>2015-11-08T14:09:05Z</time>
      </trkpt>
    </trkseg>
  </trk>
</gpx>